Provisional Data: Little Buffalo Creek near Newport, PA


Please select a monitoring station.
Please select start date.
Please select start date.
Historical Station - Data Range: 11/07/2017 - 03/03/2020

Toggle Unit: C/F Toggle Unit: C/F
Sample Time Temperature (C) Temperature (F) Specific Conductivity (mS/cm) pH   Turbidity (NTU+) DO (mg/L)
2/3/2020 12:00:00 AM 3.88 38.984 0.202 7.41 4.77 13.09
2/3/2020 12:15:00 AM 3.87 38.966 0.202 7.41 5.04 13.09
2/3/2020 12:30:00 AM 3.86 38.948 0.202 7.41 5.29 13.1
2/3/2020 12:45:00 AM 3.83 38.894 0.202 7.41 5.35 13.1
2/3/2020 1:00:00 AM 3.79 38.822 0.202 7.41 5.39 13.12
2/3/2020 1:15:00 AM 3.76 38.768 0.203 7.41 5.29 13.12
2/3/2020 1:30:00 AM 3.73 38.714 0.203 7.41 5.4 13.14
2/3/2020 1:45:00 AM 3.68 38.624 0.203 7.41 5.34 13.16
2/3/2020 2:00:00 AM 3.64 38.552 0.203 7.41 5.33 13.17
2/3/2020 2:15:00 AM 3.64 38.552 0.203 7.42 5.28 13.19
2/3/2020 2:30:00 AM 3.64 38.552 0.203 7.41 5.09 13.19
2/3/2020 2:45:00 AM 3.62 38.516 0.203 7.42 5.49 13.2
2/3/2020 3:00:00 AM 3.61 38.498 0.203 7.42 5.09 13.22
2/3/2020 3:15:00 AM 3.6 38.48 0.203 7.42 5.24 13.22
2/3/2020 3:30:00 AM 3.59 38.462 0.203 7.42 4.91 13.23
2/3/2020 3:45:00 AM 3.6 38.48 0.203 7.42 4.93 13.23
2/3/2020 4:00:00 AM 3.6 38.48 0.203 7.42 5.41 13.24
2/3/2020 4:15:00 AM 3.61 38.498 0.203 7.42 5.37 13.23
2/3/2020 4:30:00 AM 3.61 38.498 0.203 7.42 4.97 13.25
2/3/2020 4:45:00 AM 3.61 38.498 0.204 7.42 5.24 13.25
2/3/2020 5:00:00 AM 3.61 38.498 0.204 7.42 5.18 13.25
2/3/2020 5:15:00 AM 3.6 38.48 0.204 7.42 4.99 13.26
2/3/2020 5:30:00 AM 3.6 38.48 0.203 7.42 5.19 13.27
2/3/2020 5:45:00 AM 3.59 38.462 0.203 7.42 5.41 13.27
2/3/2020 6:00:00 AM 3.59 38.462 0.203 7.43 5.09 13.28
2/3/2020 6:15:00 AM 3.57 38.426 0.203 7.43 5.13 13.29
2/3/2020 6:30:00 AM 3.57 38.426 0.203 7.43 5.28 13.29
2/3/2020 6:45:00 AM 3.55 38.39 0.203 7.43 5.39 13.3
2/3/2020 7:00:00 AM 3.54 38.372 0.203 7.43 5.14 13.31
2/3/2020 7:15:00 AM 3.53 38.354 0.203 7.42 5.23 13.32
2/3/2020 7:30:00 AM 3.53 38.354 0.203 7.43 5.3 13.33
2/3/2020 7:45:00 AM 3.52 38.336 0.203 7.43 4.94 13.35
2/3/2020 8:00:00 AM 3.52 38.336 0.203 7.43 5.71 13.38
2/3/2020 8:15:00 AM 3.52 38.336 0.203 7.44 5.18 13.41
2/3/2020 8:30:00 AM 3.53 38.354 0.203 7.44 5.17 13.43
2/3/2020 8:45:00 AM 3.55 38.39 0.203 7.44 5.84 13.46
2/3/2020 9:00:00 AM 3.59 38.462 0.203 7.45 5.21 13.48
2/3/2020 9:15:00 AM 3.63 38.534 0.203 7.45 5.03 13.5
2/3/2020 9:30:00 AM 3.69 38.642 0.203 7.46 5.04 13.51
2/3/2020 9:45:00 AM 3.78 38.804 0.203 7.47 5.1 13.51
2/3/2020 10:00:00 AM 3.88 38.984 0.203 7.47 4.96 13.5
2/3/2020 10:15:00 AM 3.99 39.182 0.203 7.48 5.06 13.49
2/3/2020 10:30:00 AM 4.11 39.398 0.203 7.48 5.23 13.48
2/3/2020 10:45:00 AM 4.25 39.65 0.203 7.48 4.77 13.47
2/3/2020 11:00:00 AM 4.4 39.92 0.203 7.48 5.08 13.44
2/3/2020 11:15:00 AM 4.56 40.208 0.203 7.49 4.94 13.41
2/3/2020 11:30:00 AM 4.73 40.514 0.202 7.49 5.01 13.38
2/3/2020 11:45:00 AM 4.89 40.802 0.202 7.5 7.18 13.35
2/3/2020 12:00:00 PM 5.07 41.126 0.202 7.5 7.53 13.31
2/3/2020 12:15:00 PM 5.24 41.432 0.202 7.52 5.23 13.27
2/3/2020 12:30:00 PM 5.42 41.756 0.202 7.52 5.15 13.23
2/3/2020 12:45:00 PM 5.59 42.062 0.202 7.52 5.07 13.19
2/3/2020 1:00:00 PM 5.75 42.35 0.202 7.52 4.97 13.13
2/3/2020 1:15:00 PM 5.9 42.62 0.202 7.53 5.17 13.08
2/3/2020 1:30:00 PM 6.06 42.908 0.202 7.53 5.14 13.04
2/3/2020 1:45:00 PM 6.22 43.196 0.202 7.54 5.05 13
2/3/2020 2:00:00 PM 6.36 43.448 0.202 7.54 5 12.95
2/3/2020 2:15:00 PM 6.46 43.628 0.202 7.44 5.32 12.91
2/3/2020 2:30:00 PM 6.53 43.754 0.202 7.54 5.18 12.86
2/3/2020 2:45:00 PM 6.6 43.88 0.202 7.54 4.86 12.83
2/3/2020 3:00:00 PM 6.64 43.952 0.202 7.54 4.88 12.8
2/3/2020 3:15:00 PM 6.65 43.97 0.202 7.54 5.01 12.78
2/3/2020 3:30:00 PM 6.65 43.97 0.202 7.54 4.75 12.74
2/3/2020 3:45:00 PM 6.63 43.934 0.203 7.53 4.75 12.71
2/3/2020 4:00:00 PM 6.61 43.898 0.203 7.54 7.56 12.69
2/3/2020 4:15:00 PM 6.58 43.844 0.203 7.53 5.37 12.67
2/3/2020 4:30:00 PM 6.55 43.79 0.203 7.53 6.05 12.65
2/3/2020 4:45:00 PM 6.49 43.682 0.203 7.52 5.91 12.62
2/3/2020 5:00:00 PM 6.42 43.556 0.203 7.52 4.89 12.6
2/3/2020 5:15:00 PM 6.36 43.448 0.203 7.51 5.01 12.56
2/3/2020 5:30:00 PM 6.31 43.358 0.203 7.5 4.83 12.53
2/3/2020 5:45:00 PM 6.26 43.268 0.203 7.49 4.78 12.5
2/3/2020 6:00:00 PM 6.21 43.178 0.203 7.48 5.3 12.48
2/3/2020 6:15:00 PM 6.18 43.124 0.203 7.47 4.93 12.45
2/3/2020 6:30:00 PM 6.15 43.07 0.203 7.46 4.94 12.44
2/3/2020 6:45:00 PM 6.12 43.016 0.203 7.46 5.03 12.43
2/3/2020 7:00:00 PM 6.09 42.962 0.203 7.46 4.85 12.43
2/3/2020 7:15:00 PM 6.05 42.89 0.203 7.45 5.23 12.43
2/3/2020 7:30:00 PM 6.01 42.818 0.203 7.44 5.01 12.41
2/3/2020 7:45:00 PM 5.97 42.746 0.203 7.44 5 12.42
2/3/2020 8:00:00 PM 5.94 42.692 0.203 7.44 4.93 12.42
2/3/2020 8:15:00 PM 5.91 42.638 0.203 7.44 5.03 12.42
2/3/2020 8:30:00 PM 5.88 42.584 0.203 7.43 5.07 12.43
2/3/2020 8:45:00 PM 5.84 42.512 0.203 7.43 4.76 12.44
2/3/2020 9:00:00 PM 5.81 42.458 0.204 7.43 4.79 12.43
2/3/2020 9:15:00 PM 5.77 42.386 0.203 7.43 4.73 12.44
2/3/2020 9:30:00 PM 5.73 42.314 0.203 7.42 4.77 12.45
2/3/2020 9:45:00 PM 5.69 42.242 0.203 7.42 4.67 12.46
2/3/2020 10:00:00 PM 5.64 42.152 0.204 7.42 4.9 12.48
2/3/2020 10:15:00 PM 5.59 42.062 0.204 7.42 4.7 12.49
2/3/2020 10:30:00 PM 5.54 41.972 0.204 7.42 4.53 12.51
2/3/2020 10:45:00 PM 5.5 41.9 0.204 7.42 4.76 12.53
2/3/2020 11:00:00 PM 5.46 41.828 0.204 7.41 4.87 12.54
2/3/2020 11:15:00 PM 5.42 41.756 0.204 7.41 4.81 12.56
2/3/2020 11:30:00 PM 5.37 41.666 0.204 7.41 4.65 12.57
2/3/2020 11:45:00 PM 5.32 41.576 0.204 7.41 4.81 12.61
2/4/2020 12:00:00 AM 5.28 41.504 0.204 7.41 5.15 12.61
2/4/2020 12:15:00 AM 5.24 41.432 0.204 7.41 4.75 12.64
2/4/2020 12:30:00 AM 5.19 41.342 0.204 7.41 6.43 12.65
2/4/2020 12:45:00 AM 5.13 41.234 0.204 7.41 4.99 12.67
2/4/2020 1:00:00 AM 5.08 41.144 0.204 7.41 4.83 12.7
2/4/2020 1:15:00 AM 5.04 41.072 0.205 7.4 4.86 12.71
2/4/2020 1:30:00 AM 5 41 0.205 7.4 5 12.73
2/4/2020 1:45:00 AM 4.96 40.928 0.205 7.4 4.88 12.75
2/4/2020 2:00:00 AM 4.93 40.874 0.205 7.4 4.76 12.76
2/4/2020 2:15:00 AM 4.89 40.802 0.205 7.4 4.67 12.78
2/4/2020 2:30:00 AM 4.86 40.748 0.205 7.4 4.95 12.8
2/4/2020 2:45:00 AM 4.84 40.712 0.205 7.4 5.45 12.81
2/4/2020 3:00:00 AM 4.81 40.658 0.205 7.4 4.8 12.83
2/4/2020 3:15:00 AM 4.79 40.622 0.205 7.4 4.8 12.83
2/4/2020 3:30:00 AM 4.77 40.586 0.205 7.4 4.96 12.84
2/4/2020 3:45:00 AM 4.76 40.568 0.205 7.4 4.95 12.85
2/4/2020 4:00:00 AM 4.74 40.532 0.205 7.4 4.75 12.85
2/4/2020 4:15:00 AM 4.73 40.514 0.205 7.4 4.88 12.86
2/4/2020 4:30:00 AM 4.72 40.496 0.205 7.4 5.09 12.87
2/4/2020 4:45:00 AM 4.71 40.478 0.205 7.4 4.96 12.86
2/4/2020 5:00:00 AM 4.7 40.46 0.205 7.4 5.03 12.87
2/4/2020 5:15:00 AM 4.69 40.442 0.205 7.4 5.05 12.88
2/4/2020 5:30:00 AM 4.69 40.442 0.205 7.39 4.92 12.87
2/4/2020 5:45:00 AM 4.69 40.442 0.206 7.39 4.87 12.88
2/4/2020 6:00:00 AM 4.68 40.424 0.206 7.39 4.85 12.88
2/4/2020 6:15:00 AM 4.68 40.424 0.206 7.39 4.67 12.88
2/4/2020 6:30:00 AM 4.68 40.424 0.206 7.39 4.89 12.88
2/4/2020 6:45:00 AM 4.68 40.424 0.206 7.39 4.78 12.88
2/4/2020 7:00:00 AM 4.68 40.424 0.206 7.39 4.67 12.88
2/4/2020 7:15:00 AM 4.69 40.442 0.206 7.39 4.83 12.88
2/4/2020 7:30:00 AM 4.69 40.442 0.206 7.39 4.95 12.89
2/4/2020 7:45:00 AM 4.7 40.46 0.206 7.39 4.85 12.88
2/4/2020 8:00:00 AM 4.72 40.496 0.206 7.39 4.84 12.91
2/4/2020 8:15:00 AM 4.73 40.514 0.206 7.4 4.72 12.91
2/4/2020 8:30:00 AM 4.76 40.568 0.206 7.4 4.92 12.94
2/4/2020 8:45:00 AM 4.78 40.604 0.206 7.4 5 12.95
2/4/2020 9:00:00 AM 4.8 40.64 0.206 7.41 6.12 12.96
2/4/2020 9:15:00 AM 4.82 40.676 0.206 7.41 5.37 12.95
2/4/2020 9:30:00 AM 4.85 40.73 0.206 7.41 4.61 12.98
2/4/2020 9:45:00 AM 4.88 40.784 0.206 7.42 4.59 12.98
2/4/2020 10:00:00 AM 4.9 40.82 0.206 7.42 4.61 12.97
2/4/2020 10:15:00 AM 4.93 40.874 0.206 7.42 4.58 12.97
2/4/2020 10:30:00 AM 4.96 40.928 0.206 7.42 4.71 12.97
2/4/2020 10:45:00 AM 5 41 0.206 7.43 4.65 13.01
2/4/2020 11:00:00 AM 5.04 41.072 0.206 7.43 4.76 13.02
2/4/2020 11:15:00 AM 5.09 41.162 0.206 7.43 4.51 13.02
2/4/2020 11:30:00 AM 5.17 41.306 0.205 7.45 4.73 13.05
2/4/2020 11:45:00 AM 5.27 41.486 0.205 7.46 4.73 13.07
2/4/2020 12:00:00 PM 5.44 41.792 0.205 7.47 5 13.08
2/4/2020 12:15:00 PM 5.63 42.134 0.205 7.48 4.57 13.05
2/4/2020 12:30:00 PM 5.71 42.278 0.205 7.49 4.62 13.03
2/4/2020 12:45:00 PM 5.79 42.422 0.205 7.49 5.3 12.98
2/4/2020 1:00:00 PM 5.86 42.548 0.205 7.5 4.82 12.95
2/4/2020 1:15:00 PM 5.93 42.674 0.205 7.5 4.72 12.89
2/4/2020 1:30:00 PM 5.99 42.782 0.205 7.5 4.83 12.87
2/4/2020 1:45:00 PM 6.07 42.926 0.205 7.51 4.86 12.86
2/4/2020 2:00:00 PM 6.27 43.286 0.205 7.52 7.72 12.88
2/4/2020 2:15:00 PM 6.42 43.556 0.205 7.53 4.94 12.84
2/4/2020 2:30:00 PM 6.51 43.718 0.205 7.54 6.92 12.82
2/4/2020 2:45:00 PM 6.61 43.898 0.205 7.54 4.57 12.77
2/4/2020 3:00:00 PM 6.71 44.078 0.205 7.55 4.63 12.74
2/4/2020 3:15:00 PM 6.76 44.168 0.205 7.55 4.59 12.69
2/4/2020 3:30:00 PM 6.77 44.186 0.205 7.54 4.65 12.61
2/4/2020 3:45:00 PM 6.78 44.204 0.205 7.53 4.6 12.56
2/4/2020 4:00:00 PM 6.82 44.276 0.205 7.52 11.12 12.51
2/4/2020 4:15:00 PM 6.83 44.294 0.205 7.52 4.69 12.44
2/4/2020 4:30:00 PM 6.85 44.33 0.205 7.52 6.14 12.43
2/4/2020 4:45:00 PM 6.87 44.366 0.205 7.51 4.27 12.42
2/4/2020 5:00:00 PM 6.89 44.402 0.205 7.5 4.18 12.36
2/4/2020 5:15:00 PM 6.89 44.402 0.205 7.49 4.29 12.31
2/4/2020 5:30:00 PM 6.9 44.42 0.205 7.49 4.32 12.29
2/4/2020 5:45:00 PM 6.9 44.42 0.205 7.48 4.56 12.25
2/4/2020 6:00:00 PM 6.9 44.42 0.205 7.47 4.38 12.22
2/4/2020 6:15:00 PM 6.89 44.402 0.205 7.47 4.39 12.2
2/4/2020 6:30:00 PM 6.89 44.402 0.205 7.46 4.33 12.18
2/4/2020 6:45:00 PM 6.9 44.42 0.205 7.46 4.43 12.17
2/4/2020 7:00:00 PM 6.9 44.42 0.205 7.45 4.44 12.16
2/4/2020 7:15:00 PM 6.9 44.42 0.205 7.45 4.54 12.15
2/4/2020 7:30:00 PM 6.91 44.438 0.205 7.44 4.52 12.13
2/4/2020 7:45:00 PM 6.91 44.438 0.205 7.43 4.38 12.11
2/4/2020 8:00:00 PM 6.93 44.474 0.205 7.43 4.51 12.1
2/4/2020 8:15:00 PM 6.94 44.492 0.205 7.43 4.6 12.1
2/4/2020 8:30:00 PM 6.94 44.492 0.205 7.43 4.5 12.08
2/4/2020 8:45:00 PM 6.95 44.51 0.205 7.43 4.47 12.07
2/4/2020 9:00:00 PM 6.95 44.51 0.205 7.42 4.64 12.06
2/4/2020 9:15:00 PM 6.95 44.51 0.205 7.42 4.56 12.06
2/4/2020 9:30:00 PM 6.96 44.528 0.205 7.42 4.52 12.06
2/4/2020 9:45:00 PM 6.96 44.528 0.205 7.42 4.48 12.06
2/4/2020 10:00:00 PM 6.96 44.528 0.205 7.42 4.43 12.06
2/4/2020 10:15:00 PM 6.95 44.51 0.205 7.41 4.52 12.06
2/4/2020 10:30:00 PM 6.94 44.492 0.205 7.41 4.5 12.05
2/4/2020 10:45:00 PM 6.93 44.474 0.205 7.41 4.21 12.06
2/4/2020 11:00:00 PM 6.93 44.474 0.205 7.41 4.45 12.06
2/4/2020 11:15:00 PM 6.92 44.456 0.205 7.41 4.36 12.07
2/4/2020 11:30:00 PM 6.89 44.402 0.205 7.42 4.31 12.09
2/4/2020 11:45:00 PM 6.84 44.312 0.205 7.42 4.54 12.1
2/5/2020 12:00:00 AM 6.8 44.24 0.206 7.42 4.98 12.12
2/5/2020 12:15:00 AM 6.75 44.15 0.207 7.43 5.3 12.12
2/5/2020 12:30:00 AM 6.7 44.06 0.206 7.43 4.85 12.14
2/5/2020 12:45:00 AM 6.64 43.952 0.206 7.43 4.68 12.17
2/5/2020 1:00:00 AM 6.58 43.844 0.205 7.43 4.6 12.19
2/5/2020 1:15:00 AM 6.52 43.736 0.205 7.43 4.45 12.21
2/5/2020 1:30:00 AM 6.46 43.628 0.205 7.43 4.79 12.23
2/5/2020 1:45:00 AM 6.4 43.52 0.205 7.43 4.61 12.26
2/5/2020 2:00:00 AM 6.33 43.394 0.205 7.43 4.51 12.28
2/5/2020 2:15:00 AM 6.27 43.286 0.206 7.43 4.66 12.31
2/5/2020 2:30:00 AM 6.2 43.16 0.206 7.43 4.61 12.33
2/5/2020 2:45:00 AM 6.13 43.034 0.206 7.43 4.55 12.35
2/5/2020 3:00:00 AM 6.07 42.926 0.206 7.43 4.44 12.38
2/5/2020 3:15:00 AM 6 42.8 0.206 7.43 4.59 12.4
2/5/2020 3:30:00 AM 5.94 42.692 0.206 7.43 4.48 12.4
2/5/2020 3:45:00 AM 5.86 42.548 0.206 7.44 4.44 12.46
2/5/2020 4:00:00 AM 5.81 42.458 0.206 7.44 4.45 12.47
2/5/2020 4:15:00 AM 5.74 42.332 0.206 7.44 4.58 12.51
2/5/2020 4:30:00 AM 5.67 42.206 0.206 7.43 4.57 12.53
2/5/2020 4:45:00 AM 5.61 42.098 0.206 7.43 4.48 12.54
2/5/2020 5:00:00 AM 5.56 42.008 0.206 7.43 4.4 12.57
2/5/2020 5:15:00 AM 5.5 41.9 0.206 7.44 4.55 12.6
2/5/2020 5:30:00 AM 5.44 41.792 0.206 7.43 4.47 12.62
2/5/2020 5:45:00 AM 5.39 41.702 0.206 7.43 4.37 12.64
2/5/2020 6:00:00 AM 5.33 41.594 0.206 7.43 4.51 12.67
2/5/2020 6:15:00 AM 5.28 41.504 0.206 7.43 4.48 12.69
2/5/2020 6:30:00 AM 5.25 41.45 0.206 7.43 4.41 12.71
2/5/2020 6:45:00 AM 5.2 41.36 0.206 7.43 4.35 12.74
2/5/2020 7:00:00 AM 5.15 41.27 0.206 7.43 4.39 12.75
2/5/2020 7:15:00 AM 5.1 41.18 0.206 7.43 4.44 12.77
2/5/2020 7:30:00 AM 5.06 41.108 0.206 7.43 4.45 12.81
2/5/2020 7:45:00 AM 5.03 41.054 0.206 7.43 4.61 12.83
2/5/2020 8:00:00 AM 5 41 0.206 7.44 4.45 12.87
2/5/2020 8:15:00 AM 4.96 40.928 0.206 7.44 4.43 12.91
2/5/2020 8:30:00 AM 4.94 40.892 0.206 7.44 4.28 12.93
2/5/2020 8:45:00 AM 4.92 40.856 0.206 7.45 4.32 13.02
2/5/2020 9:00:00 AM 4.9 40.82 0.206 7.46 4.27 13.06
2/5/2020 9:15:00 AM 4.89 40.802 0.206 7.46 4.34 13.08
2/5/2020 9:30:00 AM 4.88 40.784 0.206 7.47 4.03 13.14
2/5/2020 9:45:00 AM 4.87 40.766 0.206 7.48 4.31 13.18
2/5/2020 10:00:00 AM 4.88 40.784 0.207 7.49 4.45 13.23
2/5/2020 10:15:00 AM 4.91 40.838 0.207 7.49 4.41 13.27
2/5/2020 10:30:00 AM 4.92 40.856 0.207 7.5 4.18 13.28
2/5/2020 10:45:00 AM 4.93 40.874 0.207 7.5 4.32 13.29
2/5/2020 11:00:00 AM 4.93 40.874 0.207 7.51 4.17 13.3
2/5/2020 11:15:00 AM 4.94 40.892 0.207 7.51 4.39 13.3
2/5/2020 11:30:00 AM 4.95 40.91 0.207 7.51 4.41 13.31
2/5/2020 11:45:00 AM 4.95 40.91 0.207 7.51 4.25 13.32
2/5/2020 12:00:00 PM 4.99 40.982 0.207 7.52 4.27 13.35
2/5/2020 12:15:00 PM 5.01 41.018 0.207 7.53 4.28 13.36
2/5/2020 12:30:00 PM 5.06 41.108 0.207 7.53 4.29 13.38
2/5/2020 12:45:00 PM 5.12 41.216 0.207 7.53 4.16 13.37
2/5/2020 1:00:00 PM 5.18 41.324 0.207 7.54 4.28 13.37
2/5/2020 1:15:00 PM 5.24 41.432 0.207 7.55 4.45 13.37
2/5/2020 1:30:00 PM 5.29 41.522 0.207 7.55 4.24 13.36
2/5/2020 1:45:00 PM 5.33 41.594 0.207 7.55 4.09 13.35
2/5/2020 2:00:00 PM 5.33 41.594 0.207 7.55 6.09 13.32
2/5/2020 2:15:00 PM 5.34 41.612 0.207 7.56 4.27 13.3
2/5/2020 2:30:00 PM 5.36 41.648 0.207 7.55 4.18 13.28
2/5/2020 2:45:00 PM 5.36 41.648 0.207 7.55 4.18 13.27
2/5/2020 3:00:00 PM 5.35 41.63 0.207 7.55 4.3 13.25
2/5/2020 3:15:00 PM 5.35 41.63 0.207 7.56 4.31 13.24
2/5/2020 3:30:00 PM 5.36 41.648 0.207 7.55 4.4 13.24
2/5/2020 3:45:00 PM 5.35 41.63 0.207 7.55 4.27 13.23
2/5/2020 4:00:00 PM 5.34 41.612 0.207 7.55 4.47 13.21
2/5/2020 4:15:00 PM 5.31 41.558 0.207 7.54 4.2 13.18
2/5/2020 4:30:00 PM 5.28 41.504 0.207 7.54 4.34 13.16
2/5/2020 4:45:00 PM 5.25 41.45 0.207 7.54 4.44 13.13
2/5/2020 5:00:00 PM 5.22 41.396 0.207 7.53 4.23 13.08
2/5/2020 5:15:00 PM 5.18 41.324 0.207 7.52 4.32 13.04
2/5/2020 5:30:00 PM 5.15 41.27 0.207 7.51 4.13 13.03
2/5/2020 5:45:00 PM 5.11 41.198 0.207 7.5 4.32 12.99
2/5/2020 6:00:00 PM 5.08 41.144 0.207 7.5 4.29 12.97
2/5/2020 6:15:00 PM 5.05 41.09 0.207 7.49 4.65 12.95
2/5/2020 6:30:00 PM 5.02 41.036 0.207 7.48 4.61 12.93
2/5/2020 6:45:00 PM 5 41 0.207 7.48 4.33 12.93
2/5/2020 7:00:00 PM 4.97 40.946 0.207 7.47 4.46 12.93
2/5/2020 7:15:00 PM 4.94 40.892 0.207 7.47 4.38 12.92
2/5/2020 7:30:00 PM 4.92 40.856 0.208 7.46 4.6 12.91
2/5/2020 7:45:00 PM 4.89 40.802 0.208 7.46 4.43 12.89
2/5/2020 8:00:00 PM 4.87 40.766 0.208 7.45 4.35 12.89
2/5/2020 8:15:00 PM 4.84 40.712 0.207 7.46 4.31 12.91
2/5/2020 8:30:00 PM 4.81 40.658 0.208 7.45 4.4 12.91
2/5/2020 8:45:00 PM 4.79 40.622 0.208 7.45 4.31 12.89
2/5/2020 9:00:00 PM 4.76 40.568 0.208 7.45 4.33 12.9
2/5/2020 9:15:00 PM 4.74 40.532 0.208 7.45 4.43 12.91
2/5/2020 9:30:00 PM 4.72 40.496 0.208 7.45 4.52 12.92
2/5/2020 9:45:00 PM 4.69 40.442 0.208 7.45 4.9 12.93
2/5/2020 10:00:00 PM 4.66 40.388 0.208 7.44 4.27 12.92
2/5/2020 10:15:00 PM 4.63 40.334 0.208 7.45 4.36 12.93
2/5/2020 10:30:00 PM 4.61 40.298 0.208 7.44 4.46 12.93
2/5/2020 10:45:00 PM 4.58 40.244 0.208 7.44 4.53 12.94
2/5/2020 11:00:00 PM 4.55 40.19 0.208 7.44 4.4 12.94
2/5/2020 11:15:00 PM 4.52 40.136 0.208 7.44 4.32 12.97
2/5/2020 11:30:00 PM 4.49 40.082 0.208 7.43 4.31 12.97
2/5/2020 11:45:00 PM 4.46 40.028 0.208 7.43 5.07 12.98
2/6/2020 12:00:00 AM 4.43 39.974 0.208 7.43 4.47 12.97
2/6/2020 12:15:00 AM 4.4 39.92 0.208 7.43 4.21 12.99
2/6/2020 12:30:00 AM 4.37 39.866 0.208 7.43 4.35 13.01
2/6/2020 12:45:00 AM 4.34 39.812 0.208 7.43 4.27 13
2/6/2020 1:00:00 AM 4.31 39.758 0.208 7.43 4.42 13.02
2/6/2020 1:15:00 AM 4.29 39.722 0.208 7.43 4.29 13.03
2/6/2020 1:30:00 AM 4.26 39.668 0.208 7.43 4.36 13.03
2/6/2020 1:45:00 AM 4.23 39.614 0.208 7.43 4.27 13.05
2/6/2020 2:00:00 AM 4.2 39.56 0.208 7.43 4.24 13.06
2/6/2020 2:15:00 AM 4.18 39.524 0.208 7.42 4.37 13.06
2/6/2020 2:30:00 AM 4.15 39.47 0.208 7.43 4.5 13.07
2/6/2020 2:45:00 AM 4.12 39.416 0.208 7.42 4.49 13.07
2/6/2020 3:00:00 AM 4.09 39.362 0.208 7.42 4.33 13.08
2/6/2020 3:15:00 AM 4.07 39.326 0.209 7.42 4.62 13.08
2/6/2020 3:30:00 AM 4.05 39.29 0.208 7.42 4.42 13.09
2/6/2020 3:45:00 AM 4.03 39.254 0.209 7.42 4.25 13.1
2/6/2020 4:00:00 AM 4.02 39.236 0.209 7.42 4.16 13.11
2/6/2020 4:15:00 AM 4 39.2 0.209 7.42 4.37 13.1
2/6/2020 4:30:00 AM 3.99 39.182 0.209 7.42 4.28 13.11
2/6/2020 4:45:00 AM 3.97 39.146 0.209 7.43 4.35 13.11
2/6/2020 5:00:00 AM 3.96 39.128 0.209 7.42 4.44 13.11
2/6/2020 5:15:00 AM 3.95 39.11 0.209 7.42 4.31 13.12
2/6/2020 5:30:00 AM 3.94 39.092 0.209 7.43 4.07 13.12
2/6/2020 5:45:00 AM 3.93 39.074 0.209 7.42 4.15 13.12
2/6/2020 6:00:00 AM 3.92 39.056 0.209 7.43 4.43 13.12
2/6/2020 6:15:00 AM 3.91 39.038 0.209 7.43 4.28 13.12
2/6/2020 6:30:00 AM 3.9 39.02 0.209 7.42 4.2 13.12
2/6/2020 6:45:00 AM 3.89 39.002 0.209 7.42 4.24 13.1
2/6/2020 7:00:00 AM 3.88 38.984 0.209 7.42 4.37 13.12
2/6/2020 7:15:00 AM 3.88 38.984 0.209 7.42 4.35 13.12
2/6/2020 7:30:00 AM 3.87 38.966 0.209 7.42 4.31 13.13
2/6/2020 7:45:00 AM 3.86 38.948 0.209 7.43 4.38 13.14
2/6/2020 8:00:00 AM 3.86 38.948 0.209 7.43 4.31 13.16
2/6/2020 8:15:00 AM 3.86 38.948 0.209 7.43 4.29 13.16
2/6/2020 8:30:00 AM 3.86 38.948 0.209 7.43 4.51 13.18
2/6/2020 8:45:00 AM 3.87 38.966 0.209 7.43 4.38 13.19
2/6/2020 9:00:00 AM 3.88 38.984 0.209 7.44 4.3 13.23
2/6/2020 9:15:00 AM 3.89 39.002 0.209 7.45 4.32 13.26
2/6/2020 9:30:00 AM 3.92 39.056 0.209 7.45 4.21 13.29
2/6/2020 9:45:00 AM 3.93 39.074 0.209 7.45 4.13 13.29
2/6/2020 10:00:00 AM 3.94 39.092 0.209 7.46 4.11 13.29
2/6/2020 10:15:00 AM 3.96 39.128 0.209 7.46 4.12 13.3
2/6/2020 10:30:00 AM 3.97 39.146 0.209 7.47 4.13 13.31
2/6/2020 10:45:00 AM 3.99 39.182 0.209 7.47 4.07 13.33
2/6/2020 11:00:00 AM 4.01 39.218 0.209 7.48 4.05 13.34
2/6/2020 11:15:00 AM 4.03 39.254 0.209 7.48 4.02 13.35
2/6/2020 11:30:00 AM 4.05 39.29 0.209 7.48 4.05 13.35
2/6/2020 11:45:00 AM 4.07 39.326 0.209 7.49 4.1 13.35
2/6/2020 12:00:00 PM 4.09 39.362 0.209 7.49 3.99 13.34
2/6/2020 12:15:00 PM 4.12 39.416 0.209 7.49 4.01 13.35
2/6/2020 12:30:00 PM 4.14 39.452 0.209 7.49 4.06 13.35
2/6/2020 12:45:00 PM 4.16 39.488 0.209 7.49 4.28 13.34
2/6/2020 1:00:00 PM 4.18 39.524 0.209 7.5 3.96 13.33
2/6/2020 1:15:00 PM 4.2 39.56 0.209 7.5 3.89 13.32
2/6/2020 1:30:00 PM 4.22 39.596 0.209 7.5 3.97 13.31
2/6/2020 1:45:00 PM 4.23 39.614 0.209 7.5 4.02 13.29
2/6/2020 2:00:00 PM 4.25 39.65 0.209 7.51 3.95 13.29
2/6/2020 2:15:00 PM 4.27 39.686 0.209 7.5 3.93 13.27
2/6/2020 2:30:00 PM 4.28 39.704 0.209 7.5 4.22 13.24
2/6/2020 2:45:00 PM 4.29 39.722 0.209 7.5 3.96 13.23
2/6/2020 3:00:00 PM 4.3 39.74 0.209 7.5 3.92 13.21
2/6/2020 3:15:00 PM 4.31 39.758 0.209 7.5 3.81 13.19
2/6/2020 3:30:00 PM 4.32 39.776 0.209 7.5 4.01 13.18
2/6/2020 3:45:00 PM 4.34 39.812 0.209 7.5 4.07 13.18
2/6/2020 4:00:00 PM 4.35 39.83 0.209 7.5 3.89 13.17
2/6/2020 4:15:00 PM 4.36 39.848 0.208 7.49 3.93 13.13
2/6/2020 4:30:00 PM 4.37 39.866 0.209 7.49 4.1 13.1
2/6/2020 4:45:00 PM 4.38 39.884 0.209 7.49 4.93 13.08
2/6/2020 5:00:00 PM 4.39 39.902 0.21 7.49 5.59 13.07
2/6/2020 5:15:00 PM 4.4 39.92 0.209 7.48 5.55 13.03
2/6/2020 5:30:00 PM 4.4 39.92 0.209 7.48 5.69 13.01
2/6/2020 5:45:00 PM 4.4 39.92 0.208 7.47 4.49 12.97
2/6/2020 6:00:00 PM 4.4 39.92 0.208 7.47 4.38 12.95
2/6/2020 6:15:00 PM 4.4 39.92 0.208 7.46 4.41 12.92
2/6/2020 6:30:00 PM 4.41 39.938 0.208 7.46 4.38 12.91
2/6/2020 6:45:00 PM 4.41 39.938 0.208 7.45 4.38 12.88
2/6/2020 7:00:00 PM 4.41 39.938 0.208 7.45 4.57 12.88
2/6/2020 7:15:00 PM 4.41 39.938 0.208 7.45 4.69 12.85
2/6/2020 7:30:00 PM 4.41 39.938 0.208 7.44 4.52 12.84
2/6/2020 7:45:00 PM 4.42 39.956 0.208 7.44 4.78 12.83
2/6/2020 8:00:00 PM 4.43 39.974 0.208 7.44 4.29 12.82
2/6/2020 8:15:00 PM 4.44 39.992 0.208 7.44 4.47 12.82
2/6/2020 8:30:00 PM 4.44 39.992 0.208 7.44 4.43 12.81
2/6/2020 8:45:00 PM 4.45 40.01 0.208 7.44 4.45 12.81
2/6/2020 9:00:00 PM 4.46 40.028 0.208 7.44 4.36 12.81
2/6/2020 9:15:00 PM 4.46 40.028 0.208 7.43 4.41 12.8
2/6/2020 9:30:00 PM 4.47 40.046 0.208 7.43 4.15 12.8
2/6/2020 9:45:00 PM 4.47 40.046 0.208 7.43 4.27 12.79
2/6/2020 10:00:00 PM 4.48 40.064 0.208 7.43 4.2 12.79
2/6/2020 10:15:00 PM 4.49 40.082 0.208 7.43 4.44 12.78
2/6/2020 10:30:00 PM 4.49 40.082 0.208 7.43 4.34 12.78
2/6/2020 10:45:00 PM 4.5 40.1 0.208 7.43 4.32 12.77
2/6/2020 11:00:00 PM 4.5 40.1 0.208 7.43 4.28 12.76
2/6/2020 11:15:00 PM 4.51 40.118 0.208 7.42 4.27 12.77
2/6/2020 11:30:00 PM 4.51 40.118 0.208 7.42 4.52 12.75
2/6/2020 11:45:00 PM 4.52 40.136 0.208 7.45 4.26 12.75
2/7/2020 12:00:00 AM 4.52 40.136 0.208 7.42 4.24 12.76
2/7/2020 12:15:00 AM 4.52 40.136 0.208 7.42 4.28 12.76
2/7/2020 12:30:00 AM 4.53 40.154 0.208 7.43 4.15 12.76
2/7/2020 12:45:00 AM 4.53 40.154 0.208 7.43 4.18 12.74
2/7/2020 1:00:00 AM 4.54 40.172 0.208 7.42 4.16 12.74
2/7/2020 1:15:00 AM 4.54 40.172 0.208 7.42 4.12 12.74
2/7/2020 1:30:00 AM 4.55 40.19 0.208 7.42 4.17 12.73
2/7/2020 1:45:00 AM 4.55 40.19 0.208 7.42 4.33 12.72
2/7/2020 2:00:00 AM 4.56 40.208 0.208 7.42 4.09 12.72
2/7/2020 2:15:00 AM 4.56 40.208 0.208 7.42 4.33 12.72
2/7/2020 2:30:00 AM 4.57 40.226 0.208 7.42 6.08 12.7
2/7/2020 2:45:00 AM 4.57 40.226 0.209 7.42 4.71 12.7
2/7/2020 3:00:00 AM 4.58 40.244 0.209 7.42 4.93 12.69
2/7/2020 3:15:00 AM 4.59 40.262 0.209 7.42 4.78 12.7
2/7/2020 3:30:00 AM 4.59 40.262 0.209 7.42 4.59 12.7
2/7/2020 3:45:00 AM 4.6 40.28 0.209 7.42 4.64 12.69
2/7/2020 4:00:00 AM 4.61 40.298 0.209 7.42 4.35 12.68
2/7/2020 4:15:00 AM 4.61 40.298 0.209 7.42 4.54 12.66
2/7/2020 4:30:00 AM 4.62 40.316 0.21 7.42 4.45 12.65
2/7/2020 4:45:00 AM 4.63 40.334 0.21 7.41 4.57 12.65
2/7/2020 5:00:00 AM 4.63 40.334 0.21 7.41 4.62 12.64
2/7/2020 5:15:00 AM 4.64 40.352 0.209 7.41 4.75 12.63
2/7/2020 5:30:00 AM 4.64 40.352 0.209 7.41 4.67 12.63
2/7/2020 5:45:00 AM 4.65 40.37 0.208 7.41 4.83 12.63
2/7/2020 6:00:00 AM 4.66 40.388 0.208 7.41 5.97 12.62
2/7/2020 6:15:00 AM 4.7 40.46 0.21 7.43 10.37 12.6
2/7/2020 6:30:00 AM 4.79 40.622 0.2 7.46 37.18 12.61
2/7/2020 6:45:00 AM 4.76 40.568 0.192 7.47 30.93 12.63
2/7/2020 7:00:00 AM 4.75 40.55 0.189 7.46 35.14 12.64
2/7/2020 7:15:00 AM 4.74 40.532 0.191 7.43 18.31 12.61
2/7/2020 7:30:00 AM 4.73 40.514 0.194 7.41 15.89 12.61
2/7/2020 7:45:00 AM 4.74 40.532 0.193 7.41 18.83 12.61
2/7/2020 8:00:00 AM 4.76 40.568 0.192 7.42 24.82 12.61
2/7/2020 8:15:00 AM 4.79 40.622 0.187 7.42 27.75 12.61
2/7/2020 8:30:00 AM 4.83 40.694 0.183 7.41 29.32 12.6
2/7/2020 8:45:00 AM 4.85 40.73 0.184 7.38 29.58 12.6
2/7/2020 9:00:00 AM 4.86 40.748 0.183 7.36 35.53 12.6
2/7/2020 9:15:00 AM 4.88 40.784 0.182 7.33 52.89 12.61
2/7/2020 9:30:00 AM 4.89 40.802 0.178 7.33 38.61 12.62
2/7/2020 9:45:00 AM 4.9 40.82 0.174 7.32 38.49 12.63
2/7/2020 10:00:00 AM 4.91 40.838 0.168 7.28 57.22 12.66
2/7/2020 10:15:00 AM 4.93 40.874 0.164 7.28 38.55 12.67
2/7/2020 10:30:00 AM 4.96 40.928 0.163 7.26 37.65 12.68
2/7/2020 10:45:00 AM 4.98 40.964 0.164 7.25 33.98 12.72
2/7/2020 11:00:00 AM 5 41 0.167 7.25 47.91 12.7
2/7/2020 11:15:00 AM 5.03 41.054 0.171 7.25 35.14 12.71
2/7/2020 11:30:00 AM 5.06 41.108 0.173 7.26 32.02 12.69
2/7/2020 11:45:00 AM 5.1 41.18 0.172 7.25 48.23 12.69
2/7/2020 12:00:00 PM 5.12 41.216 0.171 7.25 39.72 12.7
2/7/2020 12:15:00 PM 5.12 41.216 0.169 7.24 30.96 12.68
2/7/2020 12:30:00 PM 5.13 41.234 0.167 7.24 38.7 12.7
2/7/2020 12:45:00 PM 5.15 41.27 0.165 7.25 32.66 12.71
2/7/2020 1:00:00 PM 5.16 41.288 0.164 7.25 33.29 12.78
2/7/2020 1:15:00 PM 5.14 41.252 0.163 7.26 30.04 12.78
2/7/2020 1:30:00 PM 5.11 41.198 0.163 7.26 25.99 12.8
2/7/2020 1:45:00 PM 5.07 41.126 0.163 7.26 24.54 12.82
2/7/2020 2:00:00 PM 5.03 41.054 0.164 7.27 23.38 12.86
2/7/2020 2:15:00 PM 4.99 40.982 0.165 7.27 24.64 12.87
2/7/2020 2:30:00 PM 4.94 40.892 0.166 7.29 21.21 12.91
2/7/2020 2:45:00 PM 4.87 40.766 0.167 7.3 21.91 12.93
2/7/2020 3:00:00 PM 4.81 40.658 0.168 7.3 17.27 12.95
2/7/2020 3:15:00 PM 4.75 40.55 0.169 7.3 18.1 12.99
2/7/2020 3:30:00 PM 4.72 40.496 0.17 7.31 17.09 13
2/7/2020 3:45:00 PM 4.68 40.424 0.171 7.31 18.66 13
2/7/2020 4:00:00 PM 4.64 40.352 0.171 7.32 17.97 13.05
2/7/2020 4:15:00 PM 4.59 40.262 0.172 7.32 15.03 13.06
2/7/2020 4:30:00 PM 4.54 40.172 0.173 7.33 14.84 13.11
2/7/2020 4:45:00 PM 4.49 40.082 0.173 7.33 13.83 13.1
2/7/2020 5:00:00 PM 4.44 39.992 0.174 7.33 12.81 13.13
2/7/2020 5:15:00 PM 4.4 39.92 0.174 7.32 12.8 13.13
2/7/2020 5:30:00 PM 4.36 39.848 0.175 7.33 13.31 13.14
2/7/2020 5:45:00 PM 4.32 39.776 0.175 7.32 12.62 13.13
2/7/2020 6:00:00 PM 4.28 39.704 0.175 7.32 20.01 13.15
2/7/2020 6:15:00 PM 4.24 39.632 0.176 7.32 12.45 13.16
2/7/2020 6:30:00 PM 4.2 39.56 0.176 7.32 15.5 13.19
2/7/2020 6:45:00 PM 4.16 39.488 0.176 7.32 13.39 13.18
2/7/2020 7:00:00 PM 4.12 39.416 0.176 7.32 12.47 13.2
2/7/2020 7:15:00 PM 4.09 39.362 0.177 7.32 11.8 13.22
2/7/2020 7:30:00 PM 4.05 39.29 0.177 7.32 21.87 13.23
2/7/2020 7:45:00 PM 4.01 39.218 0.177 7.31 12.42 13.24
2/7/2020 8:00:00 PM 3.97 39.146 0.177 7.32 10.23 13.26
2/7/2020 8:15:00 PM 3.93 39.074 0.177 7.32 13.39 13.29
2/7/2020 8:30:00 PM 3.89 39.002 0.178 7.32 12.89 13.31
2/7/2020 8:45:00 PM 3.87 38.966 0.178 7.33 13.48 13.34
2/7/2020 9:00:00 PM 3.84 38.912 0.178 7.33 11.66 13.33
2/7/2020 9:15:00 PM 3.83 38.894 0.178 7.32 12.31 13.34
2/7/2020 9:30:00 PM 3.85 38.93 0.178 7.32 12.58 13.32
2/7/2020 9:45:00 PM 3.85 38.93 0.178 7.33 10.77 13.37
2/7/2020 10:00:00 PM 3.86 38.948 0.177 7.32 13.21 13.34
2/7/2020 10:15:00 PM 3.86 38.948 0.177 7.32 13.52 13.36
2/7/2020 10:30:00 PM 3.86 38.948 0.176 7.32 12.55 13.35
2/7/2020 10:45:00 PM 3.85 38.93 0.176 7.32 12.6 13.36
2/7/2020 11:00:00 PM 3.84 38.912 0.176 7.32 11.59 13.35
2/7/2020 11:15:00 PM 3.83 38.894 0.176 7.31 14.21 13.36
2/7/2020 11:30:00 PM 3.82 38.876 0.175 7.32 10.76 13.37
2/7/2020 11:45:00 PM 3.81 38.858 0.175 7.32 13.26 13.4
2/8/2020 12:00:00 AM 3.79 38.822 0.175 7.32 14.35 13.4
2/8/2020 12:15:00 AM 3.77 38.786 0.175 7.32 12.27 13.4
2/8/2020 12:30:00 AM 3.75 38.75 0.175 7.32 14.9 13.43
2/8/2020 12:45:00 AM 3.73 38.714 0.175 7.32 15.02 13.44
2/8/2020 1:00:00 AM 3.72 38.696 0.175 7.32 12.64 13.45
2/8/2020 1:15:00 AM 3.7 38.66 0.175 7.32 13.58 13.47
2/8/2020 1:30:00 AM 3.69 38.642 0.175 7.32 14.48 13.46
2/8/2020 1:45:00 AM 3.66 38.588 0.175 7.32 12.06 13.48
2/8/2020 2:00:00 AM 3.65 38.57 0.175 7.32 11.56 13.51
2/8/2020 2:15:00 AM 3.64 38.552 0.175 7.32 13.65 13.5
2/8/2020 2:30:00 AM 3.62 38.516 0.174 7.31 13.33 13.51
2/8/2020 2:45:00 AM 3.61 38.498 0.174 7.32 12.99 13.51
2/8/2020 3:00:00 AM 3.61 38.498 0.174 7.32 13.7 13.53
2/8/2020 3:15:00 AM 3.61 38.498 0.175 7.32 11.21 13.54
2/8/2020 3:30:00 AM 3.62 38.516 0.175 7.31 12.87 13.53
2/8/2020 3:45:00 AM 3.62 38.516 0.176 7.32 11.49 13.54
2/8/2020 4:00:00 AM 3.62 38.516 0.176 7.32 12.61 13.55
2/8/2020 4:15:00 AM 3.61 38.498 0.176 7.32 12.24 13.58
2/8/2020 4:30:00 AM 3.6 38.48 0.176 7.32 10.84 13.57
2/8/2020 4:45:00 AM 3.6 38.48 0.176 7.32 12.38 13.59
2/8/2020 5:00:00 AM 3.59 38.462 0.176 7.32 12.52 13.6
2/8/2020 5:15:00 AM 3.59 38.462 0.176 7.32 13.23 13.57
2/8/2020 5:30:00 AM 3.59 38.462 0.176 7.32 12.48 13.58
2/8/2020 5:45:00 AM 3.59 38.462 0.176 7.32 12.17 13.59
2/8/2020 6:00:00 AM 3.6 38.48 0.177 7.32 12.1 13.59
2/8/2020 6:15:00 AM 3.6 38.48 0.176 7.32 12.01 13.59
2/8/2020 6:30:00 AM 3.6 38.48 0.176 7.32 12.38 13.59
2/8/2020 6:45:00 AM 3.6 38.48 0.177 7.32 11.98 13.59
2/8/2020 7:00:00 AM 3.6 38.48 0.177 7.32 12.17 13.6
2/8/2020 7:15:00 AM 3.6 38.48 0.177 7.32 11.12 13.58
2/8/2020 7:30:00 AM 3.6 38.48 0.177 7.32 12.79 13.6
2/8/2020 7:45:00 AM 3.61 38.498 0.177 7.33 13.31 13.6
2/8/2020 8:00:00 AM 3.62 38.516 0.177 7.33 14.77 13.6
2/8/2020 8:15:00 AM 3.63 38.534 0.177 7.33 11.26 13.61
2/8/2020 8:30:00 AM 3.64 38.552 0.177 7.33 11.54 13.66
2/8/2020 8:45:00 AM 3.67 38.606 0.177 7.34 13.53 13.68
2/8/2020 9:00:00 AM 3.68 38.624 0.177 7.35 12.15 13.69
2/8/2020 9:15:00 AM 3.71 38.678 0.177 7.35 12.05 13.69
2/8/2020 9:30:00 AM 3.74 38.732 0.177 7.36 8.94 13.7
2/8/2020 9:45:00 AM 3.78 38.804 0.178 7.36 10.65 13.71
2/8/2020 10:00:00 AM 3.82 38.876 0.178 7.37 10.78 13.73
2/8/2020 10:15:00 AM 3.86 38.948 0.178 7.37 10.99 13.74
2/8/2020 10:30:00 AM 3.95 39.11 0.178 7.38 9.75 13.75
2/8/2020 10:45:00 AM 4.04 39.272 0.178 7.38 10.36 13.73
2/8/2020 11:00:00 AM 4.12 39.416 0.178 7.39 9.99 13.73
2/8/2020 11:15:00 AM 4.22 39.596 0.178 7.39 9.88 13.7
2/8/2020 11:30:00 AM 4.34 39.812 0.178 7.4 10.23 13.7
2/8/2020 11:45:00 AM 4.39 39.902 0.178 7.4 9.81 13.68
2/8/2020 12:00:00 PM 4.46 40.028 0.178 7.4 10.34 13.65
2/8/2020 12:15:00 PM 4.51 40.118 0.178 7.4 10.26 13.64
2/8/2020 12:30:00 PM 4.6 40.28 0.178 7.41 9.61 13.63
2/8/2020 12:45:00 PM 4.66 40.388 0.178 7.41 10.59 13.6
2/8/2020 1:00:00 PM 4.68 40.424 0.178 7.41 10 13.57
2/8/2020 1:15:00 PM 4.66 40.388 0.178 7.41 9.99 13.58
2/8/2020 1:30:00 PM 4.7 40.46 0.178 7.42 9.06 13.55
2/8/2020 1:45:00 PM 4.73 40.514 0.178 7.42 10.2 13.53
2/8/2020 2:00:00 PM 4.76 40.568 0.178 7.42 10.06 13.5
2/8/2020 2:15:00 PM 4.84 40.712 0.178 7.42 9.46 13.48
2/8/2020 2:30:00 PM 4.88 40.784 0.178 7.42 9.93 13.47
2/8/2020 2:45:00 PM 4.96 40.928 0.178 7.43 9.42 13.45
2/8/2020 3:00:00 PM 4.99 40.982 0.178 7.43 10.6 13.44
2/8/2020 3:15:00 PM 4.95 40.91 0.178 7.43 9.9 13.42
2/8/2020 3:30:00 PM 4.95 40.91 0.178 7.43 10.02 13.42
2/8/2020 3:45:00 PM 4.92 40.856 0.178 7.43 9.77 13.42
2/8/2020 4:00:00 PM 4.88 40.784 0.178 7.42 10.88 13.41
2/8/2020 4:15:00 PM 4.86 40.748 0.178 7.42 11.03 13.41
2/8/2020 4:30:00 PM 4.82 40.676 0.178 7.42 12.27 13.41
2/8/2020 4:45:00 PM 4.78 40.604 0.178 7.41 9.84 13.41
2/8/2020 5:00:00 PM 4.73 40.514 0.178 7.41 10.47 13.41
2/8/2020 5:15:00 PM 4.68 40.424 0.178 7.41 9.44 13.41
2/8/2020 5:30:00 PM 4.64 40.352 0.178 7.4 11.39 13.4
2/8/2020 5:45:00 PM 4.59 40.262 0.179 7.39 10.25 13.37
2/8/2020 6:00:00 PM 4.55 40.19 0.179 7.39 10.2 13.38
2/8/2020 6:15:00 PM 4.5 40.1 0.179 7.38 9.66 13.38
2/8/2020 6:30:00 PM 4.44 39.992 0.179 7.37 9.54 13.38
2/8/2020 6:45:00 PM 4.39 39.902 0.179 7.37 10.44 13.39
2/8/2020 7:00:00 PM 4.34 39.812 0.178 7.36 11.32 13.4
2/8/2020 7:15:00 PM 4.29 39.722 0.178 7.36 9.8 13.41
2/8/2020 7:30:00 PM 4.24 39.632 0.178 7.35 9.96 13.41
2/8/2020 7:45:00 PM 4.19 39.542 0.177 7.35 10.19 13.43
2/8/2020 8:00:00 PM 4.16 39.488 0.177 7.35 12.4 13.44
2/8/2020 8:15:00 PM 4.13 39.434 0.176 7.34 10.24 13.46
2/8/2020 8:30:00 PM 4.1 39.38 0.176 7.34 11.58 13.46
2/8/2020 8:45:00 PM 4.07 39.326 0.176 7.34 10.16 13.48
2/8/2020 9:00:00 PM 4.04 39.272 0.176 7.33 10.43 13.49
2/8/2020 9:15:00 PM 4.02 39.236 0.175 7.33 10.09 13.51
2/8/2020 9:30:00 PM 3.99 39.182 0.175 7.33 9.72 13.51
2/8/2020 9:45:00 PM 3.98 39.164 0.175 7.33 10.12 13.53
2/8/2020 10:00:00 PM 3.97 39.146 0.175 7.32 9.56 13.52
2/8/2020 10:15:00 PM 3.96 39.128 0.175 7.32 10.11 13.54
2/8/2020 10:30:00 PM 3.95 39.11 0.175 7.32 9.75 13.54
2/8/2020 10:45:00 PM 3.94 39.092 0.175 7.32 9.74 13.53
2/8/2020 11:00:00 PM 3.92 39.056 0.174 7.32 10.25 13.55
2/8/2020 11:15:00 PM 3.91 39.038 0.174 7.32 10.18 13.55
2/8/2020 11:30:00 PM 3.91 39.038 0.174 7.32 10.08 13.55
2/8/2020 11:45:00 PM 3.89 39.002 0.174 7.32 10.41 13.56
2/9/2020 12:00:00 AM 3.88 38.984 0.173 7.32 9.65 13.56
2/9/2020 12:15:00 AM 3.88 38.984 0.173 7.32 10.18 13.56
2/9/2020 12:30:00 AM 3.88 38.984 0.173 7.32 9.5 13.57
2/9/2020 12:45:00 AM 3.87 38.966 0.173 7.32 9.8 13.58
2/9/2020 1:00:00 AM 3.86 38.948 0.173 7.32 10.46 13.57
2/9/2020 1:15:00 AM 3.85 38.93 0.173 7.32 10.17 13.58
2/9/2020 1:30:00 AM 3.84 38.912 0.173 7.32 10.54 13.58
2/9/2020 1:45:00 AM 3.83 38.894 0.174 7.32 9.62 13.59
2/9/2020 2:00:00 AM 3.82 38.876 0.174 7.32 9.95 13.6
2/9/2020 2:15:00 AM 3.79 38.822 0.175 7.32 10.05 13.62
2/9/2020 2:30:00 AM 3.76 38.768 0.175 7.32 9.97 13.61
2/9/2020 2:45:00 AM 3.74 38.732 0.176 7.32 10.11 13.62
2/9/2020 3:00:00 AM 3.73 38.714 0.176 7.32 10.44 13.62
2/9/2020 3:15:00 AM 3.7 38.66 0.177 7.33 222.31 13.63
2/9/2020 3:30:00 AM 3.66 38.588 0.177 7.32 9.23 13.63
2/9/2020 3:45:00 AM 3.63 38.534 0.177 7.32 8.84 13.64
2/9/2020 4:00:00 AM 3.59 38.462 0.178 7.32 8.45 13.65
2/9/2020 4:15:00 AM 3.56 38.408 0.178 7.33 8.8 13.67
2/9/2020 4:30:00 AM 3.52 38.336 0.179 7.33 8.6 13.68
2/9/2020 4:45:00 AM 3.51 38.318 0.179 7.33 8.37 13.69
2/9/2020 5:00:00 AM 3.5 38.3 0.179 7.33 8.33 13.7
2/9/2020 5:15:00 AM 3.49 38.282 0.18 7.33 8.45 13.71
2/9/2020 5:30:00 AM 3.48 38.264 0.18 7.33 8.71 13.72
2/9/2020 5:45:00 AM 3.47 38.246 0.18 7.33 8.5 13.73
2/9/2020 6:00:00 AM 3.46 38.228 0.18 7.34 7.95 13.73
2/9/2020 6:15:00 AM 3.46 38.228 0.181 7.33 7.86 13.74
2/9/2020 6:30:00 AM 3.45 38.21 0.181 7.34 8.03 13.75
2/9/2020 6:45:00 AM 3.45 38.21 0.181 7.34 7.69 13.75
2/9/2020 7:00:00 AM 3.44 38.192 0.181 7.33 7.73 13.76
2/9/2020 7:15:00 AM 3.44 38.192 0.181 7.34 7.85 13.76
2/9/2020 7:30:00 AM 3.43 38.174 0.181 7.33 8.05 13.76
2/9/2020 7:45:00 AM 3.44 38.192 0.182 7.34 8.25 13.78
2/9/2020 8:00:00 AM 3.45 38.21 0.182 7.34 7.86 13.79
2/9/2020 8:15:00 AM 3.47 38.246 0.182 7.34 7.75 13.79
2/9/2020 8:30:00 AM 3.5 38.3 0.182 7.35 8.27 13.82
2/9/2020 8:45:00 AM 3.53 38.354 0.182 7.35 8.14 13.83
2/9/2020 9:00:00 AM 3.56 38.408 0.182 7.36 7.78 13.85
2/9/2020 9:15:00 AM 3.6 38.48 0.182 7.37 8.91 13.86
2/9/2020 9:30:00 AM 3.65 38.57 0.182 7.37 8.46 13.88
2/9/2020 9:45:00 AM 3.7 38.66 0.182 7.38 8.52 13.89
2/9/2020 10:00:00 AM 3.76 38.768 0.182 7.39 8.43 13.89
2/9/2020 10:15:00 AM 3.83 38.894 0.182 7.4 9.25 13.91
2/9/2020 10:30:00 AM 3.9 39.02 0.182 7.39 8.4 13.89
2/9/2020 10:45:00 AM 3.97 39.146 0.182 7.4 8.36 13.89
2/9/2020 11:00:00 AM 4.05 39.29 0.182 7.41 8.46 13.88
2/9/2020 11:15:00 AM 4.11 39.398 0.182 7.41 8.69 13.87
2/9/2020 11:30:00 AM 4.13 39.434 0.182 7.41 7.61 13.84
2/9/2020 11:45:00 AM 4.15 39.47 0.182 7.41 8.09 13.83
2/9/2020 12:00:00 PM 4.18 39.524 0.182 7.42 8.88 13.82
2/9/2020 12:15:00 PM 4.22 39.596 0.182 7.42 7.82 13.81
2/9/2020 12:30:00 PM 4.29 39.722 0.182 7.43 7.56 13.8
2/9/2020 12:45:00 PM 4.41 39.938 0.182 7.43 7.48 13.8
2/9/2020 1:00:00 PM 4.56 40.208 0.182 7.43 9.77 13.76
2/9/2020 1:15:00 PM 4.78 40.604 0.182 7.44 7.62 13.72
2/9/2020 1:30:00 PM 4.89 40.802 0.182 7.44 8.47 13.67
2/9/2020 1:45:00 PM 5.04 41.072 0.181 7.45 7.59 13.63
2/9/2020 2:00:00 PM 5.08 41.144 0.181 7.45 7.95 13.6
2/9/2020 2:15:00 PM 5.14 41.252 0.179 7.45 9.31 13.57
2/9/2020 2:30:00 PM 5.16 41.288 0.181 7.45 8.22 13.56
2/9/2020 2:45:00 PM 5.18 41.324 0.181 7.45 8.72 13.53
2/9/2020 3:00:00 PM 5.13 41.234 0.181 7.45 7.28 13.53
2/9/2020 3:15:00 PM 5.15 41.27 0.181 7.45 7.25 13.51
2/9/2020 3:30:00 PM 5.15 41.27 0.181 7.46 7.18 13.49
2/9/2020 3:45:00 PM 5.15 41.27 0.181 7.46 7.18 13.47
2/9/2020 4:00:00 PM 5.13 41.234 0.181 7.45 7.5 13.46
2/9/2020 4:15:00 PM 5.11 41.198 0.181 7.45 7.28 13.44
2/9/2020 4:30:00 PM 5.1 41.18 0.182 7.45 7.42 13.43
2/9/2020 4:45:00 PM 5.1 41.18 0.182 7.44 7.17 13.41
2/9/2020 5:00:00 PM 5.08 41.144 0.182 7.44 7.28 13.38
2/9/2020 5:15:00 PM 5.07 41.126 0.182 7.43 7.81 13.35
2/9/2020 5:30:00 PM 5.06 41.108 0.182 7.43 7.4 13.31
2/9/2020 5:45:00 PM 5.03 41.054 0.182 7.42 7.43 13.29
2/9/2020 6:00:00 PM 4.99 40.982 0.182 7.41 7.67 13.28
2/9/2020 6:15:00 PM 4.95 40.91 0.182 7.4 7.61 13.27
2/9/2020 6:30:00 PM 4.91 40.838 0.183 7.4 7.77 13.27
2/9/2020 6:45:00 PM 4.87 40.766 0.183 7.39 7.52 13.26
2/9/2020 7:00:00 PM 4.83 40.694 0.183 7.39 10.98 13.27
2/9/2020 7:15:00 PM 4.8 40.64 0.183 7.39 7.08 13.27
2/9/2020 7:30:00 PM 4.77 40.586 0.183 7.38 7.4 13.27
2/9/2020 7:45:00 PM 4.73 40.514 0.183 7.38 8.94 13.27
2/9/2020 8:00:00 PM 4.7 40.46 0.183 7.38 7.7 13.28
2/9/2020 8:15:00 PM 4.67 40.406 0.143 7.37 9.41 13.28
2/9/2020 8:30:00 PM 4.63 40.334 0.183 7.37 8.7 13.3
2/9/2020 8:45:00 PM 4.6 40.28 0.183 7.37 9.18 13.3
2/9/2020 9:00:00 PM 4.57 40.226 0.183 7.37 7.84 13.32
2/9/2020 9:15:00 PM 4.54 40.172 0.183 7.37 7.06 13.33
2/9/2020 9:30:00 PM 4.51 40.118 0.183 7.37 7.48 13.32
2/9/2020 9:45:00 PM 4.48 40.064 0.184 7.36 7.43 13.33
2/9/2020 10:00:00 PM 4.45 40.01 0.184 7.37 7.22 13.34
2/9/2020 10:15:00 PM 4.43 39.974 0.184 7.36 7.5 13.35
2/9/2020 10:30:00 PM 4.41 39.938 0.184 7.37 6.95 13.35
2/9/2020 10:45:00 PM 4.39 39.902 0.184 7.36 8.04 13.35
2/9/2020 11:00:00 PM 4.38 39.884 0.184 7.36 7.24 13.36
2/9/2020 11:15:00 PM 4.37 39.866 0.184 7.36 7 13.35
2/9/2020 11:30:00 PM 4.36 39.848 0.184 7.36 7.47 13.35
2/9/2020 11:45:00 PM 4.35 39.83 0.184 7.36 7.3 13.36
2/10/2020 12:00:00 AM 4.35 39.83 0.184 7.36 7.79 13.36
2/10/2020 12:15:00 AM 4.34 39.812 0.184 7.36 7.15 13.35
2/10/2020 12:30:00 AM 4.33 39.794 0.184 7.36 6.79 13.35
2/10/2020 12:45:00 AM 4.33 39.794 0.184 7.37 7.41 13.35
2/10/2020 1:00:00 AM 4.33 39.794 0.184 7.36 7.54 13.35
2/10/2020 1:15:00 AM 4.33 39.794 0.184 7.37 7.35 13.34
2/10/2020 1:30:00 AM 4.33 39.794 0.184 7.36 7.08 13.34
2/10/2020 1:45:00 AM 4.33 39.794 0.184 7.37 7.61 13.34
2/10/2020 2:00:00 AM 4.33 39.794 0.184 7.36 7.34 13.34
2/10/2020 2:15:00 AM 4.33 39.794 0.184 7.36 7.46 13.33
2/10/2020 2:30:00 AM 4.33 39.794 0.184 7.36 7.18 13.33
2/10/2020 2:45:00 AM 4.33 39.794 0.184 7.36 6.92 13.32
2/10/2020 3:00:00 AM 4.33 39.794 0.184 7.36 6.64 13.32
2/10/2020 3:15:00 AM 4.34 39.812 0.184 7.36 7.15 13.31
2/10/2020 3:30:00 AM 4.34 39.812 0.184 7.36 6.77 13.32
2/10/2020 3:45:00 AM 4.34 39.812 0.184 7.36 6.86 13.32
2/10/2020 4:00:00 AM 4.34 39.812 0.183 7.36 7.26 13.31
2/10/2020 4:15:00 AM 4.34 39.812 0.183 7.36 7.06 13.31
2/10/2020 4:30:00 AM 4.33 39.794 0.185 7.36 6.94 13.31
2/10/2020 4:45:00 AM 4.33 39.794 0.184 7.36 6.8 13.31
2/10/2020 5:00:00 AM 4.33 39.794 0.184 7.36 6.76 13.3
2/10/2020 5:15:00 AM 4.33 39.794 0.185 7.36 6.84 13.29
2/10/2020 5:30:00 AM 4.33 39.794 0.185 7.36 6.88 13.3
2/10/2020 5:45:00 AM 4.33 39.794 0.185 7.36 7.07 13.29
2/10/2020 6:00:00 AM 4.33 39.794 0.185 7.36 7.16 13.3
2/10/2020 6:15:00 AM 4.33 39.794 0.184 7.36 7.04 13.29
2/10/2020 6:30:00 AM 4.33 39.794 0.184 7.36 6.81 13.3
2/10/2020 6:45:00 AM 4.33 39.794 0.184 7.36 8.27 13.29
2/10/2020 7:00:00 AM 4.33 39.794 0.185 7.36 8.36 13.28
2/10/2020 7:15:00 AM 4.33 39.794 0.185 7.36 7.24 13.3
2/10/2020 7:30:00 AM 4.33 39.794 0.185 7.36 7.62 13.3
2/10/2020 7:45:00 AM 4.33 39.794 0.184 7.36 7.64 13.3
2/10/2020 8:00:00 AM 4.34 39.812 0.184 7.36 7.62 13.32
2/10/2020 8:15:00 AM 4.36 39.848 0.184 7.36 7.56 13.33
2/10/2020 8:30:00 AM 4.37 39.866 0.184 7.37 7.3 13.35
2/10/2020 8:45:00 AM 4.39 39.902 0.184 7.37 7.27 13.37
2/10/2020 9:00:00 AM 4.41 39.938 0.184 7.37 7.28 13.37
2/10/2020 9:15:00 AM 4.43 39.974 0.184 7.38 7.4 13.38
2/10/2020 9:30:00 AM 4.46 40.028 0.184 7.38 7.1 13.38
2/10/2020 9:45:00 AM 4.49 40.082 0.184 7.39 7.34 13.39
2/10/2020 10:00:00 AM 4.51 40.118 0.184 7.39 6.83 13.4
2/10/2020 10:15:00 AM 4.54 40.172 0.184 7.39 6.95 13.4
2/10/2020 10:30:00 AM 4.57 40.226 0.184 7.4 6.94 13.4
2/10/2020 10:45:00 AM 4.61 40.298 0.184 7.4 6.77 13.41
2/10/2020 11:00:00 AM 4.65 40.37 0.184 7.41 6.66 13.41
2/10/2020 11:15:00 AM 4.68 40.424 0.184 7.41 7.07 13.4
2/10/2020 11:30:00 AM 4.71 40.478 0.184 7.41 7.1 13.38
2/10/2020 11:45:00 AM 4.74 40.532 0.184 7.41 6.64 13.38
2/10/2020 12:00:00 PM 4.77 40.586 0.183 7.42 6.83 13.37
2/10/2020 12:15:00 PM 4.8 40.64 0.183 7.42 6.74 13.36
2/10/2020 12:30:00 PM 4.83 40.694 0.183 7.42 6.79 13.35
2/10/2020 12:45:00 PM 4.85 40.73 0.183 7.42 6.62 13.33
2/10/2020 1:00:00 PM 4.88 40.784 0.183 7.42 6.75 13.32
2/10/2020 1:15:00 PM 4.91 40.838 0.183 7.42 8.77 13.3
2/10/2020 1:30:00 PM 4.94 40.892 0.183 7.42 6.57 13.3
2/10/2020 1:45:00 PM 4.97 40.946 0.183 7.42 6.53 13.29
2/10/2020 2:00:00 PM 4.99 40.982 0.183 7.42 7.33 13.27
2/10/2020 2:15:00 PM 5.02 41.036 0.183 7.42 7.47 13.26
2/10/2020 2:30:00 PM 5.04 41.072 0.183 7.42 7.29 13.25
2/10/2020 2:45:00 PM 5.06 41.108 0.183 7.43 7.24 13.24
2/10/2020 3:00:00 PM 5.08 41.144 0.183 7.43 7.34 13.24
2/10/2020 3:15:00 PM 5.09 41.162 0.183 7.42 7.31 13.21
2/10/2020 3:30:00 PM 5.11 41.198 0.184 7.42 7.61 13.2
2/10/2020 3:45:00 PM 5.11 41.198 0.184 7.42 7.48 13.17
2/10/2020 4:00:00 PM 5.12 41.216 0.184 7.42 7.4 13.17
2/10/2020 4:15:00 PM 5.12 41.216 0.184 7.42 7.53 13.17
2/10/2020 4:30:00 PM 5.13 41.234 0.184 7.42 8.35 13.16
2/10/2020 4:45:00 PM 5.13 41.234 0.184 7.41 7.26 13.14
2/10/2020 5:00:00 PM 5.13 41.234 0.184 7.41 7.03 13.14
2/10/2020 5:15:00 PM 5.13 41.234 0.184 7.41 6.9 13.12
2/10/2020 5:30:00 PM 5.14 41.252 0.184 7.42 13.13 13.13
2/10/2020 5:45:00 PM 5.13 41.234 0.184 7.4 6.46 13.09
2/10/2020 6:00:00 PM 5.12 41.216 0.184 7.4 6.68 13.07
2/10/2020 6:15:00 PM 5.12 41.216 0.184 7.39 6.77 13.05
2/10/2020 6:30:00 PM 5.11 41.198 0.184 7.39 7.53 13.06
2/10/2020 6:45:00 PM 5.11 41.198 0.184 7.39 8.73 13.04
2/10/2020 7:00:00 PM 5.1 41.18 0.185 7.39 7.42 13.04
2/10/2020 7:15:00 PM 5.1 41.18 0.184 7.38 7.52 13.04
2/10/2020 7:30:00 PM 5.09 41.162 0.184 7.38 7.83 13.03
2/10/2020 7:45:00 PM 5.08 41.144 0.185 7.38 7.29 13.04
2/10/2020 8:00:00 PM 5.08 41.144 0.185 7.38 8.23 13.04
2/10/2020 8:15:00 PM 5.07 41.126 0.185 7.38 7.72 13.03
2/10/2020 8:30:00 PM 5.06 41.108 0.185 7.37 6.35 13.03
2/10/2020 8:45:00 PM 5.06 41.108 0.185 7.37 6.73 13.02
2/10/2020 9:00:00 PM 5.05 41.09 0.185 7.37 6.4 13.03
2/10/2020 9:15:00 PM 5.04 41.072 0.185 7.37 6.28 13.03
2/10/2020 9:30:00 PM 5.04 41.072 0.185 7.37 6.53 13.03
2/10/2020 9:45:00 PM 5.03 41.054 0.185 7.37 6.48 13.03
2/10/2020 10:00:00 PM 5.02 41.036 0.185 7.37 6.38 13.03
2/10/2020 10:15:00 PM 5.02 41.036 0.185 7.32 6.49 13.03
2/10/2020 10:30:00 PM 5.01 41.018 0.185 7.36 6.8 13.03
2/10/2020 10:45:00 PM 5.01 41.018 0.185 7.36 6.64 13.04
2/10/2020 11:00:00 PM 5 41 0.185 7.36 6.37 13.03
2/10/2020 11:15:00 PM 5 41 0.185 7.36 6.38 13.03
2/10/2020 11:30:00 PM 5 41 0.185 7.36 6.78 13.03
2/10/2020 11:45:00 PM 4.99 40.982 0.185 7.36 7.54 13.03
2/11/2020 12:00:00 AM 4.99 40.982 0.185 7.36 6.31 13.04
2/11/2020 12:15:00 AM 4.98 40.964 0.185 7.36 6.11 13.03
2/11/2020 12:30:00 AM 4.98 40.964 0.185 7.35 6.73 13.03
2/11/2020 12:45:00 AM 4.98 40.964 0.185 7.35 6.38 13.03
2/11/2020 1:00:00 AM 4.97 40.946 0.185 7.35 5.11 13.03
2/11/2020 1:15:00 AM 4.97 40.946 0.185 7.35 7.65 13.03
2/11/2020 1:30:00 AM 4.97 40.946 0.185 7.35 6.29 13.04
2/11/2020 1:45:00 AM 4.97 40.946 0.185 7.35 6.39 13.03
2/11/2020 2:00:00 AM 4.97 40.946 0.185 7.35 6.27 13.02
2/11/2020 2:15:00 AM 4.97 40.946 0.185 7.35 6.88 13.03
2/11/2020 2:30:00 AM 4.97 40.946 0.185 7.35 7.08 13.02
2/11/2020 2:45:00 AM 4.97 40.946 0.185 7.35 6.86 13.02
2/11/2020 3:00:00 AM 4.96 40.928 0.185 7.35 6.61 13.02
2/11/2020 3:15:00 AM 4.96 40.928 0.185 7.35 6.71 13.02
2/11/2020 3:30:00 AM 4.96 40.928 0.185 7.35 6.63 13.01
2/11/2020 3:45:00 AM 4.96 40.928 0.186 7.35 6.8 13.01
2/11/2020 4:00:00 AM 4.96 40.928 0.186 7.35 6.65 13.01
2/11/2020 4:15:00 AM 4.96 40.928 0.186 7.35 6.63 13.01
2/11/2020 4:30:00 AM 4.96 40.928 0.186 7.35 6.47 13.01
2/11/2020 4:45:00 AM 4.96 40.928 0.186 7.35 7.05 13
2/11/2020 5:00:00 AM 4.96 40.928 0.185 7.35 6.63 13.01
2/11/2020 5:15:00 AM 4.96 40.928 0.185 7.35 6.45 13
2/11/2020 5:30:00 AM 4.96 40.928 0.185 7.35 6.54 12.99
2/11/2020 5:45:00 AM 4.96 40.928 0.186 7.35 6.73 13
2/11/2020 6:00:00 AM 4.96 40.928 0.186 7.34 6.37 13.01
2/11/2020 6:15:00 AM 4.96 40.928 0.186 7.34 6.68 13
2/11/2020 6:30:00 AM 4.96 40.928 0.186 7.34 6.37 13
2/11/2020 6:45:00 AM 4.96 40.928 0.186 7.34 5.29 13
2/11/2020 7:00:00 AM 4.96 40.928 0.186 7.34 7.22 13
2/11/2020 7:15:00 AM 4.96 40.928 0.186 7.34 7.26 12.99
2/11/2020 7:30:00 AM 4.96 40.928 0.186 7.34 6.96 12.99
2/11/2020 7:45:00 AM 4.96 40.928 0.186 7.34 7.15 12.99
2/11/2020 8:00:00 AM 4.97 40.946 0.186 7.35 7.73 13.01
2/11/2020 8:15:00 AM 4.97 40.946 0.186 7.35 7.43 13.03
2/11/2020 8:30:00 AM 4.98 40.964 0.186 7.35 7.38 13.04
2/11/2020 8:45:00 AM 4.99 40.982 0.186 7.35 6.51 13.03
2/11/2020 9:00:00 AM 5 41 0.186 7.36 5.83 13.05
2/11/2020 9:15:00 AM 5.01 41.018 0.186 7.37 5.96 13.07
2/11/2020 9:30:00 AM 5.03 41.054 0.186 7.37 6.01 13.07
2/11/2020 9:45:00 AM 5.05 41.09 0.186 7.37 5.78 13.09
2/11/2020 10:00:00 AM 5.06 41.108 0.186 7.38 6.27 13.09
2/11/2020 10:15:00 AM 5.07 41.126 0.186 7.38 7.08 13.1
2/11/2020 10:30:00 AM 5.09 41.162 0.186 7.39 7.21 13.12
2/11/2020 10:45:00 AM 5.11 41.198 0.186 7.39 6.54 13.13
2/11/2020 11:00:00 AM 5.13 41.234 0.186 7.4 6.84 13.13
2/11/2020 11:15:00 AM 5.14 41.252 0.186 7.39 6.78 13.11
2/11/2020 11:30:00 AM 5.15 41.27 0.186 7.4 5.74 13.12
2/11/2020 11:45:00 AM 5.17 41.306 0.186 7.4 6.09 13.12
2/11/2020 12:00:00 PM 5.19 41.342 0.186 7.41 5.93 13.13
2/11/2020 12:15:00 PM 5.23 41.414 0.186 7.41 7.98 13.15
2/11/2020 12:30:00 PM 5.28 41.504 0.186 7.42 7.08 13.17
2/11/2020 12:45:00 PM 5.33 41.594 0.186 7.43 7.03 13.18
2/11/2020 1:00:00 PM 5.38 41.684 0.186 7.43 7.5 13.17
2/11/2020 1:15:00 PM 5.41 41.738 0.186 7.44 7.1 13.15
2/11/2020 1:30:00 PM 5.44 41.792 0.186 7.44 6.88 13.14
2/11/2020 1:45:00 PM 5.49 41.882 0.186 7.44 6.95 13.15
2/11/2020 2:00:00 PM 5.55 41.99 0.186 7.45 6.81 13.14
2/11/2020 2:15:00 PM 5.61 42.098 0.186 7.46 7.01 13.14
2/11/2020 2:30:00 PM 5.66 42.188 0.186 7.46 6.56 13.12
2/11/2020 2:45:00 PM 5.68 42.224 0.186 7.45 6.87 13.09
2/11/2020 3:00:00 PM 5.69 42.242 0.186 7.46 6.84 13.03
2/11/2020 3:15:00 PM 5.7 42.26 0.186 7.45 6.7 13.01
2/11/2020 3:30:00 PM 5.71 42.278 0.186 7.45 6.81 13
2/11/2020 3:45:00 PM 5.72 42.296 0.185 7.45 6.7 13
2/11/2020 4:00:00 PM 5.73 42.314 0.186 7.45 7.75 12.97
2/11/2020 4:15:00 PM 5.75 42.35 0.185 7.42 7.13 12.96
2/11/2020 4:30:00 PM 5.75 42.35 0.185 7.45 6.34 12.96
2/11/2020 4:45:00 PM 5.76 42.368 0.185 7.45 7.81 12.92
2/11/2020 5:00:00 PM 5.76 42.368 0.185 7.44 5.49 12.89
2/11/2020 5:15:00 PM 5.76 42.368 0.185 7.43 5.69 12.85
2/11/2020 5:30:00 PM 5.76 42.368 0.185 7.43 5.68 12.83
2/11/2020 5:45:00 PM 5.75 42.35 0.185 7.42 5.75 12.8
2/11/2020 6:00:00 PM 5.73 42.314 0.185 7.42 5.67 12.78
2/11/2020 6:15:00 PM 5.72 42.296 0.185 7.41 5.62 12.76
2/11/2020 6:30:00 PM 5.7 42.26 0.185 7.41 6.1 12.75
2/11/2020 6:45:00 PM 5.68 42.224 0.186 7.41 5.72 12.75
2/11/2020 7:00:00 PM 5.66 42.188 0.186 7.4 6.01 12.75
2/11/2020 7:15:00 PM 5.63 42.134 0.186 7.4 6.34 12.76
2/11/2020 7:30:00 PM 5.6 42.08 0.186 7.4 5.54 12.75
2/11/2020 7:45:00 PM 5.56 42.008 0.186 7.4 5.68 12.76
2/11/2020 8:00:00 PM 5.51 41.918 0.186 7.4 6.06 12.77
2/11/2020 8:15:00 PM 5.47 41.846 0.186 7.4 6 12.79
2/11/2020 8:30:00 PM 5.42 41.756 0.186 7.39 5.9 12.8
2/11/2020 8:45:00 PM 5.37 41.666 0.186 7.39 7.4 12.81
2/11/2020 9:00:00 PM 5.32 41.576 0.186 7.39 5.72 12.82
2/11/2020 9:15:00 PM 5.26 41.468 0.186 7.38 5.67 12.84
2/11/2020 9:30:00 PM 5.22 41.396 0.186 7.39 5.71 12.86
2/11/2020 9:45:00 PM 5.18 41.324 0.186 7.38 6.11 12.87
2/11/2020 10:00:00 PM 5.13 41.234 0.186 7.39 6.51 12.89
2/11/2020 10:15:00 PM 5.09 41.162 0.186 7.38 6.24 12.91
2/11/2020 10:30:00 PM 5.04 41.072 0.187 7.38 5.82 12.92
2/11/2020 10:45:00 PM 5 41 0.187 7.38 6.18 12.94
2/11/2020 11:00:00 PM 4.94 40.892 0.187 7.38 5.57 12.96
2/11/2020 11:15:00 PM 4.9 40.82 0.187 7.38 5.51 12.98
2/11/2020 11:30:00 PM 4.86 40.748 0.187 7.38 5.67 12.99
2/11/2020 11:45:00 PM 4.81 40.658 0.187 7.38 5.74 13.01
2/12/2020 12:00:00 AM 4.76 40.568 0.187 7.38 5.59 13.03
2/12/2020 12:15:00 AM 4.71 40.478 0.187 7.38 6.64 13.05
2/12/2020 12:30:00 AM 4.66 40.388 0.187 7.38 6.53 13.06
2/12/2020 12:45:00 AM 4.62 40.316 0.187 7.38 6.54 13.09
2/12/2020 1:00:00 AM 4.58 40.244 0.187 7.37 6.74 13.1
2/12/2020 1:15:00 AM 4.53 40.154 0.187 7.37 6.52 13.12
2/12/2020 1:30:00 AM 4.48 40.064 0.187 7.38 6.56 13.14
2/12/2020 1:45:00 AM 4.42 39.956 0.187 7.38 6.24 13.17
2/12/2020 2:00:00 AM 4.36 39.848 0.188 7.38 6.6 13.18
2/12/2020 2:15:00 AM 4.31 39.758 0.188 7.38 5.43 13.2
2/12/2020 2:30:00 AM 4.27 39.686 0.188 7.38 5.74 13.22
2/12/2020 2:45:00 AM 4.24 39.632 0.188 7.38 5.75 13.24
2/12/2020 3:00:00 AM 4.21 39.578 0.188 7.38 5.86 13.25
2/12/2020 3:15:00 AM 4.18 39.524 0.188 7.38 6.58 13.27
2/12/2020 3:30:00 AM 4.15 39.47 0.188 7.38 6.44 13.28
2/12/2020 3:45:00 AM 4.12 39.416 0.188 7.38 6.96 13.3
2/12/2020 4:00:00 AM 4.09 39.362 0.188 7.37 6.74 13.31
2/12/2020 4:15:00 AM 4.07 39.326 0.188 7.37 6.16 13.32
2/12/2020 4:30:00 AM 4.05 39.29 0.188 7.37 6.7 13.34
2/12/2020 4:45:00 AM 4.03 39.254 0.188 7.37 6.45 13.34
2/12/2020 5:00:00 AM 3.99 39.182 0.188 7.37 7.02 13.36
2/12/2020 5:15:00 AM 3.96 39.128 0.188 7.37 6.72 13.37
2/12/2020 5:30:00 AM 3.93 39.074 0.188 7.37 6.68 13.39
2/12/2020 5:45:00 AM 3.9 39.02 0.188 7.37 6.97 13.39
2/12/2020 6:00:00 AM 3.88 38.984 0.189 7.37 6.71 13.41
2/12/2020 6:15:00 AM 3.85 38.93 0.189 7.37 6.35 13.42
2/12/2020 6:30:00 AM 3.81 38.858 0.189 7.37 6.38 13.43
2/12/2020 6:45:00 AM 3.78 38.804 0.189 7.36 6.46 13.44
2/12/2020 7:00:00 AM 3.74 38.732 0.189 7.37 10.28 13.46
2/12/2020 7:15:00 AM 3.7 38.66 0.189 7.37 5.93 13.49
2/12/2020 7:30:00 AM 3.67 38.606 0.189 7.37 8.89 13.51
2/12/2020 7:45:00 AM 3.63 38.534 0.188 7.37 5.88 13.53
2/12/2020 8:00:00 AM 3.6 38.48 0.188 7.38 6.71 13.6
2/12/2020 8:15:00 AM 3.59 38.462 0.189 7.38 5.72 13.65
2/12/2020 8:30:00 AM 3.59 38.462 0.189 7.39 6.7 13.69
2/12/2020 8:45:00 AM 3.59 38.462 0.189 7.4 7.61 13.73
2/12/2020 9:00:00 AM 3.62 38.516 0.188 7.4 8.01 13.76
2/12/2020 9:15:00 AM 3.66 38.588 0.189 7.4 4.07 13.79
2/12/2020 9:30:00 AM 3.7 38.66 0.189 7.43 6.51 13.79
2/12/2020 9:45:00 AM 3.76 38.768 0.189 7.42 6.62 13.81
2/12/2020 10:00:00 AM 3.83 38.894 0.189 7.43 6.38 13.81
2/12/2020 10:15:00 AM 3.93 39.074 0.189 7.43 6.69 13.81
2/12/2020 10:30:00 AM 4.04 39.272 0.189 7.44 5.41 13.81
2/12/2020 10:45:00 AM 4.15 39.47 0.189 7.45 5.19 13.79
2/12/2020 11:00:00 AM 4.24 39.632 0.188 7.45 5.13 13.78
2/12/2020 11:15:00 AM 4.33 39.794 0.188 7.46 5.26 13.75
2/12/2020 11:30:00 AM 4.41 39.938 0.189 7.4 5.25 13.73
2/12/2020 11:45:00 AM 4.47 40.046 0.188 7.46 5.64 13.71
2/12/2020 12:00:00 PM 4.54 40.172 0.188 7.46 7.43 13.72
2/12/2020 12:15:00 PM 4.59 40.262 0.188 7.47 8.15 13.7
2/12/2020 12:30:00 PM 4.63 40.334 0.188 7.47 5.15 13.69
2/12/2020 12:45:00 PM 4.72 40.496 0.188 7.48 5.18 13.67
2/12/2020 1:00:00 PM 4.78 40.604 0.188 7.48 5.17 13.64
2/12/2020 1:15:00 PM 4.85 40.73 0.188 7.48 5.4 13.61
2/12/2020 1:30:00 PM 4.92 40.856 0.188 7.49 5.23 13.58
2/12/2020 1:45:00 PM 5.01 41.018 0.188 7.49 5.25 13.56
2/12/2020 2:00:00 PM 5.06 41.108 0.188 7.49 5.18 13.52
2/12/2020 2:15:00 PM 5.13 41.234 0.188 7.49 5.14 13.5
2/12/2020 2:30:00 PM 5.2 41.36 0.188 7.5 5.34 13.47
2/12/2020 2:45:00 PM 5.24 41.432 0.187 7.5 5.4 13.44
2/12/2020 3:00:00 PM 5.3 41.54 0.188 7.51 5.46 13.41
2/12/2020 3:15:00 PM 5.34 41.612 0.187 7.51 7.38 13.37
2/12/2020 3:30:00 PM 5.37 41.666 0.187 7.51 5.68 13.35
2/12/2020 3:45:00 PM 5.39 41.702 0.187 7.5 5.46 13.3
2/12/2020 4:00:00 PM 5.41 41.738 0.187 7.5 5.94 13.25
2/12/2020 4:15:00 PM 5.41 41.738 0.187 7.49 5.77 13.22
2/12/2020 4:30:00 PM 5.41 41.738 0.188 7.49 4.56 13.19
2/12/2020 4:45:00 PM 5.41 41.738 0.188 7.48 5.07 13.15
2/12/2020 5:00:00 PM 5.41 41.738 0.188 7.47 5.19 13.12
2/12/2020 5:15:00 PM 5.4 41.72 0.188 7.47 4.55 13.09
2/12/2020 5:30:00 PM 5.39 41.702 0.188 7.45 6.5 13.05
2/12/2020 5:45:00 PM 5.37 41.666 0.188 7.45 8.54 13.02
2/12/2020 6:00:00 PM 5.34 41.612 0.187 7.44 8.76 12.99
2/12/2020 6:15:00 PM 5.32 41.576 0.187 7.43 9.64 12.97
2/12/2020 6:30:00 PM 5.3 41.54 0.187 7.43 5.89 12.96
2/12/2020 6:45:00 PM 5.27 41.486 0.187 7.42 5.77 12.95
2/12/2020 7:00:00 PM 5.25 41.45 0.187 7.42 6.51 12.94
2/12/2020 7:15:00 PM 5.22 41.396 0.186 7.41 6.01 12.94
2/12/2020 7:30:00 PM 5.19 41.342 0.186 7.41 5.68 12.94
2/12/2020 7:45:00 PM 5.16 41.288 0.186 7.41 6.22 12.94
2/12/2020 8:00:00 PM 5.12 41.216 0.186 7.4 6.11 12.94
2/12/2020 8:15:00 PM 5.09 41.162 0.186 7.4 6.3 12.95
2/12/2020 8:30:00 PM 5.03 41.054 0.186 7.4 6.88 12.95
2/12/2020 8:45:00 PM 5 41 0.186 7.39 6.91 12.96
2/12/2020 9:00:00 PM 4.97 40.946 0.186 7.39 6.64 12.96
2/12/2020 9:15:00 PM 4.93 40.874 0.186 7.39 5.9 12.97
2/12/2020 9:30:00 PM 4.89 40.802 0.186 7.38 6.59 12.97
2/12/2020 9:45:00 PM 4.86 40.748 0.186 7.38 6.01 12.99
2/12/2020 10:00:00 PM 4.81 40.658 0.186 7.39 5.66 13.01
2/12/2020 10:15:00 PM 4.77 40.586 0.186 7.38 6.98 13.01
2/12/2020 10:30:00 PM 4.75 40.55 0.185 7.38 18.16 13.02
2/12/2020 10:45:00 PM 4.71 40.478 0.185 7.37 8.9 13.03
2/12/2020 11:00:00 PM 4.68 40.424 0.185 7.38 6.86 13.04
2/12/2020 11:15:00 PM 4.65 40.37 0.185 7.37 558.17 13.05
2/12/2020 11:30:00 PM 4.63 40.334 0.185 7.37 7.15 13.05
2/12/2020 11:45:00 PM 4.61 40.298 0.185 7.37 7.88 13.05
2/13/2020 12:00:00 AM 4.59 40.262 0.185 7.37 6.83 13.06
2/13/2020 12:15:00 AM 4.57 40.226 0.185 7.36 6.06 13.06
2/13/2020 12:30:00 AM 4.55 40.19 0.185 7.36 6.9 13.07
2/13/2020 12:45:00 AM 4.54 40.172 0.184 7.36 7.07 13.07
2/13/2020 1:00:00 AM 4.52 40.136 0.183 7.36 8.03 13.07
2/13/2020 1:15:00 AM 4.51 40.118 0.183 7.36 7.68 13.08
2/13/2020 1:30:00 AM 4.5 40.1 0.184 7.35 8.05 13.07
2/13/2020 1:45:00 AM 4.5 40.1 0.184 7.35 7.95 13.06
2/13/2020 2:00:00 AM 4.5 40.1 0.184 7.35 8.41 13.06
2/13/2020 2:15:00 AM 4.5 40.1 0.184 7.35 8.45 13.04
2/13/2020 2:30:00 AM 4.51 40.118 0.184 7.34 8.32 13.04
2/13/2020 2:45:00 AM 4.52 40.136 0.184 7.34 7.66 13.04
2/13/2020 3:00:00 AM 4.53 40.154 0.184 7.34 7.52 13.03
2/13/2020 3:15:00 AM 4.53 40.154 0.184 7.34 8.17 13.02
2/13/2020 3:30:00 AM 4.54 40.172 0.184 7.34 7.72 13.02
2/13/2020 3:45:00 AM 4.55 40.19 0.184 7.34 7.64 13.01
2/13/2020 4:00:00 AM 4.56 40.208 0.185 7.33 8.31 13
2/13/2020 4:15:00 AM 4.57 40.226 0.185 7.33 5.56 12.99
2/13/2020 4:30:00 AM 4.58 40.244 0.185 7.33 7.42 12.98
2/13/2020 4:45:00 AM 4.59 40.262 0.185 7.33 7.35 12.98
2/13/2020 5:00:00 AM 4.6 40.28 0.185 7.33 6.66 12.97
2/13/2020 5:15:00 AM 4.61 40.298 0.185 7.34 7.11 12.96
2/13/2020 5:30:00 AM 4.62 40.316 0.185 7.34 6.78 12.96
2/13/2020 5:45:00 AM 4.63 40.334 0.186 7.33 6.56 12.94
2/13/2020 6:00:00 AM 4.64 40.352 0.187 7.33 6.68 12.94
2/13/2020 6:15:00 AM 4.65 40.37 0.187 7.34 6.61 12.95
2/13/2020 6:30:00 AM 4.66 40.388 0.188 7.33 6.34 12.94
2/13/2020 6:45:00 AM 4.67 40.406 0.188 7.33 7.8 12.94
2/13/2020 7:00:00 AM 4.68 40.424 0.188 7.34 7.98 12.93
2/13/2020 7:15:00 AM 4.69 40.442 0.188 7.33 24.02 12.93
2/13/2020 7:30:00 AM 4.7 40.46 0.188 7.34 6.09 12.93
2/13/2020 7:45:00 AM 4.71 40.478 0.188 7.34 6.9 12.94
2/13/2020 8:00:00 AM 4.72 40.496 0.188 7.34 6.24 12.94
2/13/2020 8:15:00 AM 4.74 40.532 0.188 7.35 6.19 12.97
2/13/2020 8:30:00 AM 4.75 40.55 0.188 7.35 6.31 12.98
2/13/2020 8:45:00 AM 4.76 40.568 0.187 7.35 6.01 12.98
2/13/2020 9:00:00 AM 4.78 40.604 0.187 7.36 6.01 12.99
2/13/2020 9:15:00 AM 4.8 40.64 0.187 7.36 6.86 13
2/13/2020 9:30:00 AM 4.81 40.658 0.187 7.36 6.26 13.02
2/13/2020 9:45:00 AM 4.84 40.712 0.187 7.37 7.02 13.04
2/13/2020 10:00:00 AM 4.85 40.73 0.187 7.37 6.61 13.04
2/13/2020 10:15:00 AM 4.88 40.784 0.187 7.37 8.22 13.05
2/13/2020 10:30:00 AM 4.9 40.82 0.187 7.38 8.31 13.07
2/13/2020 10:45:00 AM 4.93 40.874 0.187 7.38 7.66 13.09
2/13/2020 11:00:00 AM 4.95 40.91 0.187 7.39 5.79 13.08
2/13/2020 11:15:00 AM 4.98 40.964 0.187 7.39 5.86 13.09
2/13/2020 11:30:00 AM 5 41 0.187 7.4 5.82 13.07
2/13/2020 11:45:00 AM 5.02 41.036 0.186 7.4 5.91 13.08
2/13/2020 12:00:00 PM 5.05 41.09 0.186 7.4 5.94 13.09
2/13/2020 12:15:00 PM 5.08 41.144 0.186 7.41 5.77 13.1
2/13/2020 12:30:00 PM 5.1 41.18 0.186 7.41 6.17 13.08
2/13/2020 12:45:00 PM 5.12 41.216 0.186 7.41 5.85 13.08
2/13/2020 1:00:00 PM 5.17 41.306 0.186 7.42 6.06 13.1
2/13/2020 1:15:00 PM 5.2 41.36 0.186 7.42 5.64 13.1
2/13/2020 1:30:00 PM 5.24 41.432 0.186 7.43 7.58 13.1
2/13/2020 1:45:00 PM 5.29 41.522 0.186 7.43 6.09 13.1
2/13/2020 2:00:00 PM 5.36 41.648 0.186 7.44 6.02 13.11
2/13/2020 2:15:00 PM 5.41 41.738 0.186 7.44 6.13 13.1
2/13/2020 2:30:00 PM 5.46 41.828 0.186 7.45 5.91 13.08
2/13/2020 2:45:00 PM 5.48 41.864 0.186 7.44 6.18 13.04
2/13/2020 3:00:00 PM 5.51 41.918 0.185 7.45 6.14 13.05
2/13/2020 3:15:00 PM 5.54 41.972 0.185 7.45 5.69 13.06
2/13/2020 3:30:00 PM 5.57 42.026 0.185 7.45 5.77 13.04
2/13/2020 3:45:00 PM 5.58 42.044 0.185 7.45 5.63 13.01
2/13/2020 4:00:00 PM 5.59 42.062 0.185 7.45 5.99 13.01
2/13/2020 4:15:00 PM 5.59 42.062 0.185 7.45 6.84 13
2/13/2020 4:30:00 PM 5.59 42.062 0.185 7.45 7.33 13
2/13/2020 4:45:00 PM 5.58 42.044 0.185 7.44 8.04 12.95
2/13/2020 5:00:00 PM 5.56 42.008 0.185 7.44 6.29 12.95
2/13/2020 5:15:00 PM 5.53 41.954 0.185 7.44 7.01 12.93
2/13/2020 5:30:00 PM 5.5 41.9 0.185 7.43 6.45 12.9
2/13/2020 5:45:00 PM 5.46 41.828 0.185 7.42 6.02 12.89
2/13/2020 6:00:00 PM 5.42 41.756 0.185 7.42 5.67 12.88
2/13/2020 6:15:00 PM 5.39 41.702 0.185 7.41 5.47 12.86
2/13/2020 6:30:00 PM 5.36 41.648 0.185 7.41 7.76 12.86
2/13/2020 6:45:00 PM 5.33 41.594 0.185 7.4 6.86 12.85
2/13/2020 7:00:00 PM 5.3 41.54 0.185 7.39 6.69 12.85
2/13/2020 7:15:00 PM 5.27 41.486 0.185 7.39 6.29 12.86
2/13/2020 7:30:00 PM 5.23 41.414 0.185 7.39 6.74 12.87
2/13/2020 7:45:00 PM 5.19 41.342 0.185 7.38 7.27 12.88
2/13/2020 8:00:00 PM 5.15 41.27 0.185 7.38 6.25 12.9
2/13/2020 8:15:00 PM 5.12 41.216 0.185 7.38 7 12.9
2/13/2020 8:30:00 PM 5.08 41.144 0.185 7.38 6.25 12.92
2/13/2020 8:45:00 PM 5.03 41.054 0.185 7.37 7.25 12.94
2/13/2020 9:00:00 PM 4.99 40.982 0.185 7.38 6.27 12.95
2/13/2020 9:15:00 PM 4.94 40.892 0.185 7.37 6.41 12.97
2/13/2020 9:30:00 PM 4.89 40.802 0.185 7.37 6.19 12.99
2/13/2020 9:45:00 PM 4.86 40.748 0.185 7.37 6.21 12.99
2/13/2020 10:00:00 PM 4.83 40.694 0.185 7.37 6.04 13.01
2/13/2020 10:15:00 PM 4.79 40.622 0.185 7.36 6.42 13.03
2/13/2020 10:30:00 PM 4.76 40.568 0.185 7.37 6.4 13.04
2/13/2020 10:45:00 PM 4.74 40.532 0.185 7.36 6.79 13.04
2/13/2020 11:00:00 PM 4.72 40.496 0.185 7.36 6.59 13.06
2/13/2020 11:15:00 PM 4.69 40.442 0.185 7.36 6.74 13.07
2/13/2020 11:30:00 PM 4.67 40.406 0.185 7.36 6.35 13.08
2/13/2020 11:45:00 PM 4.65 40.37 0.185 7.36 5.8 13.09
2/14/2020 12:00:00 AM 4.62 40.316 0.185 7.36 5.75 13.1
2/14/2020 12:15:00 AM 4.59 40.262 0.185 7.36 6.85 13.11
2/14/2020 12:30:00 AM 4.55 40.19 0.185 7.36 7.6 13.12
2/14/2020 12:45:00 AM 4.52 40.136 0.185 7.36 5.8 13.12
2/14/2020 1:00:00 AM 4.5 40.1 0.185 7.36 5.78 13.14
2/14/2020 1:15:00 AM 4.48 40.064 0.185 7.35 6.2 13.15
2/14/2020 1:30:00 AM 4.46 40.028 0.185 7.35 6.07 13.15
2/14/2020 1:45:00 AM 4.44 39.992 0.185 7.36 6.03 13.16
2/14/2020 2:00:00 AM 4.42 39.956 0.185 7.35 6.25 13.18
2/14/2020 2:15:00 AM 4.41 39.938 0.185 7.35 6.08 13.18
2/14/2020 2:30:00 AM 4.38 39.884 0.185 7.35 6.69 13.19
2/14/2020 2:45:00 AM 4.35 39.83 0.185 7.35 6.05 13.2
2/14/2020 3:00:00 AM 4.32 39.776 0.185 7.36 6.67 13.21
2/14/2020 3:15:00 AM 4.29 39.722 0.185 7.35 6 13.23
2/14/2020 3:30:00 AM 4.26 39.668 0.185 7.35 6.11 13.25
2/14/2020 3:45:00 AM 4.22 39.596 0.185 7.35 6.99 13.25
2/14/2020 4:00:00 AM 4.17 39.506 0.185 7.36 6.18 13.27
2/14/2020 4:15:00 AM 4.13 39.434 0.185 7.36 6.16 13.29
2/14/2020 4:30:00 AM 4.07 39.326 0.185 7.36 6.85 13.31
2/14/2020 4:45:00 AM 4.03 39.254 0.185 7.35 7.04 13.33
2/14/2020 5:00:00 AM 3.96 39.128 0.185 7.35 7.17 13.36
2/14/2020 5:15:00 AM 3.91 39.038 0.185 7.35 6.03 13.38
2/14/2020 5:30:00 AM 3.85 38.93 0.185 7.35 7.08 13.4
2/14/2020 5:45:00 AM 3.8 38.84 0.185 7.35 6.74 13.42
2/14/2020 6:00:00 AM 3.75 38.75 0.185 7.35 6.89 13.45
2/14/2020 6:15:00 AM 3.71 38.678 0.185 7.35 6.28 13.46
2/14/2020 6:30:00 AM 3.66 38.588 0.185 7.35 6.03 13.49
2/14/2020 6:45:00 AM 3.6 38.48 0.185 7.35 6.87 13.51
2/14/2020 7:00:00 AM 3.56 38.408 0.185 7.35 8.35 13.54
2/14/2020 7:15:00 AM 3.5 38.3 0.185 7.35 6.02 13.56
2/14/2020 7:30:00 AM 3.46 38.228 0.185 7.35 6.53 13.59
2/14/2020 7:45:00 AM 3.4 38.12 0.185 7.35 6.31 13.63
2/14/2020 8:00:00 AM 3.37 38.066 0.185 7.36 6.03 13.69
2/14/2020 8:15:00 AM 3.33 37.994 0.185 7.37 6.28 13.74
2/14/2020 8:30:00 AM 3.31 37.958 0.185 7.37 6.06 13.81
2/14/2020 8:45:00 AM 3.27 37.886 0.185 7.37 6.24 13.81
2/14/2020 9:00:00 AM 3.22 37.796 0.185 7.38 5.14 13.85
2/14/2020 9:15:00 AM 3.2 37.76 0.185 7.38 6.52 13.9
2/14/2020 9:30:00 AM 3.17 37.706 0.185 7.39 5.79 13.96
2/14/2020 9:45:00 AM 3.17 37.706 0.185 7.4 6 13.99
2/14/2020 10:00:00 AM 3.19 37.742 0.185 7.4 6 14.04
2/14/2020 10:15:00 AM 3.18 37.724 0.185 7.41 5.61 14.07
2/14/2020 10:30:00 AM 3.19 37.742 0.185 7.41 6.21 14.08
2/14/2020 10:45:00 AM 3.28 37.904 0.185 7.42 5.92 14.09
2/14/2020 11:00:00 AM 3.34 38.012 0.185 7.42 6.54 14.1
2/14/2020 11:15:00 AM 3.34 38.012 0.185 7.43 7.42 14.1
2/14/2020 11:30:00 AM 3.36 38.048 0.185 7.43 6.25 14.1
2/14/2020 11:45:00 AM 3.38 38.084 0.185 7.43 6.24 14.1
2/14/2020 12:00:00 PM 3.44 38.192 0.185 7.43 6.69 14.11
2/14/2020 12:15:00 PM 3.54 38.372 0.185 7.44 6.27 14.1
2/14/2020 12:30:00 PM 3.64 38.552 0.185 7.44 4.36 14.07
2/14/2020 12:45:00 PM 3.84 38.912 0.184 7.45 5.49 14.04
2/14/2020 1:00:00 PM 3.92 39.056 0.184 7.45 5.56 14
2/14/2020 1:15:00 PM 3.99 39.182 0.184 7.45 5.7 13.96
2/14/2020 1:30:00 PM 4.23 39.614 0.184 7.46 6.32 13.93
2/14/2020 1:45:00 PM 4.34 39.812 0.184 7.46 6.3 13.89
2/14/2020 2:00:00 PM 4.45 40.01 0.184 7.47 6.93 13.86
2/14/2020 2:15:00 PM 4.51 40.118 0.184 7.47 8.07 13.83
2/14/2020 2:30:00 PM 4.47 40.046 0.184 7.47 6.66 13.8
2/14/2020 2:45:00 PM 4.5 40.1 0.184 7.47 6.53 13.81
2/14/2020 3:00:00 PM 4.41 39.938 0.184 7.47 6.13 13.78
2/14/2020 3:15:00 PM 4.39 39.902 0.184 7.46 5.73 13.78
2/14/2020 3:30:00 PM 4.36 39.848 0.184 7.46 7.02 13.79
2/14/2020 3:45:00 PM 4.31 39.758 0.184 7.46 8.13 13.78
2/14/2020 4:00:00 PM 4.23 39.614 0.184 7.46 5.31 13.77
2/14/2020 4:15:00 PM 4.11 39.398 0.184 7.46 5.23 13.79
2/14/2020 4:30:00 PM 3.99 39.182 0.184 7.45 5.89 13.79
2/14/2020 4:45:00 PM 3.88 38.984 0.184 7.45 5.46 13.8
2/14/2020 5:00:00 PM 3.78 38.804 0.184 7.44 5.41 13.8
2/14/2020 5:15:00 PM 3.7 38.66 0.184 7.44 5.28 13.8
2/14/2020 5:30:00 PM 3.62 38.516 0.184 7.43 6.41 13.8
2/14/2020 5:45:00 PM 3.55 38.39 0.184 7.42 5.25 13.79
2/14/2020 6:00:00 PM 3.47 38.246 0.184 7.41 5.58 13.79
2/14/2020 6:15:00 PM 3.4 38.12 0.184 7.4 5.63 13.79
2/14/2020 6:30:00 PM 3.32 37.976 0.184 7.4 6.27 13.79
2/14/2020 6:45:00 PM 3.24 37.832 0.185 7.39 6.25 13.81
2/14/2020 7:00:00 PM 3.16 37.688 0.185 7.38 5.5 13.83
2/14/2020 7:15:00 PM 3.08 37.544 0.185 7.38 5.38 13.86
2/14/2020 7:30:00 PM 3 37.4 0.185 7.38 5.4 13.88
2/14/2020 7:45:00 PM 2.93 37.274 0.185 7.38 6.47 13.92
2/14/2020 8:00:00 PM 2.85 37.13 0.185 7.38 6.07 13.93
2/14/2020 8:15:00 PM 2.79 37.022 0.185 7.37 5.15 13.95
2/14/2020 8:30:00 PM 2.72 36.896 0.185 7.37 5.38 13.97
2/14/2020 8:45:00 PM 2.66 36.788 0.185 7.36 6.58 14
2/14/2020 9:00:00 PM 2.6 36.68 0.185 7.36 6.03 14.02
2/14/2020 9:15:00 PM 2.54 36.572 0.185 7.36 5.79 14.06
2/14/2020 9:30:00 PM 2.47 36.446 0.185 7.35 6.19 14.09
2/14/2020 9:45:00 PM 2.39 36.302 0.185 7.35 6.4 14.12
2/14/2020 10:00:00 PM 2.32 36.176 0.185 7.35 5.98 14.15
2/14/2020 10:15:00 PM 2.26 36.068 0.185 7.35 6.17 14.17
2/14/2020 10:30:00 PM 2.19 35.942 0.185 7.35 6.54 14.2
2/14/2020 10:45:00 PM 2.12 35.816 0.186 7.35 6.24 14.22
2/14/2020 11:00:00 PM 2.06 35.708 0.186 7.34 6.31 14.25
2/14/2020 11:15:00 PM 1.99 35.582 0.186 7.35 5.81 14.28
2/14/2020 11:30:00 PM 1.92 35.456 0.186 7.34 5.28 14.32
2/14/2020 11:45:00 PM 1.86 35.348 0.186 7.34 6.85 14.34
2/15/2020 12:00:00 AM 1.8 35.24 0.186 7.34 5.83 14.35
2/15/2020 12:15:00 AM 1.75 35.15 0.186 7.34 5.35 14.38
2/15/2020 12:30:00 AM 1.7 35.06 0.186 7.34 5.66 14.4
2/15/2020 12:45:00 AM 1.64 34.952 0.186 7.34 5.58 14.43
2/15/2020 1:00:00 AM 1.58 34.844 0.186 7.34 5.39 14.45
2/15/2020 1:15:00 AM 1.52 34.736 0.186 7.34 5.25 14.47
2/15/2020 1:30:00 AM 1.46 34.628 0.186 7.34 5.87 14.51
2/15/2020 1:45:00 AM 1.41 34.538 0.186 7.34 5.51 14.53
2/15/2020 2:00:00 AM 1.35 34.43 0.186 7.34 5.34 14.55
2/15/2020 2:15:00 AM 1.29 34.322 0.186 7.33 6.31 14.57
2/15/2020 2:30:00 AM 1.24 34.232 0.187 7.33 6.16 14.6
2/15/2020 2:45:00 AM 1.19 34.142 0.187 7.33 7.44 14.62
2/15/2020 3:00:00 AM 1.13 34.034 0.187 7.33 6.17 14.64
2/15/2020 3:15:00 AM 1.08 33.944 0.187 7.33 6.08 14.67
2/15/2020 3:30:00 AM 1.03 33.854 0.187 7.33 6.07 14.67
2/15/2020 3:45:00 AM 0.98 33.764 0.187 7.34 5.84 14.7
2/15/2020 4:00:00 AM 0.93 33.674 0.187 7.33 6.27 14.72
2/15/2020 4:15:00 AM 0.89 33.602 0.188 7.33 6.34 14.75
2/15/2020 4:30:00 AM 0.84 33.512 0.188 7.33 5.77 14.76
2/15/2020 4:45:00 AM 0.8 33.44 0.188 7.33 6.1 14.77
2/15/2020 5:00:00 AM 0.76 33.368 0.187 7.34 6.23 14.78
2/15/2020 5:15:00 AM 0.72 33.296 0.188 7.33 6.2 14.8
2/15/2020 5:30:00 AM 0.68 33.224 0.188 7.33 6.32 14.82
2/15/2020 5:45:00 AM 0.64 33.152 0.188 7.33 5.83 14.83
2/15/2020 6:00:00 AM 0.61 33.098 0.188 7.33 5.79 14.85
2/15/2020 6:15:00 AM 0.57 33.026 0.188 7.33 5.76 14.87
2/15/2020 6:30:00 AM 0.54 32.972 0.188 7.33 6.41 14.88
2/15/2020 6:45:00 AM 0.51 32.918 0.188 7.33 5.85 14.88
2/15/2020 7:00:00 AM 0.48 32.864 0.188 7.33 7.44 14.9
2/15/2020 7:15:00 AM 0.45 32.81 0.188 7.34 5.88 14.93
2/15/2020 7:30:00 AM 0.43 32.774 0.188 7.33 5.01 14.97
2/15/2020 7:45:00 AM 0.41 32.738 0.188 7.34 5.39 14.99
2/15/2020 8:00:00 AM 0.41 32.738 0.188 7.34 5.61 15.03
2/15/2020 8:15:00 AM 0.42 32.756 0.188 7.35 5.49 15.06
2/15/2020 8:30:00 AM 0.43 32.774 0.188 7.35 5.41 15.09
2/15/2020 8:45:00 AM 0.46 32.828 0.188 7.35 5.49 15.1
2/15/2020 9:00:00 AM 0.49 32.882 0.188 7.36 5.45 15.12
2/15/2020 9:15:00 AM 0.54 32.972 0.188 7.37 5.45 15.13
2/15/2020 9:30:00 AM 0.61 33.098 0.188 7.37 5.9 15.14
2/15/2020 9:45:00 AM 0.7 33.26 0.187 7.38 5.46 15.13
2/15/2020 10:00:00 AM 0.8 33.44 0.187 7.38 5.64 15.12
2/15/2020 10:15:00 AM 0.92 33.656 0.187 7.38 8.5 15.1
2/15/2020 10:30:00 AM 1.05 33.89 0.187 7.39 6.98 15.07
2/15/2020 10:45:00 AM 1.19 34.142 0.187 7.39 7.13 15.05
2/15/2020 11:00:00 AM 1.33 34.394 0.186 7.4 6.51 15.02
2/15/2020 11:15:00 AM 1.49 34.682 0.186 7.4 5.88 14.98
2/15/2020 11:30:00 AM 1.65 34.97 0.186 7.4 5.97 14.94
2/15/2020 11:45:00 AM 1.79 35.222 0.186 7.41 5.56 14.89
2/15/2020 12:00:00 PM 1.94 35.492 0.186 7.41 5.52 14.83
2/15/2020 12:15:00 PM 2.08 35.744 0.186 7.42 4.37 14.8
2/15/2020 12:30:00 PM 2.22 35.996 0.186 7.42 5.47 14.75
2/15/2020 12:45:00 PM 2.37 36.266 0.186 7.43 5.12 14.7
2/15/2020 1:00:00 PM 2.49 36.482 0.186 7.43 4.81 14.65
2/15/2020 1:15:00 PM 2.59 36.662 0.186 7.43 5.28 14.6
2/15/2020 1:30:00 PM 2.69 36.842 0.185 7.44 5.19 14.56
2/15/2020 1:45:00 PM 2.76 36.968 0.185 7.44 5.86 14.52
2/15/2020 2:00:00 PM 2.84 37.112 0.185 7.44 5.23 14.48
2/15/2020 2:15:00 PM 2.9 37.22 0.185 7.45 5.14 14.44
2/15/2020 2:30:00 PM 2.98 37.364 0.185 7.45 5.26 14.4
2/15/2020 2:45:00 PM 3.06 37.508 0.185 7.45 5.17 14.36
2/15/2020 3:00:00 PM 3.14 37.652 0.185 7.46 5.25 14.32
2/15/2020 3:15:00 PM 3.19 37.742 0.185 7.46 5.12 14.27
2/15/2020 3:30:00 PM 3.25 37.85 0.185 7.46 4.89 14.23
2/15/2020 3:45:00 PM 3.28 37.904 0.185 7.47 5.55 14.19
2/15/2020 4:00:00 PM 3.31 37.958 0.185 7.46 6.03 14.16
2/15/2020 4:15:00 PM 3.33 37.994 0.185 7.46 6.81 14.13
2/15/2020 4:30:00 PM 3.35 38.03 0.185 7.46 6.8 14.09
2/15/2020 4:45:00 PM 3.34 38.012 0.185 7.46 6.6 14.05
2/15/2020 5:00:00 PM 3.33 37.994 0.185 7.46 6.66 14.03
2/15/2020 5:15:00 PM 3.32 37.976 0.185 7.45 6.09 13.98
2/15/2020 5:30:00 PM 3.31 37.958 0.185 7.44 6.46 13.94
2/15/2020 5:45:00 PM 3.28 37.904 0.185 7.43 7.22 13.9
2/15/2020 6:00:00 PM 3.25 37.85 0.185 7.43 6.21 13.87
2/15/2020 6:15:00 PM 3.22 37.796 0.185 7.42 7.19 13.84
2/15/2020 6:30:00 PM 3.19 37.742 0.185 7.41 5.07 13.83
2/15/2020 6:45:00 PM 3.16 37.688 0.185 7.41 5.03 13.82
2/15/2020 7:00:00 PM 3.12 37.616 0.185 7.4 5.07 13.82
2/15/2020 7:15:00 PM 3.08 37.544 0.185 7.39 5.15 13.83
2/15/2020 7:30:00 PM 3.03 37.454 0.185 7.39 5.31 13.83
2/15/2020 7:45:00 PM 2.98 37.364 0.185 7.39 5.28 13.83
2/15/2020 8:00:00 PM 2.93 37.274 0.185 7.39 5.31 13.84
2/15/2020 8:15:00 PM 2.88 37.184 0.185 7.38 5.31 13.86
2/15/2020 8:30:00 PM 2.84 37.112 0.185 7.38 5.94 13.86
2/15/2020 8:45:00 PM 2.78 37.004 0.185 7.37 5.45 13.87
2/15/2020 9:00:00 PM 2.73 36.914 0.185 7.37 5.3 13.9
2/15/2020 9:15:00 PM 2.68 36.824 0.185 7.37 5.16 13.91
2/15/2020 9:30:00 PM 2.62 36.716 0.185 7.37 5.29 13.93
2/15/2020 9:45:00 PM 2.57 36.626 0.185 7.36 5.39 13.95
2/15/2020 10:00:00 PM 2.52 36.536 0.185 7.36 5.42 13.97
2/15/2020 10:15:00 PM 2.48 36.464 0.185 7.36 5.45 13.99
2/15/2020 10:30:00 PM 2.44 36.392 0.186 7.36 4.96 14
2/15/2020 10:45:00 PM 2.4 36.32 0.186 7.36 4.87 14.03
2/15/2020 11:00:00 PM 2.36 36.248 0.186 7.36 5.01 14.03
2/15/2020 11:15:00 PM 2.33 36.194 0.186 7.36 4.96 14.05
2/15/2020 11:30:00 PM 2.29 36.122 0.186 7.36 4.93 14.07
2/15/2020 11:45:00 PM 2.26 36.068 0.186 7.36 5.04 14.07
2/16/2020 12:00:00 AM 2.22 35.996 0.186 7.36 4.95 14.09
2/16/2020 12:15:00 AM 2.2 35.96 0.186 7.36 5.38 14.1
2/16/2020 12:30:00 AM 2.19 35.942 0.186 7.35 5.21 14.11
2/16/2020 12:45:00 AM 2.17 35.906 0.186 7.36 5.27 14.11
2/16/2020 1:00:00 AM 2.16 35.888 0.186 7.35 5.14 14.12
2/16/2020 1:15:00 AM 2.14 35.852 0.186 7.35 5.11 14.12
2/16/2020 1:30:00 AM 2.13 35.834 0.186 7.35 5.35 14.12
2/16/2020 1:45:00 AM 2.11 35.798 0.186 7.35 5.38 14.13
2/16/2020 2:00:00 AM 2.1 35.78 0.186 7.35 5.54 14.13
2/16/2020 2:15:00 AM 2.09 35.762 0.186 7.35 5.46 14.13
2/16/2020 2:30:00 AM 2.08 35.744 0.186 7.35 5.24 14.14
2/16/2020 2:45:00 AM 2.07 35.726 0.186 7.35 5.5 14.14
2/16/2020 3:00:00 AM 2.06 35.708 0.186 7.35 4.91 14.14
2/16/2020 3:15:00 AM 2.06 35.708 0.186 7.35 5.05 14.14
2/16/2020 3:30:00 AM 2.05 35.69 0.186 7.35 4.98 14.14
2/16/2020 3:45:00 AM 2.05 35.69 0.186 7.35 4.99 14.13
2/16/2020 4:00:00 AM 2.06 35.708 0.186 7.35 4.97 14.13
2/16/2020 4:15:00 AM 2.07 35.726 0.186 7.35 5.07 14.12
2/16/2020 4:30:00 AM 2.07 35.726 0.186 7.35 4.89 14.11
2/16/2020 4:45:00 AM 2.08 35.744 0.186 7.35 4.82 14.11
2/16/2020 5:00:00 AM 2.09 35.762 0.186 7.35 5.06 14.11
2/16/2020 5:15:00 AM 2.11 35.798 0.186 7.35 5.09 14.1
2/16/2020 5:30:00 AM 2.12 35.816 0.186 7.35 5.11 14.1
2/16/2020 5:45:00 AM 2.12 35.816 0.186 7.35 5.17 14.09
2/16/2020 6:00:00 AM 2.13 35.834 0.186 7.35 5.03 14.09
2/16/2020 6:15:00 AM 2.13 35.834 0.186 7.35 4.97 14.09
2/16/2020 6:30:00 AM 2.13 35.834 0.186 7.35 5.05 14.09
2/16/2020 6:45:00 AM 2.14 35.852 0.186 7.35 4.9 14.08
2/16/2020 7:00:00 AM 2.14 35.852 0.186 7.35 4.99 14.09
2/16/2020 7:15:00 AM 2.13 35.834 0.186 7.35 5.76 14.08
2/16/2020 7:30:00 AM 2.13 35.834 0.186 7.35 7.22 14.1
2/16/2020 7:45:00 AM 2.14 35.852 0.186 7.35 6.18 14.11
2/16/2020 8:00:00 AM 2.15 35.87 0.186 7.36 6.47 14.14
2/16/2020 8:15:00 AM 2.17 35.906 0.186 7.36 6.08 14.16
2/16/2020 8:30:00 AM 2.19 35.942 0.186 7.37 6.33 14.18
2/16/2020 8:45:00 AM 2.22 35.996 0.186 7.37 6.03 14.19
2/16/2020 9:00:00 AM 2.25 36.05 0.186 7.37 6.29 14.2
2/16/2020 9:15:00 AM 2.28 36.104 0.186 7.38 6.66 14.21
2/16/2020 9:30:00 AM 2.31 36.158 0.186 7.39 5.25 14.21
2/16/2020 9:45:00 AM 2.36 36.248 0.186 7.39 6.34 14.22
2/16/2020 10:00:00 AM 2.41 36.338 0.186 7.4 6.75 14.25
2/16/2020 10:15:00 AM 2.47 36.446 0.186 7.41 7.18 14.25
2/16/2020 10:30:00 AM 2.53 36.554 0.185 7.41 6.67 14.24
2/16/2020 10:45:00 AM 2.59 36.662 0.185 7.41 6.47 14.23
2/16/2020 11:00:00 AM 2.65 36.77 0.185 7.42 5.28 14.23
2/16/2020 11:15:00 AM 2.7 36.86 0.185 7.43 4.97 14.21
2/16/2020 11:30:00 AM 2.76 36.968 0.185 7.43 4.98 14.22
2/16/2020 11:45:00 AM 2.82 37.076 0.185 7.43 5.01 14.2
2/16/2020 12:00:00 PM 2.88 37.184 0.185 7.44 5.03 14.18
2/16/2020 12:15:00 PM 2.93 37.274 0.185 7.44 4.98 14.16
2/16/2020 12:30:00 PM 2.99 37.382 0.185 7.44 5.16 14.15
2/16/2020 12:45:00 PM 3.09 37.562 0.185 7.45 5.15 14.15
2/16/2020 1:00:00 PM 3.19 37.742 0.185 7.45 5.24 14.13
2/16/2020 1:15:00 PM 3.28 37.904 0.185 7.46 5.69 14.11
2/16/2020 1:30:00 PM 3.37 38.066 0.185 7.46 4.86 14.08
2/16/2020 1:45:00 PM 3.41 38.138 0.185 7.46 4.93 14.04
2/16/2020 2:00:00 PM 3.45 38.21 0.184 7.46 5.79 14.01
2/16/2020 2:15:00 PM 3.48 38.264 0.184 7.46 5.11 13.98
2/16/2020 2:30:00 PM 3.51 38.318 0.185 7.46 5.99 13.95
2/16/2020 2:45:00 PM 3.56 38.408 0.184 7.47 5.29 13.93
2/16/2020 3:00:00 PM 3.61 38.498 0.184 7.47 5.34 13.94
2/16/2020 3:15:00 PM 3.68 38.624 0.184 7.47 4.97 13.93
2/16/2020 3:30:00 PM 3.77 38.786 0.184 7.48 6.57 13.92
2/16/2020 3:45:00 PM 3.84 38.912 0.184 7.48 6.26 13.89
2/16/2020 4:00:00 PM 3.89 39.002 0.184 7.48 7.81 13.86
2/16/2020 4:15:00 PM 3.93 39.074 0.184 7.48 4.97 13.84
2/16/2020 4:30:00 PM 3.96 39.128 0.184 7.48 5.1 13.8
2/16/2020 4:45:00 PM 3.98 39.164 0.184 7.48 5.22 13.77
2/16/2020 5:00:00 PM 4.02 39.236 0.184 7.48 6.4 13.75
2/16/2020 5:15:00 PM 4.02 39.236 0.184 7.47 5.43 13.69
2/16/2020 5:30:00 PM 4.01 39.218 0.184 7.46 6.58 13.65
2/16/2020 5:45:00 PM 4 39.2 0.184 7.45 7.35 13.6
2/16/2020 6:00:00 PM 3.99 39.182 0.184 7.44 7.26 13.55
2/16/2020 6:15:00 PM 3.98 39.164 0.184 7.43 5.56 13.51
2/16/2020 6:30:00 PM 3.98 39.164 0.184 7.42 5.37 13.48
2/16/2020 6:45:00 PM 3.98 39.164 0.184 7.41 5.18 13.46
2/16/2020 7:00:00 PM 3.97 39.146 0.185 7.41 5.22 13.44
2/16/2020 7:15:00 PM 3.96 39.128 0.185 7.4 5.34 13.43
2/16/2020 7:30:00 PM 3.94 39.092 0.185 7.4 5.17 13.42
2/16/2020 7:45:00 PM 3.92 39.056 0.185 7.4 4.96 13.43
2/16/2020 8:00:00 PM 3.9 39.02 0.185 7.39 5.08 13.42
2/16/2020 8:15:00 PM 3.88 38.984 0.185 7.39 5.12 13.42
2/16/2020 8:30:00 PM 3.87 38.966 0.185 7.39 5.1 13.41
2/16/2020 8:45:00 PM 3.86 38.948 0.185 7.38 5.36 13.42
2/16/2020 9:00:00 PM 3.84 38.912 0.185 7.38 4.99 13.42
2/16/2020 9:15:00 PM 3.83 38.894 0.185 7.38 5.04 13.42
2/16/2020 9:30:00 PM 3.81 38.858 0.185 7.37 4.99 13.42
2/16/2020 9:45:00 PM 3.79 38.822 0.185 7.38 5.37 13.43
2/16/2020 10:00:00 PM 3.74 38.732 0.185 7.37 5.2 13.44
2/16/2020 10:15:00 PM 3.7 38.66 0.185 7.37 5.19 13.45
2/16/2020 10:30:00 PM 3.67 38.606 0.185 7.37 5.04 13.46
2/16/2020 10:45:00 PM 3.63 38.534 0.185 7.37 4.86 13.48
2/16/2020 11:00:00 PM 3.59 38.462 0.185 7.37 4.86 13.5
2/16/2020 11:15:00 PM 3.53 38.354 0.185 7.37 5.16 13.51
2/16/2020 11:30:00 PM 3.48 38.264 0.186 7.37 4.86 13.53
2/16/2020 11:45:00 PM 3.42 38.156 0.186 7.37 5.03 13.54
2/17/2020 12:00:00 AM 3.37 38.066 0.186 7.37 5.22 13.56
2/17/2020 12:15:00 AM 3.32 37.976 0.186 7.36 5.03 13.58
2/17/2020 12:30:00 AM 3.28 37.904 0.186 7.36 5.24 13.58
2/17/2020 12:45:00 AM 3.24 37.832 0.186 7.36 5.12 13.6
2/17/2020 1:00:00 AM 3.21 37.778 0.186 7.36 5.12 13.62
2/17/2020 1:15:00 AM 3.17 37.706 0.186 7.36 5.16 13.64
2/17/2020 1:30:00 AM 3.13 37.634 0.186 7.35 5.1 13.66
2/17/2020 1:45:00 AM 3.09 37.562 0.186 7.35 5.28 13.67
2/17/2020 2:00:00 AM 3.06 37.508 0.186 7.35 5.04 13.68
2/17/2020 2:15:00 AM 3.02 37.436 0.186 7.35 5.01 13.69
2/17/2020 2:30:00 AM 2.99 37.382 0.186 7.35 5.2 13.71
2/17/2020 2:45:00 AM 2.96 37.328 0.186 7.35 5.12 13.73
2/17/2020 3:00:00 AM 2.92 37.256 0.186 7.35 4.86 13.75
2/17/2020 3:15:00 AM 2.88 37.184 0.186 7.35 5.15 13.76
2/17/2020 3:30:00 AM 2.85 37.13 0.186 7.35 4.69 13.77
2/17/2020 3:45:00 AM 2.8 37.04 0.186 7.35 4.8 13.79
2/17/2020 4:00:00 AM 2.75 36.95 0.186 7.35 4.87 13.81
2/17/2020 4:15:00 AM 2.71 36.878 0.186 7.35 4.9 13.83
2/17/2020 4:30:00 AM 2.66 36.788 0.186 7.35 4.8 13.84
2/17/2020 4:45:00 AM 2.61 36.698 0.186 7.35 5.01 13.86
2/17/2020 5:00:00 AM 2.57 36.626 0.187 7.34 5.01 13.88
2/17/2020 5:15:00 AM 2.52 36.536 0.187 7.35 4.84 13.9
2/17/2020 5:30:00 AM 2.48 36.464 0.187 7.35 4.8 13.91
2/17/2020 5:45:00 AM 2.45 36.41 0.187 7.34 4.74 13.94
2/17/2020 6:00:00 AM 2.41 36.338 0.187 7.34 5.74 13.95
2/17/2020 6:15:00 AM 2.37 36.266 0.187 7.34 4.95 13.97
2/17/2020 6:30:00 AM 2.33 36.194 0.187 7.34 5.06 13.99
2/17/2020 6:45:00 AM 2.3 36.14 0.187 7.34 5.15 13.99
2/17/2020 7:00:00 AM 2.26 36.068 0.187 7.34 6.67 14.02
2/17/2020 7:15:00 AM 2.22 35.996 0.187 7.34 5.85 14.05
2/17/2020 7:30:00 AM 2.19 35.942 0.187 7.34 6.16 14.08
2/17/2020 7:45:00 AM 2.16 35.888 0.187 7.35 6.13 14.12
2/17/2020 8:00:00 AM 2.15 35.87 0.187 7.35 6.16 14.18
2/17/2020 8:15:00 AM 2.14 35.852 0.187 7.36 6.76 14.23
2/17/2020 8:30:00 AM 2.15 35.87 0.187 7.37 7.35 14.26
2/17/2020 8:45:00 AM 2.17 35.906 0.187 7.37 5.25 14.31
2/17/2020 9:00:00 AM 2.21 35.978 0.187 7.38 6.45 14.31
2/17/2020 9:15:00 AM 2.27 36.086 0.187 7.39 5.44 14.33
2/17/2020 9:30:00 AM 2.35 36.23 0.187 7.39 5.74 14.34
2/17/2020 9:45:00 AM 2.45 36.41 0.187 7.4 5.31 14.34
2/17/2020 10:00:00 AM 2.58 36.644 0.187 7.41 5.17 14.34
2/17/2020 10:15:00 AM 2.71 36.878 0.187 7.42 8.16 14.33
2/17/2020 10:30:00 AM 2.86 37.148 0.187 7.43 4.89 14.31
2/17/2020 10:45:00 AM 3.02 37.436 0.187 7.44 5.65 14.29
2/17/2020 11:00:00 AM 3.18 37.724 0.186 7.44 5.74 14.25
2/17/2020 11:15:00 AM 3.36 38.048 0.186 7.45 6.26 14.21
2/17/2020 11:30:00 AM 3.54 38.372 0.186 7.46 5.06 14.17
2/17/2020 11:45:00 AM 3.73 38.714 0.186 7.47 5.52 14.13
2/17/2020 12:00:00 PM 3.93 39.074 0.186 7.47 5.64 14.08
2/17/2020 12:15:00 PM 4.13 39.434 0.186 7.48 5.84 14.03
2/17/2020 12:30:00 PM 4.33 39.794 0.186 7.49 5.87 13.98
2/17/2020 12:45:00 PM 4.5 40.1 0.186 7.49 6.07 13.92
2/17/2020 1:00:00 PM 4.66 40.388 0.186 7.5 6.37 13.87
2/17/2020 1:15:00 PM 4.8 40.64 0.185 7.51 7.76 13.82
2/17/2020 1:30:00 PM 4.94 40.892 0.185 7.51 7.34 13.76
2/17/2020 1:45:00 PM 5.07 41.126 0.185 7.51 438.96 13.71
2/17/2020 2:00:00 PM 5.19 41.342 0.185 7.51 6.66 13.66
2/17/2020 2:15:00 PM 5.3 41.54 0.185 7.52 6.26 13.61
2/17/2020 2:30:00 PM 5.4 41.72 0.185 7.52 5.59 13.56
2/17/2020 2:45:00 PM 5.49 41.882 0.185 7.52 5.64 13.51
2/17/2020 3:00:00 PM 5.57 42.026 0.185 7.52 5.44 13.46
2/17/2020 3:15:00 PM 5.63 42.134 0.185 7.53 5.43 13.41
2/17/2020 3:30:00 PM 5.67 42.206 0.185 7.53 5.38 13.37
2/17/2020 3:45:00 PM 5.68 42.224 0.185 7.52 6.59 13.33
2/17/2020 4:00:00 PM 5.68 42.224 0.185 7.52 5.06 13.29
2/17/2020 4:15:00 PM 5.65 42.17 0.185 7.52 5.52 13.26
2/17/2020 4:30:00 PM 5.59 42.062 0.185 7.51 5.43 13.21
2/17/2020 4:45:00 PM 5.55 41.99 0.185 7.5 5.75 13.19
2/17/2020 5:00:00 PM 5.53 41.954 0.185 7.5 6.56 13.18
2/17/2020 5:15:00 PM 5.52 41.936 0.185 7.5 4.09 13.13
2/17/2020 5:30:00 PM 5.5 41.9 0.185 7.49 5.1 13.09
2/17/2020 5:45:00 PM 5.47 41.846 0.185 7.48 5.52 13.04
2/17/2020 6:00:00 PM 5.43 41.774 0.185 7.46 7.85 13.02
2/17/2020 6:15:00 PM 5.39 41.702 0.185 7.45 7.02 12.99
2/17/2020 6:30:00 PM 5.33 41.594 0.186 7.45 5.43 12.97
2/17/2020 6:45:00 PM 5.27 41.486 0.186 7.44 5.19 12.98
2/17/2020 7:00:00 PM 5.2 41.36 0.186 7.43 5.74 12.97
2/17/2020 7:15:00 PM 5.12 41.216 0.186 7.42 5.23 12.98
2/17/2020 7:30:00 PM 5.05 41.09 0.186 7.42 5.28 12.99
2/17/2020 7:45:00 PM 4.97 40.946 0.186 7.42 5.3 13.02
2/17/2020 8:00:00 PM 4.89 40.802 0.186 7.41 5.71 13.03
2/17/2020 8:15:00 PM 4.81 40.658 0.186 7.4 5.93 13.05
2/17/2020 8:30:00 PM 4.71 40.478 0.186 7.4 5.79 13.08
2/17/2020 8:45:00 PM 4.62 40.316 0.186 7.39 6.19 13.11
2/17/2020 9:00:00 PM 4.53 40.154 0.186 7.39 5.11 13.14
2/17/2020 9:15:00 PM 4.44 39.992 0.186 7.39 5.11 13.17
2/17/2020 9:30:00 PM 4.35 39.83 0.186 7.39 4.97 13.21
2/17/2020 9:45:00 PM 4.28 39.704 0.187 7.38 5.29 13.24
2/17/2020 10:00:00 PM 4.21 39.578 0.187 7.38 5.09 13.27
2/17/2020 10:15:00 PM 4.14 39.452 0.187 7.38 5.16 13.31
2/17/2020 10:30:00 PM 4.08 39.344 0.187 7.38 5.26 13.33
2/17/2020 10:45:00 PM 4.02 39.236 0.187 7.38 5.16 13.36
2/17/2020 11:00:00 PM 3.96 39.128 0.187 7.38 5.14 13.39
2/17/2020 11:15:00 PM 3.9 39.02 0.187 7.37 5.13 13.41
2/17/2020 11:30:00 PM 3.85 38.93 0.187 7.38 5.1 13.44
2/17/2020 11:45:00 PM 3.8 38.84 0.187 7.38 5.12 13.46
2/18/2020 12:00:00 AM 3.75 38.75 0.187 7.37 8.07 13.49
2/18/2020 12:15:00 AM 3.7 38.66 0.187 7.37 5.18 13.5
2/18/2020 12:30:00 AM 3.65 38.57 0.188 7.37 5.39 13.52
2/18/2020 12:45:00 AM 3.61 38.498 0.188 7.37 5.19 13.53
2/18/2020 1:00:00 AM 3.57 38.426 0.188 7.37 5.2 13.55
2/18/2020 1:15:00 AM 3.54 38.372 0.188 7.37 5.03 13.57
2/18/2020 1:30:00 AM 3.52 38.336 0.188 7.36 5.42 13.57
2/18/2020 1:45:00 AM 3.5 38.3 0.188 7.37 5.17 13.59
2/18/2020 2:00:00 AM 3.5 38.3 0.188 7.37 5.13 13.59
2/18/2020 2:15:00 AM 3.5 38.3 0.188 7.37 5.27 13.58
2/18/2020 2:30:00 AM 3.51 38.318 0.188 7.37 5.1 13.59
2/18/2020 2:45:00 AM 3.51 38.318 0.188 7.37 4.78 13.58
2/18/2020 3:00:00 AM 3.52 38.336 0.188 7.37 5.22 13.58
2/18/2020 3:15:00 AM 3.54 38.372 0.188 7.37 4.86 13.58
2/18/2020 3:30:00 AM 3.55 38.39 0.188 7.37 5 13.56
2/18/2020 3:45:00 AM 3.57 38.426 0.188 7.37 5.62 13.56
2/18/2020 4:00:00 AM 3.59 38.462 0.188 7.37 5.35 13.55
2/18/2020 4:15:00 AM 3.61 38.498 0.188 7.37 4.91 13.54
2/18/2020 4:30:00 AM 3.63 38.534 0.189 7.37 5.01 13.53
2/18/2020 4:45:00 AM 3.65 38.57 0.188 7.37 5.09 13.53
2/18/2020 5:00:00 AM 3.66 38.588 0.188 7.37 5.02 13.52
2/18/2020 5:15:00 AM 3.66 38.588 0.188 7.37 5.83 13.52
2/18/2020 5:30:00 AM 3.67 38.606 0.188 7.37 5.01 13.51
2/18/2020 5:45:00 AM 3.68 38.624 0.188 7.37 5.41 13.51
2/18/2020 6:00:00 AM 3.69 38.642 0.188 7.37 4.95 13.51
2/18/2020 6:15:00 AM 3.69 38.642 0.188 7.37 4.91 13.51
2/18/2020 6:30:00 AM 3.7 38.66 0.188 7.38 5.5 13.5
2/18/2020 6:45:00 AM 3.71 38.678 0.188 7.38 5.1 13.49
2/18/2020 7:00:00 AM 3.71 38.678 0.188 7.38 9.55 13.49
2/18/2020 7:15:00 AM 3.72 38.696 0.188 7.38 5.37 13.49
2/18/2020 7:30:00 AM 3.73 38.714 0.188 7.38 5.34 13.49
2/18/2020 7:45:00 AM 3.74 38.732 0.188 7.38 8.71 13.51
2/18/2020 8:00:00 AM 3.76 38.768 0.188 7.39 4.66 13.52
2/18/2020 8:15:00 AM 3.78 38.804 0.188 7.39 5.14 13.54
2/18/2020 8:30:00 AM 3.81 38.858 0.188 7.39 5.22 13.55
2/18/2020 8:45:00 AM 3.83 38.894 0.188 7.4 4.84 13.56
2/18/2020 9:00:00 AM 3.87 38.966 0.188 7.4 9.72 13.6
2/18/2020 9:15:00 AM 3.9 39.02 0.188 7.41 11.37 13.62
2/18/2020 9:30:00 AM 3.94 39.092 0.188 7.42 5.39 13.61
2/18/2020 9:45:00 AM 3.98 39.164 0.188 7.43 5.1 13.64
2/18/2020 10:00:00 AM 4.02 39.236 0.188 7.43 5.35 13.62
2/18/2020 10:15:00 AM 4.05 39.29 0.188 7.43 5.17 13.62
2/18/2020 10:30:00 AM 4.09 39.362 0.188 7.43 4.89 13.6
2/18/2020 10:45:00 AM 4.12 39.416 0.188 7.43 5.01 13.6
2/18/2020 11:00:00 AM 4.17 39.506 0.188 7.44 4.87 13.62
2/18/2020 11:15:00 AM 4.21 39.578 0.188 7.45 5.15 13.64
2/18/2020 11:30:00 AM 4.26 39.668 0.188 7.45 4.93 13.65
2/18/2020 11:45:00 AM 4.32 39.776 0.188 7.46 6.6 13.65
2/18/2020 12:00:00 PM 4.37 39.866 0.188 7.47 4.94 13.64
2/18/2020 12:15:00 PM 4.43 39.974 0.188 7.47 4.92 13.64
2/18/2020 12:30:00 PM 4.49 40.082 0.188 7.48 4.99 13.64
2/18/2020 12:45:00 PM 4.6 40.28 0.187 7.49 5.54 13.65
2/18/2020 1:00:00 PM 4.68 40.424 0.187 7.5 4.83 13.63
2/18/2020 1:15:00 PM 4.74 40.532 0.188 7.5 4.58 13.61
2/18/2020 1:30:00 PM 4.78 40.604 0.187 7.5 7.99 13.54
2/18/2020 1:45:00 PM 4.81 40.658 0.188 7.49 4.97 13.47
2/18/2020 2:00:00 PM 4.84 40.712 0.188 7.49 4.91 13.44
2/18/2020 2:15:00 PM 4.87 40.766 0.187 7.49 5 13.45
2/18/2020 2:30:00 PM 4.91 40.838 0.187 7.49 5.05 13.44
2/18/2020 2:45:00 PM 4.96 40.928 0.187 7.5 4.81 13.44
2/18/2020 3:00:00 PM 5 41 0.187 7.5 4.84 13.42
2/18/2020 3:15:00 PM 5.02 41.036 0.187 7.49 4.84 13.34
2/18/2020 3:30:00 PM 5.04 41.072 0.187 7.49 4.65 13.31
2/18/2020 3:45:00 PM 5.05 41.09 0.188 7.48 6.23 13.25
2/18/2020 4:00:00 PM 5.07 41.126 0.187 7.47 7.68 13.22
2/18/2020 4:15:00 PM 5.09 41.162 0.187 7.47 5.58 13.18
2/18/2020 4:30:00 PM 5.1 41.18 0.186 7.46 5.57 13.15
2/18/2020 4:45:00 PM 5.11 41.198 0.186 7.46 5.03 13.13
2/18/2020 5:00:00 PM 5.12 41.216 0.186 7.45 5.29 13.11
2/18/2020 5:15:00 PM 5.13 41.234 0.186 7.45 5.32 13.08
2/18/2020 5:30:00 PM 5.13 41.234 0.186 7.44 5.4 13.06
2/18/2020 5:45:00 PM 5.13 41.234 0.186 7.43 5.41 13.02
2/18/2020 6:00:00 PM 5.13 41.234 0.186 7.43 5.5 13
2/18/2020 6:15:00 PM 5.14 41.252 0.186 7.42 6.42 12.97
2/18/2020 6:30:00 PM 5.14 41.252 0.186 7.41 5.48 12.95
2/18/2020 6:45:00 PM 5.14 41.252 0.186 7.41 8.52 12.94
2/18/2020 7:00:00 PM 5.14 41.252 0.186 7.4 7.67 12.93
2/18/2020 7:15:00 PM 5.14 41.252 0.186 7.4 6.84 12.92
2/18/2020 7:30:00 PM 5.13 41.234 0.186 7.39 7.1 12.91
2/18/2020 7:45:00 PM 5.13 41.234 0.186 7.39 5.51 12.91
2/18/2020 8:00:00 PM 5.11 41.198 0.186 7.41 6.44 12.9
2/18/2020 8:15:00 PM 5.1 41.18 0.186 7.39 6.1 12.9
2/18/2020 8:30:00 PM 5.09 41.162 0.186 7.38 6.71 12.9
2/18/2020 8:45:00 PM 5.07 41.126 0.186 7.37 5.79 12.91
2/18/2020 9:00:00 PM 5.06 41.108 0.186 7.37 5.24 12.91
2/18/2020 9:15:00 PM 5.04 41.072 0.186 7.37 5.24 12.91
2/18/2020 9:30:00 PM 5.03 41.054 0.186 7.37 5.57 12.92
2/18/2020 9:45:00 PM 5.02 41.036 0.186 7.37 5.37 12.93
2/18/2020 10:00:00 PM 5 41 0.186 7.37 6.08 12.93
2/18/2020 10:15:00 PM 4.99 40.982 0.186 7.37 5.58 12.94
2/18/2020 10:30:00 PM 4.97 40.946 0.186 7.37 5 12.95
2/18/2020 10:45:00 PM 4.95 40.91 0.186 7.37 5.49 12.96
2/18/2020 11:00:00 PM 4.93 40.874 0.187 7.37 5.2 12.96
2/18/2020 11:15:00 PM 4.92 40.856 0.187 7.37 5.68 12.97
2/18/2020 11:30:00 PM 4.9 40.82 0.187 7.37 8.18 12.97
2/18/2020 11:45:00 PM 4.88 40.784 0.187 7.37 11.67 12.98
2/19/2020 12:00:00 AM 4.86 40.748 0.188 7.37 5.45 12.99
2/19/2020 12:15:00 AM 4.84 40.712 0.188 7.37 6.01 13.01
2/19/2020 12:30:00 AM 4.82 40.676 0.188 7.37 4.98 13.02
2/19/2020 12:45:00 AM 4.79 40.622 0.188 7.37 5.02 13.02
2/19/2020 1:00:00 AM 4.77 40.586 0.188 7.38 5.03 13.04
2/19/2020 1:15:00 AM 4.74 40.532 0.189 7.38 5.03 13.04
2/19/2020 1:30:00 AM 4.71 40.478 0.189 7.38 5.31 13.06
2/19/2020 1:45:00 AM 4.69 40.442 0.188 7.38 10.1 13.07
2/19/2020 2:00:00 AM 4.67 40.406 0.189 7.39 5.71 13.07
2/19/2020 2:15:00 AM 4.64 40.352 0.189 7.39 4.74 13.09
2/19/2020 2:30:00 AM 4.62 40.316 0.189 7.39 4.73 13.09
2/19/2020 2:45:00 AM 4.6 40.28 0.189 7.38 4.74 13.1
2/19/2020 3:00:00 AM 4.57 40.226 0.189 7.39 4.65 13.12
2/19/2020 3:15:00 AM 4.55 40.19 0.188 7.39 4.78 13.12
2/19/2020 3:30:00 AM 4.52 40.136 0.188 7.39 4.66 13.14
2/19/2020 3:45:00 AM 4.49 40.082 0.188 7.35 4.57 13.15
2/19/2020 4:00:00 AM 4.46 40.028 0.188 7.39 4.73 13.16
2/19/2020 4:15:00 AM 4.42 39.956 0.188 7.38 4.82 13.17
2/19/2020 4:30:00 AM 4.35 39.83 0.188 7.39 4.58 13.19
2/19/2020 4:45:00 AM 4.3 39.74 0.188 7.39 4.71 13.21
2/19/2020 5:00:00 AM 4.24 39.632 0.188 7.38 4.84 13.23
2/19/2020 5:15:00 AM 4.18 39.524 0.189 7.39 7.94 13.25
2/19/2020 5:30:00 AM 4.12 39.416 0.189 7.38 8.88 13.27
2/19/2020 5:45:00 AM 4.06 39.308 0.189 7.38 4.79 13.3
2/19/2020 6:00:00 AM 4 39.2 0.189 7.38 6.11 13.31
2/19/2020 6:15:00 AM 3.93 39.074 0.189 7.38 4.84 13.34
2/19/2020 6:30:00 AM 3.86 38.948 0.189 7.38 4.74 13.36
2/19/2020 6:45:00 AM 3.79 38.822 0.189 7.38 5.25 13.38
2/19/2020 7:00:00 AM 3.73 38.714 0.189 7.38 5.04 13.42
2/19/2020 7:15:00 AM 3.66 38.588 0.189 7.38 4.5 13.45
2/19/2020 7:30:00 AM 3.6 38.48 0.189 7.38 5.77 13.5
2/19/2020 7:45:00 AM 3.56 38.408 0.189 7.39 5.94 13.57
2/19/2020 8:00:00 AM 3.51 38.318 0.189 7.39 6.08 13.64
2/19/2020 8:15:00 AM 3.48 38.264 0.189 7.4 5.36 13.7
2/19/2020 8:30:00 AM 3.47 38.246 0.189 7.4 4.9 13.76
2/19/2020 8:45:00 AM 3.46 38.228 0.189 7.41 4.83 13.81
2/19/2020 9:00:00 AM 3.46 38.228 0.189 7.42 5.24 13.85
2/19/2020 9:15:00 AM 3.48 38.264 0.189 7.43 5.97 13.89
2/19/2020 9:30:00 AM 3.52 38.336 0.189 7.44 7.17 13.92
2/19/2020 9:45:00 AM 3.59 38.462 0.189 7.45 6.72 13.95
2/19/2020 10:00:00 AM 3.67 38.606 0.189 7.46 6.19 13.96
2/19/2020 10:15:00 AM 3.77 38.786 0.189 7.47 6.01 13.96
2/19/2020 10:30:00 AM 3.88 38.984 0.189 7.47 5.62 13.97
2/19/2020 10:45:00 AM 4 39.2 0.189 7.48 5.38 13.96
2/19/2020 11:00:00 AM 4.13 39.434 0.189 7.49 5.95 13.95
2/19/2020 11:15:00 AM 4.27 39.686 0.189 7.49 5.92 13.92
2/19/2020 11:30:00 AM 4.41 39.938 0.189 7.5 6.04 13.9
2/19/2020 11:45:00 AM 4.57 40.226 0.189 7.51 5.91 13.87
2/19/2020 12:00:00 PM 4.73 40.514 0.189 7.51 6.3 13.84
2/19/2020 12:15:00 PM 4.9 40.82 0.189 7.51 8.4 13.8
2/19/2020 12:30:00 PM 5.06 41.108 0.189 7.52 4.43 13.76
2/19/2020 12:45:00 PM 5.23 41.414 0.189 7.53 5.2 13.72
2/19/2020 1:00:00 PM 5.36 41.648 0.189 7.53 4.49 13.68
2/19/2020 1:15:00 PM 5.5 41.9 0.189 7.54 4.47 13.64
2/19/2020 1:30:00 PM 5.62 42.116 0.189 7.54 4.25 13.6
2/19/2020 1:45:00 PM 5.72 42.296 0.189 7.54 5.51 13.56
2/19/2020 2:00:00 PM 5.79 42.422 0.189 7.55 6.52 13.52
2/19/2020 2:15:00 PM 5.86 42.548 0.189 7.56 4.48 13.49
2/19/2020 2:30:00 PM 5.9 42.62 0.189 7.55 9.34 13.44
2/19/2020 2:45:00 PM 5.94 42.692 0.189 7.56 6.18 13.43
2/19/2020 3:00:00 PM 5.96 42.728 0.189 7.56 5.97 13.4
2/19/2020 3:15:00 PM 5.95 42.71 0.189 7.56 5.93 13.37
2/19/2020 3:30:00 PM 5.93 42.674 0.189 7.56 6.03 13.35
2/19/2020 3:45:00 PM 5.9 42.62 0.189 7.56 6.27 13.31
2/19/2020 4:00:00 PM 5.85 42.53 0.189 7.55 7.66 13.29
2/19/2020 4:15:00 PM 5.81 42.458 0.189 7.55 9.31 13.26
2/19/2020 4:30:00 PM 5.71 42.278 0.189 7.54 5.12 13.22
2/19/2020 4:45:00 PM 5.63 42.134 0.189 7.53 5.14 13.2
2/19/2020 5:00:00 PM 5.57 42.026 0.189 7.5 10.55 13.17
2/19/2020 5:15:00 PM 5.51 41.918 0.189 7.52 4.71 13.15
2/19/2020 5:30:00 PM 5.46 41.828 0.189 7.51 4.82 13.11
2/19/2020 5:45:00 PM 5.4 41.72 0.189 7.5 4.56 13.09
2/19/2020 6:00:00 PM 5.35 41.63 0.189 7.49 4.63 13.05
2/19/2020 6:15:00 PM 5.29 41.522 0.19 7.48 4.66 13.03
2/19/2020 6:30:00 PM 5.23 41.414 0.19 7.47 5.99 13.02
2/19/2020 6:45:00 PM 5.17 41.306 0.19 7.46 5.47 13.01
2/19/2020 7:00:00 PM 5.11 41.198 0.19 7.46 5.16 13.01
2/19/2020 7:15:00 PM 5.05 41.09 0.19 7.45 4.55 13.01
2/19/2020 7:30:00 PM 4.99 40.982 0.19 7.44 4.67 13.02
2/19/2020 7:45:00 PM 4.92 40.856 0.19 7.44 4.83 13.03
2/19/2020 8:00:00 PM 4.85 40.73 0.19 7.43 5.17 13.04
2/19/2020 8:15:00 PM 4.78 40.604 0.19 7.43 4.61 13.06
2/19/2020 8:30:00 PM 4.71 40.478 0.19 7.43 4.7 13.09
2/19/2020 8:45:00 PM 4.63 40.334 0.19 7.42 4.6 13.12
2/19/2020 9:00:00 PM 4.57 40.226 0.191 7.42 4.85 13.14
2/19/2020 9:15:00 PM 4.49 40.082 0.191 7.42 5 13.15
2/19/2020 9:30:00 PM 4.43 39.974 0.191 7.41 4.96 13.18
2/19/2020 9:45:00 PM 4.35 39.83 0.191 7.41 5.01 13.22
2/19/2020 10:00:00 PM 4.27 39.686 0.191 7.41 4.81 13.24
2/19/2020 10:15:00 PM 4.18 39.524 0.191 7.4 5.7 13.26
2/19/2020 10:30:00 PM 4.09 39.362 0.192 7.4 4.88 13.3
2/19/2020 10:45:00 PM 4 39.2 0.192 7.4 6.04 13.34
2/19/2020 11:00:00 PM 3.92 39.056 0.192 7.4 5.52 13.37
2/19/2020 11:15:00 PM 3.83 38.894 0.193 7.4 6.02 13.41
2/19/2020 11:30:00 PM 3.75 38.75 0.193 7.39 5.44 13.45
2/19/2020 11:45:00 PM 3.67 38.606 0.193 7.39 6.19 13.47
2/20/2020 12:00:00 AM 3.6 38.48 0.193 7.39 6.29 13.51
2/20/2020 12:15:00 AM 3.52 38.336 0.193 7.39 4.75 13.54
2/20/2020 12:30:00 AM 3.44 38.192 0.193 7.39 5.44 13.57
2/20/2020 12:45:00 AM 3.37 38.066 0.193 7.39 5.66 13.6
2/20/2020 1:00:00 AM 3.3 37.94 0.193 7.38 5.84 13.64
2/20/2020 1:15:00 AM 3.22 37.796 0.193 7.38 6.31 13.68
2/20/2020 1:30:00 AM 3.15 37.67 0.193 7.38 4.61 13.7
2/20/2020 1:45:00 AM 3.08 37.544 0.193 7.38 5.32 13.73
2/20/2020 2:00:00 AM 3.01 37.418 0.193 7.38 5.25 13.76
2/20/2020 2:15:00 AM 2.94 37.292 0.193 7.38 6.5 13.79
2/20/2020 2:30:00 AM 2.87 37.166 0.193 7.38 4.5 13.82
2/20/2020 2:45:00 AM 2.8 37.04 0.193 7.37 4.76 13.85
2/20/2020 3:00:00 AM 2.74 36.932 0.193 7.37 4.56 13.87
2/20/2020 3:15:00 AM 2.67 36.806 0.193 7.38 4.91 13.9
2/20/2020 3:30:00 AM 2.61 36.698 0.193 7.37 4.82 13.93
2/20/2020 3:45:00 AM 2.57 36.626 0.193 7.37 5.03 13.95
2/20/2020 4:00:00 AM 2.52 36.536 0.193 7.37 4.76 13.97
2/20/2020 4:15:00 AM 2.48 36.464 0.194 7.37 5.32 14
2/20/2020 4:30:00 AM 2.44 36.392 0.194 7.37 5.09 14.01
2/20/2020 4:45:00 AM 2.39 36.302 0.195 7.37 4.78 14.04
2/20/2020 5:00:00 AM 2.35 36.23 0.194 7.37 4.84 14.06
2/20/2020 5:15:00 AM 2.32 36.176 0.194 7.37 6.24 14.07
2/20/2020 5:30:00 AM 2.29 36.122 0.194 7.37 5.89 14.09
2/20/2020 5:45:00 AM 2.26 36.068 0.194 7.37 4.51 14.11
2/20/2020 6:00:00 AM 2.23 36.014 0.194 7.38 4.81 14.12
2/20/2020 6:15:00 AM 2.2 35.96 0.194 7.37 6.36 14.13
2/20/2020 6:30:00 AM 2.17 35.906 0.194 7.38 5.05 14.14
2/20/2020 6:45:00 AM 2.13 35.834 0.194 7.38 12.19 14.16
2/20/2020 7:00:00 AM 2.1 35.78 0.194 7.37 5.78 14.18
2/20/2020 7:15:00 AM 2.07 35.726 0.194 7.37 5.51 14.21
2/20/2020 7:30:00 AM 2.05 35.69 0.194 7.38 5.1 14.25
2/20/2020 7:45:00 AM 2.04 35.672 0.194 7.39 5.07 14.3
2/20/2020 8:00:00 AM 2.04 35.672 0.194 7.4 5.35 14.36
2/20/2020 8:15:00 AM 2.04 35.672 0.194 7.4 5.17 14.41
2/20/2020 8:30:00 AM 2.07 35.726 0.194 7.41 6.79 14.47
2/20/2020 8:45:00 AM 2.11 35.798 0.194 7.43 4.77 14.52
2/20/2020 9:00:00 AM 2.15 35.87 0.194 7.43 5.21 14.54
2/20/2020 9:15:00 AM 2.19 35.942 0.194 7.44 7.38 14.57
2/20/2020 9:30:00 AM 2.24 36.032 0.194 7.46 4.94 14.58
2/20/2020 9:45:00 AM 2.29 36.122 0.194 7.45 10.41 14.6
2/20/2020 10:00:00 AM 2.35 36.23 0.194 7.46 4.43 14.61
2/20/2020 10:15:00 AM 2.42 36.356 0.194 7.47 4.55 14.61
2/20/2020 10:30:00 AM 2.48 36.464 0.193 7.48 6.22 14.6
2/20/2020 10:45:00 AM 2.53 36.554 0.193 7.48 5.27 14.59
2/20/2020 11:00:00 AM 2.6 36.68 0.193 7.49 5.07 14.59
2/20/2020 11:15:00 AM 2.68 36.824 0.193 7.49 5.15 14.58
2/20/2020 11:30:00 AM 2.76 36.968 0.193 7.5 5.07 14.57
2/20/2020 11:45:00 AM 2.85 37.13 0.193 7.51 4.94 14.56
2/20/2020 12:00:00 PM 2.94 37.292 0.193 7.51 4.89 14.53
2/20/2020 12:15:00 PM 3.04 37.472 0.193 7.51 4.99 14.51
2/20/2020 12:30:00 PM 3.15 37.67 0.193 7.53 5.23 14.49
2/20/2020 12:45:00 PM 3.24 37.832 0.193 7.53 5.1 14.45
2/20/2020 1:00:00 PM 3.34 38.012 0.193 7.53 5.49 14.43
2/20/2020 1:15:00 PM 3.41 38.138 0.193 7.54 5.39 14.39
2/20/2020 1:30:00 PM 3.49 38.282 0.193 7.54 5.39 14.37
2/20/2020 1:45:00 PM 3.57 38.426 0.193 7.54 5.85 14.33
2/20/2020 2:00:00 PM 3.63 38.534 0.192 7.55 5.16 14.31
2/20/2020 2:15:00 PM 3.69 38.642 0.193 7.55 5.08 14.28
2/20/2020 2:30:00 PM 3.74 38.732 0.192 7.55 4.93 14.25
2/20/2020 2:45:00 PM 3.77 38.786 0.192 7.55 4.91 14.22
2/20/2020 3:00:00 PM 3.84 38.912 0.192 7.55 5.09 14.21
2/20/2020 3:15:00 PM 3.87 38.966 0.192 7.56 5.04 14.18
2/20/2020 3:30:00 PM 3.86 38.948 0.192 7.56 5.24 14.14
2/20/2020 3:45:00 PM 3.88 38.984 0.192 7.55 5.13 14.1
2/20/2020 4:00:00 PM 3.88 38.984 0.192 7.55 5.01 14.07
2/20/2020 4:15:00 PM 3.87 38.966 0.192 7.55 5.06 14.04
2/20/2020 4:30:00 PM 3.86 38.948 0.192 7.54 5.83 14.02
2/20/2020 4:45:00 PM 3.86 38.948 0.192 7.54 5.37 14
2/20/2020 5:00:00 PM 3.83 38.894 0.192 7.54 6.4 13.94
2/20/2020 5:15:00 PM 3.8 38.84 0.192 7.52 4.52 13.9
2/20/2020 5:30:00 PM 3.78 38.804 0.192 7.51 7.25 13.84
2/20/2020 5:45:00 PM 3.74 38.732 0.193 7.5 4.94 13.8
2/20/2020 6:00:00 PM 3.7 38.66 0.193 7.49 4.11 13.75
2/20/2020 6:15:00 PM 3.65 38.57 0.193 7.48 5.08 13.72
2/20/2020 6:30:00 PM 3.6 38.48 0.193 7.47 5.85 13.7
2/20/2020 6:45:00 PM 3.54 38.372 0.193 7.46 4.3 13.68
2/20/2020 7:00:00 PM 3.5 38.3 0.193 7.45 4.5 13.68
2/20/2020 7:15:00 PM 3.46 38.228 0.193 7.44 5.13 13.68
2/20/2020 7:30:00 PM 3.4 38.12 0.193 7.44 5.54 13.68
2/20/2020 7:45:00 PM 3.35 38.03 0.193 7.44 5.43 13.69
2/20/2020 8:00:00 PM 3.29 37.922 0.193 7.43 4.37 13.69
2/20/2020 8:15:00 PM 3.24 37.832 0.193 7.42 4.26 13.69
2/20/2020 8:30:00 PM 3.18 37.724 0.193 7.42 4.49 13.71
2/20/2020 8:45:00 PM 3.11 37.598 0.193 7.42 4.33 13.72
2/20/2020 9:00:00 PM 3.04 37.472 0.193 7.41 4.49 13.74
2/20/2020 9:15:00 PM 2.98 37.364 0.194 7.41 4.54 13.76
2/20/2020 9:30:00 PM 2.9 37.22 0.194 7.4 4.14 13.78
2/20/2020 9:45:00 PM 2.83 37.094 0.194 7.4 4.26 13.81
2/20/2020 10:00:00 PM 2.76 36.968 0.194 7.4 4.36 13.84
2/20/2020 10:15:00 PM 2.68 36.824 0.194 7.4 4.23 13.87
2/20/2020 10:30:00 PM 2.61 36.698 0.194 7.39 4.21 13.91
2/20/2020 10:45:00 PM 2.53 36.554 0.194 7.4 4.31 13.93
2/20/2020 11:00:00 PM 2.45 36.41 0.194 7.39 4.77 13.96
2/20/2020 11:15:00 PM 2.38 36.284 0.194 7.39 5.2 14
2/20/2020 11:30:00 PM 2.29 36.122 0.194 7.39 4.68 14.02
2/20/2020 11:45:00 PM 2.21 35.978 0.195 7.39 5.69 14.06
2/21/2020 12:00:00 AM 2.12 35.816 0.195 7.38 4.41 14.1
2/21/2020 12:15:00 AM 2.04 35.672 0.195 7.39 4.38 14.13
2/21/2020 12:30:00 AM 1.97 35.546 0.195 7.39 5.06 14.16
2/21/2020 12:45:00 AM 1.91 35.438 0.195 7.38 4.38 14.19
2/21/2020 1:00:00 AM 1.84 35.312 0.195 7.38 4.3 14.22
2/21/2020 1:15:00 AM 1.76 35.168 0.195 7.38 4.14 14.26
2/21/2020 1:30:00 AM 1.67 35.006 0.195 7.38 4.13 14.29
2/21/2020 1:45:00 AM 1.58 34.844 0.196 7.38 4.07 14.32
2/21/2020 2:00:00 AM 1.52 34.736 0.196 7.38 4.21 14.36
2/21/2020 2:15:00 AM 1.47 34.646 0.196 7.38 4.33 14.39
2/21/2020 2:30:00 AM 1.42 34.556 0.196 7.38 5.33 14.41
2/21/2020 2:45:00 AM 1.35 34.43 0.196 7.38 5.28 14.44
2/21/2020 3:00:00 AM 1.28 34.304 0.196 7.38 5.45 14.47
2/21/2020 3:15:00 AM 1.22 34.196 0.196 7.37 5.54 14.49
2/21/2020 3:30:00 AM 1.15 34.07 0.196 7.37 5.03 14.52
2/21/2020 3:45:00 AM 1.08 33.944 0.196 7.37 5.06 14.55
2/21/2020 4:00:00 AM 1.01 33.818 0.196 7.37 5.05 14.58
2/21/2020 4:15:00 AM 0.95 33.71 0.197 7.37 4.91 14.61
2/21/2020 4:30:00 AM 0.89 33.602 0.197 7.37 4.59 14.64
2/21/2020 4:45:00 AM 0.82 33.476 0.197 7.37 5.35 14.66
2/21/2020 5:00:00 AM 0.76 33.368 0.197 7.37 5.83 14.69
2/21/2020 5:15:00 AM 0.71 33.278 0.198 7.37 5.6 14.72
2/21/2020 5:30:00 AM 0.66 33.188 0.198 7.37 5.69 14.74
2/21/2020 5:45:00 AM 0.61 33.098 0.198 7.37 6.51 14.77
2/21/2020 6:00:00 AM 0.55 32.99 0.198 7.37 5.72 14.8
2/21/2020 6:15:00 AM 0.5 32.9 0.198 7.36 5.04 14.82
2/21/2020 6:30:00 AM 0.45 32.81 0.198 7.37 5.52 14.85
2/21/2020 6:45:00 AM 0.4 32.72 0.198 7.37 5.66 14.87
2/21/2020 7:00:00 AM 0.35 32.63 0.198 7.36 4.16 14.9
2/21/2020 7:15:00 AM 0.29 32.522 0.198 7.37 4.58 14.94
2/21/2020 7:30:00 AM 0.26 32.468 0.198 7.37 4.75 14.99
2/21/2020 7:45:00 AM 0.23 32.414 0.198 7.37 7.81 15.06
2/21/2020 8:00:00 AM 0.22 32.396 0.199 7.38 5.01 15.12
2/21/2020 8:15:00 AM 0.21 32.378 0.199 7.39 4.93 15.17
2/21/2020 8:30:00 AM 0.19 32.342 0.199 7.4 4.7 15.23
2/21/2020 8:45:00 AM 0.2 32.36 0.199 7.41 4.56 15.27
2/21/2020 9:00:00 AM 0.22 32.396 0.198 7.41 4.11 15.29
2/21/2020 9:15:00 AM 0.26 32.468 0.198 7.42 7.46 15.32
2/21/2020 9:30:00 AM 0.31 32.558 0.198 7.42 4.32 15.33
2/21/2020 9:45:00 AM 0.39 32.702 0.198 7.43 4.72 15.34
2/21/2020 10:00:00 AM 0.51 32.918 0.198 7.44 4.85 15.34
2/21/2020 10:15:00 AM 0.63 33.134 0.197 7.44 5.02 15.33
2/21/2020 10:30:00 AM 0.77 33.386 0.197 7.44 4.83 15.3
2/21/2020 10:45:00 AM 0.92 33.656 0.197 7.45 4.71 15.28
2/21/2020 11:00:00 AM 1.08 33.944 0.196 7.46 4.53 15.25
2/21/2020 11:15:00 AM 1.26 34.268 0.196 7.46 4.54 15.2
2/21/2020 11:30:00 AM 1.43 34.574 0.196 7.46 4.65 15.15
2/21/2020 11:45:00 AM 1.65 34.97 0.197 7.47 4.65 15.11
2/21/2020 12:00:00 PM 1.85 35.33 0.197 7.48 2.88 15.04
2/21/2020 12:15:00 PM 2.05 35.69 0.197 7.48 4.9 14.99
2/21/2020 12:30:00 PM 2.25 36.05 0.197 7.48 5.02 14.91
2/21/2020 12:45:00 PM 2.47 36.446 0.196 7.49 5.04 14.85
2/21/2020 1:00:00 PM 2.67 36.806 0.196 7.5 4.76 14.78
2/21/2020 1:15:00 PM 2.87 37.166 0.196 7.5 4.76 14.72
2/21/2020 1:30:00 PM 3.02 37.436 0.196 7.51 4.5 14.65
2/21/2020 1:45:00 PM 3.18 37.724 0.196 7.51 5.27 14.6
2/21/2020 2:00:00 PM 3.31 37.958 0.196 7.52 4.18 14.54
2/21/2020 2:15:00 PM 3.41 38.138 0.196 7.53 4.14 14.48
2/21/2020 2:30:00 PM 3.47 38.246 0.196 7.52 4.15 14.44
2/21/2020 2:45:00 PM 3.52 38.336 0.196 7.52 4.2 14.39
2/21/2020 3:00:00 PM 3.57 38.426 0.196 7.53 4.82 14.35
2/21/2020 3:15:00 PM 3.59 38.462 0.196 7.53 5.34 14.31
2/21/2020 3:30:00 PM 3.59 38.462 0.195 7.53 5.52 14.27
2/21/2020 3:45:00 PM 3.57 38.426 0.196 7.53 5.15 14.23
2/21/2020 4:00:00 PM 3.54 38.372 0.195 7.53 5.21 14.2
2/21/2020 4:15:00 PM 3.49 38.282 0.195 7.52 5.13 14.17
2/21/2020 4:30:00 PM 3.43 38.174 0.195 7.52 5.24 14.14
2/21/2020 4:45:00 PM 3.34 38.012 0.195 7.51 5.04 14.11
2/21/2020 5:00:00 PM 3.26 37.868 0.195 7.5 4.86 14.09
2/21/2020 5:15:00 PM 3.2 37.76 0.195 7.5 5.14 14.06
2/21/2020 5:30:00 PM 3.15 37.67 0.195 7.49 5.19 14.03
2/21/2020 5:45:00 PM 3.11 37.598 0.195 7.48 5.31 13.99
2/21/2020 6:00:00 PM 3.07 37.526 0.195 7.47 5.63 13.96
2/21/2020 6:15:00 PM 3.03 37.454 0.195 7.46 5.52 13.91
2/21/2020 6:30:00 PM 2.99 37.382 0.196 7.46 4.9 13.88
2/21/2020 6:45:00 PM 2.96 37.328 0.196 7.45 4.98 13.86
2/21/2020 7:00:00 PM 2.93 37.274 0.196 7.45 5.71 13.85
2/21/2020 7:15:00 PM 2.9 37.22 0.196 7.43 5.66 13.83
2/21/2020 7:30:00 PM 2.87 37.166 0.196 7.43 4.54 13.83
2/21/2020 7:45:00 PM 2.83 37.094 0.196 7.43 4.49 13.83
2/21/2020 8:00:00 PM 2.79 37.022 0.196 7.42 5.54 13.82
2/21/2020 8:15:00 PM 2.76 36.968 0.196 7.42 5.61 13.82
2/21/2020 8:30:00 PM 2.71 36.878 0.196 7.42 5.76 13.84
2/21/2020 8:45:00 PM 2.67 36.806 0.196 7.41 5.66 13.84
2/21/2020 9:00:00 PM 2.62 36.716 0.196 7.41 5.59 13.85
2/21/2020 9:15:00 PM 2.56 36.608 0.197 7.41 5.14 13.86
2/21/2020 9:30:00 PM 2.51 36.518 0.197 7.41 4.78 13.88
2/21/2020 9:45:00 PM 2.45 36.41 0.197 7.4 5.71 13.9
2/21/2020 10:00:00 PM 2.39 36.302 0.197 7.4 4.88 13.92
2/21/2020 10:15:00 PM 2.33 36.194 0.197 7.4 5.77 13.94
2/21/2020 10:30:00 PM 2.26 36.068 0.197 7.4 4.53 13.98
2/21/2020 10:45:00 PM 2.19 35.942 0.197 7.4 5.51 13.99
2/21/2020 11:00:00 PM 2.12 35.816 0.197 7.4 5.02 14.02
2/21/2020 11:15:00 PM 2.05 35.69 0.197 7.39 5.53 14.05
2/21/2020 11:30:00 PM 1.97 35.546 0.197 7.39 5.11 14.09
2/21/2020 11:45:00 PM 1.9 35.42 0.197 7.4 5.97 14.12
2/22/2020 12:00:00 AM 1.82 35.276 0.197 7.39 5.28 14.15
2/22/2020 12:15:00 AM 1.75 35.15 0.197 7.39 5.54 14.18
2/22/2020 12:30:00 AM 1.67 35.006 0.197 7.38 5.64 14.21
2/22/2020 12:45:00 AM 1.6 34.88 0.197 7.38 5.72 14.25
2/22/2020 1:00:00 AM 1.52 34.736 0.197 7.38 5.47 14.28
2/22/2020 1:15:00 AM 1.45 34.61 0.198 7.38 5.35 14.31
2/22/2020 1:30:00 AM 1.37 34.466 0.198 7.38 4.77 14.35
2/22/2020 1:45:00 AM 1.3 34.34 0.198 7.38 5.22 14.37
2/22/2020 2:00:00 AM 1.22 34.196 0.198 7.38 5.49 14.41
2/22/2020 2:15:00 AM 1.15 34.07 0.199 7.37 5.2 14.44
2/22/2020 2:30:00 AM 1.08 33.944 0.199 7.37 5.34 14.47
2/22/2020 2:45:00 AM 1.01 33.818 0.199 7.37 5.18 14.5
2/22/2020 3:00:00 AM 0.94 33.692 0.199 7.37 4.56 14.53
2/22/2020 3:15:00 AM 0.87 33.566 0.199 7.37 5.49 14.56
2/22/2020 3:30:00 AM 0.8 33.44 0.199 7.37 5.87 14.59
2/22/2020 3:45:00 AM 0.74 33.332 0.199 7.37 5.53 14.61
2/22/2020 4:00:00 AM 0.69 33.242 0.199 7.36 5.81 14.63
2/22/2020 4:15:00 AM 0.63 33.134 0.199 7.37 4.57 14.67
2/22/2020 4:30:00 AM 0.58 33.044 0.199 7.37 5.34 14.68
2/22/2020 4:45:00 AM 0.53 32.954 0.2 7.37 4.9 14.7
2/22/2020 5:00:00 AM 0.48 32.864 0.2 7.36 4.97 14.72
2/22/2020 5:15:00 AM 0.43 32.774 0.2 7.37 5.12 14.76
2/22/2020 5:30:00 AM 0.38 32.684 0.2 7.36 5.04 14.77
2/22/2020 5:45:00 AM 0.33 32.594 0.2 7.36 5.5 14.8
2/22/2020 6:00:00 AM 0.28 32.504 0.2 7.36 5.02 14.82
2/22/2020 6:15:00 AM 0.22 32.396 0.2 7.36 4.28 14.85
2/22/2020 6:30:00 AM 0.18 32.324 0.2 7.36 5.08 14.87
2/22/2020 6:45:00 AM 0.13 32.234 0.2 7.36 4.88 14.89
2/22/2020 7:00:00 AM 0.09 32.162 0.201 7.36 4.16 14.92
2/22/2020 7:15:00 AM 0.05 32.09 0.201 7.36 4.64 14.95
2/22/2020 7:30:00 AM 0.02 32.036 0.201 7.37 4.61 15
2/22/2020 7:45:00 AM 0 32 0.201 7.37 5.63 15.07
2/22/2020 8:00:00 AM 0.01 32.018 0.201 7.38 5.58 15.12
2/22/2020 8:15:00 AM 0.02 32.036 0.201 7.38 8.61 15.17
2/22/2020 8:30:00 AM 0.05 32.09 0.201 7.39 6.4 15.21
2/22/2020 8:45:00 AM 0.09 32.162 0.201 7.4 6.33 15.23
2/22/2020 9:00:00 AM 0.14 32.252 0.201 7.4 4.51 15.27
2/22/2020 9:15:00 AM 0.21 32.378 0.2 7.41 4.41 15.28
2/22/2020 9:30:00 AM 0.3 32.54 0.2 7.42 4.32 15.3
2/22/2020 9:45:00 AM 0.42 32.756 0.2 7.42 7.05 15.28
2/22/2020 10:00:00 AM 0.57 33.026 0.2 7.43 5.53 15.27
2/22/2020 10:15:00 AM 0.73 33.314 0.199 7.44 4.58 15.24
2/22/2020 10:30:00 AM 0.92 33.656 0.199 7.44 4.43 15.2
2/22/2020 10:45:00 AM 1.12 34.016 0.198 7.45 4.31 15.16
2/22/2020 11:00:00 AM 1.33 34.394 0.198 7.45 4.44 15.09
2/22/2020 11:15:00 AM 1.55 34.79 0.197 7.46 4.7 15.04
2/22/2020 11:30:00 AM 1.78 35.204 0.197 7.47 4.59 14.98
2/22/2020 11:45:00 AM 2.01 35.618 0.197 7.47 4.48 14.9
2/22/2020 12:00:00 PM 2.27 36.086 0.197 7.48 4.65 14.83
2/22/2020 12:15:00 PM 2.54 36.572 0.197 7.49 6.97 14.75
2/22/2020 12:30:00 PM 2.82 37.076 0.197 7.5 6.66 14.67
2/22/2020 12:45:00 PM 3.08 37.544 0.197 7.5 6.22 14.59
2/22/2020 1:00:00 PM 3.34 38.012 0.197 7.52 6.96 14.5
2/22/2020 1:15:00 PM 3.59 38.462 0.197 7.52 7.03 14.43
2/22/2020 1:30:00 PM 3.8 38.84 0.197 7.53 6.66 14.33
2/22/2020 1:45:00 PM 4 39.2 0.197 7.53 6.36 14.26
2/22/2020 2:00:00 PM 4.18 39.524 0.196 7.54 5.19 14.19
2/22/2020 2:15:00 PM 4.33 39.794 0.196 7.54 6.48 14.13
2/22/2020 2:30:00 PM 4.43 39.974 0.197 7.46 6.01 14.06
2/22/2020 2:45:00 PM 4.52 40.136 0.197 7.54 4.69 13.98
2/22/2020 3:00:00 PM 4.6 40.28 0.197 7.53 4.89 13.93
2/22/2020 3:15:00 PM 4.65 40.37 0.197 7.51 4.76 13.88
2/22/2020 3:30:00 PM 4.68 40.424 0.197 7.55 4.73 13.83
2/22/2020 3:45:00 PM 4.66 40.388 0.197 7.56 5.77 13.8
2/22/2020 4:00:00 PM 4.62 40.316 0.196 7.56 5.32 13.77
2/22/2020 4:15:00 PM 4.57 40.226 0.196 7.55 5.25 13.72
2/22/2020 4:30:00 PM 4.51 40.118 0.197 7.55 5.3 13.69
2/22/2020 4:45:00 PM 4.42 39.956 0.197 7.54 5.45 13.64
2/22/2020 5:00:00 PM 4.35 39.83 0.196 7.54 5.26 13.61
2/22/2020 5:15:00 PM 4.3 39.74 0.197 7.53 5.05 13.58
2/22/2020 5:30:00 PM 4.26 39.668 0.197 7.52 5.6 13.54
2/22/2020 5:45:00 PM 4.22 39.596 0.196 7.49 5.29 13.5
2/22/2020 6:00:00 PM 4.19 39.542 0.196 7.5 4.55 13.44
2/22/2020 6:15:00 PM 4.15 39.47 0.196 7.49 4.3 13.39
2/22/2020 6:30:00 PM 4.12 39.416 0.196 7.49 7.05 13.36
2/22/2020 6:45:00 PM 4.09 39.362 0.196 7.48 5.48 13.33
2/22/2020 7:00:00 PM 4.05 39.29 0.196 7.46 4.61 13.31
2/22/2020 7:15:00 PM 4.01 39.218 0.196 7.46 4.09 13.3
2/22/2020 7:30:00 PM 3.96 39.128 0.196 7.46 4.4 13.29
2/22/2020 7:45:00 PM 3.9 39.02 0.196 7.45 4.42 13.29
2/22/2020 8:00:00 PM 3.86 38.948 0.196 7.44 4.47 13.3
2/22/2020 8:15:00 PM 3.8 38.84 0.196 7.44 5.64 13.3
2/22/2020 8:30:00 PM 3.74 38.732 0.196 7.43 4.92 13.32
2/22/2020 8:45:00 PM 3.68 38.624 0.196 7.43 4.42 13.33
2/22/2020 9:00:00 PM 3.62 38.516 0.196 7.43 6 13.34
2/22/2020 9:15:00 PM 3.54 38.372 0.196 7.42 5.3 13.36
2/22/2020 9:30:00 PM 3.47 38.246 0.196 7.42 5.69 13.39
2/22/2020 9:45:00 PM 3.4 38.12 0.196 7.42 5.5 13.41
2/22/2020 10:00:00 PM 3.33 37.994 0.196 7.42 5.16 13.45
2/22/2020 10:15:00 PM 3.24 37.832 0.196 7.41 4.69 13.48
2/22/2020 10:30:00 PM 3.16 37.688 0.196 7.41 5.07 13.5
2/22/2020 10:45:00 PM 3.08 37.544 0.196 7.41 5.84 13.53
2/22/2020 11:00:00 PM 2.99 37.382 0.197 7.4 5.65 13.57
2/22/2020 11:15:00 PM 2.9 37.22 0.197 7.41 4.77 13.6
2/22/2020 11:30:00 PM 2.82 37.076 0.197 7.4 4.81 13.64
2/22/2020 11:45:00 PM 2.73 36.914 0.197 7.4 4.36 13.68
2/23/2020 12:00:00 AM 2.64 36.752 0.197 7.4 6.66 13.71
2/23/2020 12:15:00 AM 2.56 36.608 0.197 7.4 6.36 13.74
2/23/2020 12:30:00 AM 2.46 36.428 0.198 7.4 5.1 13.79
2/23/2020 12:45:00 AM 2.38 36.284 0.198 7.4 5.43 13.83
2/23/2020 1:00:00 AM 2.29 36.122 0.198 7.4 5.14 13.88
2/23/2020 1:15:00 AM 2.2 35.96 0.198 7.39 5.03 13.91
2/23/2020 1:30:00 AM 2.11 35.798 0.198 7.39 6.64 13.95
2/23/2020 1:45:00 AM 2.02 35.636 0.199 7.39 5.28 13.98
2/23/2020 2:00:00 AM 1.93 35.474 0.199 7.39 5.29 14.03
2/23/2020 2:15:00 AM 1.84 35.312 0.199 7.39 4.61 14.06
2/23/2020 2:30:00 AM 1.76 35.168 0.199 7.39 5.15 14.11
2/23/2020 2:45:00 AM 1.67 35.006 0.2 7.39 5.57 14.14
2/23/2020 3:00:00 AM 1.59 34.862 0.2 7.39 5.29 14.18
2/23/2020 3:15:00 AM 1.51 34.718 0.2 7.38 5.33 14.21
2/23/2020 3:30:00 AM 1.42 34.556 0.2 7.38 4.75 14.26
2/23/2020 3:45:00 AM 1.35 34.43 0.201 7.38 5.51 14.28
2/23/2020 4:00:00 AM 1.27 34.286 0.201 7.38 5.23 14.33
2/23/2020 4:15:00 AM 1.2 34.16 0.201 7.38 5.12 14.34
2/23/2020 4:30:00 AM 1.13 34.034 0.201 7.38 5.25 14.38
2/23/2020 4:45:00 AM 1.07 33.926 0.202 7.38 5.29 14.4
2/23/2020 5:00:00 AM 1 33.8 0.203 7.38 4.93 14.43
2/23/2020 5:15:00 AM 0.93 33.674 0.203 7.38 4.66 14.47
2/23/2020 5:30:00 AM 0.87 33.566 0.203 7.38 4.78 14.5
2/23/2020 5:45:00 AM 0.81 33.458 0.203 7.38 4.31 14.53
2/23/2020 6:00:00 AM 0.75 33.35 0.202 7.38 4.41 14.56
2/23/2020 6:15:00 AM 0.69 33.242 0.202 7.38 4.46 14.59
2/23/2020 6:30:00 AM 0.64 33.152 0.202 7.38 5.22 14.61
2/23/2020 6:45:00 AM 0.58 33.044 0.202 7.38 5.09 14.63
2/23/2020 7:00:00 AM 0.53 32.954 0.202 7.38 4.79 14.66
2/23/2020 7:15:00 AM 0.48 32.864 0.202 7.38 4.95 14.71
2/23/2020 7:30:00 AM 0.45 32.81 0.203 7.38 8.61 14.76
2/23/2020 7:45:00 AM 0.42 32.756 0.203 7.39 5.22 14.83
2/23/2020 8:00:00 AM 0.4 32.72 0.203 7.4 5.1 14.9
2/23/2020 8:15:00 AM 0.41 32.738 0.203 7.4 5.22 14.96
2/23/2020 8:30:00 AM 0.42 32.756 0.203 7.41 5.22 15
2/23/2020 8:45:00 AM 0.45 32.81 0.203 7.42 4.85 15.04
2/23/2020 9:00:00 AM 0.5 32.9 0.203 7.43 5.43 15.07
2/23/2020 9:15:00 AM 0.56 33.008 0.202 7.43 4.97 15.1
2/23/2020 9:30:00 AM 0.64 33.152 0.202 7.44 5.05 15.11
2/23/2020 9:45:00 AM 0.76 33.368 0.202 7.44 5.01 15.1
2/23/2020 10:00:00 AM 0.92 33.656 0.201 7.45 4.98 15.09
2/23/2020 10:15:00 AM 1.08 33.944 0.201 7.46 5.36 15.07
2/23/2020 10:30:00 AM 1.27 34.286 0.2 7.46 5.45 15.04
2/23/2020 10:45:00 AM 1.49 34.682 0.199 7.47 5.57 15
2/23/2020 11:00:00 AM 1.7 35.06 0.199 7.47 5.35 14.94
2/23/2020 11:15:00 AM 1.95 35.51 0.199 7.48 5.95 14.88
2/23/2020 11:30:00 AM 2.21 35.978 0.199 7.49 6.11 14.82
2/23/2020 11:45:00 AM 2.46 36.428 0.199 7.5 6 14.74
2/23/2020 12:00:00 PM 2.75 36.95 0.199 7.51 6.41 14.68
2/23/2020 12:15:00 PM 3.05 37.49 0.199 7.52 8.78 14.59
2/23/2020 12:30:00 PM 3.33 37.994 0.199 7.53 4.84 14.5
2/23/2020 12:45:00 PM 3.62 38.516 0.199 7.54 4.6 14.41
2/23/2020 1:00:00 PM 3.88 38.984 0.199 7.54 5.43 14.32
2/23/2020 1:15:00 PM 4.15 39.47 0.199 7.56 5.27 14.25
2/23/2020 1:30:00 PM 4.37 39.866 0.198 7.56 8.17 14.17
2/23/2020 1:45:00 PM 4.59 40.262 0.198 7.57 4.51 14.08
2/23/2020 2:00:00 PM 4.77 40.586 0.198 7.53 5.04 14
2/23/2020 2:15:00 PM 4.93 40.874 0.198 7.52 4.65 13.95
2/23/2020 2:30:00 PM 5.04 41.072 0.198 7.52 6.44 13.88
2/23/2020 2:45:00 PM 5.13 41.234 0.198 7.57 5.99 13.81
2/23/2020 3:00:00 PM 5.21 41.378 0.198 7.57 6.85 13.76
2/23/2020 3:15:00 PM 5.25 41.45 0.198 7.59 5.5 13.7
2/23/2020 3:30:00 PM 5.28 41.504 0.197 7.56 7.48 13.65
2/23/2020 3:45:00 PM 5.29 41.522 0.197 7.59 6.24 13.59
2/23/2020 4:00:00 PM 5.27 41.486 0.198 7.58 5.35 13.55
2/23/2020 4:15:00 PM 5.25 41.45 0.198 7.58 4.68 13.52
2/23/2020 4:30:00 PM 5.2 41.36 0.2 7.58 4.94 13.46
2/23/2020 4:45:00 PM 5.17 41.306 0.2 7.57 7.32 13.43
2/23/2020 5:00:00 PM 5.12 41.216 0.2 7.56 3.05 13.4
2/23/2020 5:15:00 PM 5.04 41.072 0.199 7.56 5.67 13.33
2/23/2020 5:30:00 PM 4.99 40.982 0.199 7.55 11.35 13.28
2/23/2020 5:45:00 PM 4.95 40.91 0.198 7.54 4.43 13.22
2/23/2020 6:00:00 PM 4.91 40.838 0.198 7.53 8.09 13.16
2/23/2020 6:15:00 PM 4.87 40.766 0.197 7.51 4.24 13.11
2/23/2020 6:30:00 PM 4.85 40.73 0.197 7.5 5.6 13.07
2/23/2020 6:45:00 PM 4.8 40.64 0.198 7.49 4.13 13.03
2/23/2020 7:00:00 PM 4.77 40.586 0.197 7.48 5.58 13.01
2/23/2020 7:15:00 PM 4.74 40.532 0.197 7.48 4.82 12.99
2/23/2020 7:30:00 PM 4.72 40.496 0.197 7.41 3.78 12.96
2/23/2020 7:45:00 PM 4.7 40.46 0.198 7.47 4.3 12.96
2/23/2020 8:00:00 PM 4.68 40.424 0.197 7.46 4.28 12.96
2/23/2020 8:15:00 PM 4.68 40.424 0.198 7.46 4.26 12.95
2/23/2020 8:30:00 PM 4.65 40.37 0.198 7.46 4.21 12.94
2/23/2020 8:45:00 PM 4.61 40.298 0.198 7.46 4.52 12.95
2/23/2020 9:00:00 PM 4.56 40.208 0.198 7.45 4.32 12.95
2/23/2020 9:15:00 PM 4.52 40.136 0.198 7.45 4.2 12.96
2/23/2020 9:30:00 PM 4.46 40.028 0.198 7.44 4.44 12.96
2/23/2020 9:45:00 PM 4.39 39.902 0.198 7.44 4.1 12.98
2/23/2020 10:00:00 PM 4.33 39.794 0.198 7.44 4.36 13
2/23/2020 10:15:00 PM 4.26 39.668 0.198 7.43 4.27 13.01
2/23/2020 10:30:00 PM 4.19 39.542 0.198 7.43 4.31 13.04
2/23/2020 10:45:00 PM 4.12 39.416 0.198 7.43 4.18 13.06
2/23/2020 11:00:00 PM 4.04 39.272 0.198 7.43 4.39 13.1
2/23/2020 11:15:00 PM 3.97 39.146 0.198 7.42 4.42 13.12
2/23/2020 11:30:00 PM 3.88 38.984 0.198 7.42 4.25 13.14
2/23/2020 11:45:00 PM 3.8 38.84 0.198 7.42 4.2 13.18
2/24/2020 12:00:00 AM 3.72 38.696 0.198 7.42 4.42 13.2
2/24/2020 12:15:00 AM 3.64 38.552 0.198 7.42 4.13 13.25
2/24/2020 12:30:00 AM 3.56 38.408 0.198 7.42 4.31 13.29
2/24/2020 12:45:00 AM 3.49 38.282 0.198 7.41 4.06 13.32
2/24/2020 1:00:00 AM 3.42 38.156 0.199 7.41 4.15 13.34
2/24/2020 1:15:00 AM 3.34 38.012 0.199 7.41 4.3 13.38
2/24/2020 1:30:00 AM 3.25 37.85 0.199 7.4 4.26 13.4
2/24/2020 1:45:00 AM 3.17 37.706 0.199 7.4 4.09 13.43
2/24/2020 2:00:00 AM 3.09 37.562 0.199 7.4 3.99 13.47
2/24/2020 2:15:00 AM 3.01 37.418 0.199 7.4 4.05 13.51
2/24/2020 2:30:00 AM 2.92 37.256 0.199 7.4 4.05 13.55
2/24/2020 2:45:00 AM 2.83 37.094 0.199 7.4 4.03 13.58
2/24/2020 3:00:00 AM 2.75 36.95 0.199 7.4 4.07 13.62
2/24/2020 3:15:00 AM 2.67 36.806 0.199 7.4 4.39 13.66
2/24/2020 3:30:00 AM 2.6 36.68 0.2 7.4 4.79 13.67
2/24/2020 3:45:00 AM 2.52 36.536 0.2 7.4 4.03 13.71
2/24/2020 4:00:00 AM 2.45 36.41 0.2 7.39 4.21 13.74
2/24/2020 4:15:00 AM 2.38 36.284 0.2 7.39 4.17 13.77
2/24/2020 4:30:00 AM 2.31 36.158 0.2 7.39 4.18 13.8
2/24/2020 4:45:00 AM 2.24 36.032 0.2 7.39 4.24 13.83
2/24/2020 5:00:00 AM 2.18 35.924 0.2 7.38 4.31 13.84
2/24/2020 5:15:00 AM 2.12 35.816 0.2 7.39 4.16 13.88
2/24/2020 5:30:00 AM 2.06 35.708 0.2 7.39 4.27 13.9
2/24/2020 5:45:00 AM 2.01 35.618 0.2 7.39 4.18 13.93
2/24/2020 6:00:00 AM 1.95 35.51 0.2 7.39 4.57 13.95
2/24/2020 6:15:00 AM 1.89 35.402 0.2 7.38 4.18 13.97
2/24/2020 6:30:00 AM 1.83 35.294 0.2 7.38 4.38 14.01
2/24/2020 6:45:00 AM 1.78 35.204 0.2 7.38 7.64 14.02
2/24/2020 7:00:00 AM 1.73 35.114 0.2 7.38 5.05 14.05
2/24/2020 7:15:00 AM 1.68 35.024 0.2 7.39 6.43 14.1
2/24/2020 7:30:00 AM 1.64 34.952 0.2 7.39 4.26 14.16
2/24/2020 7:45:00 AM 1.62 34.916 0.2 7.4 6.2 14.23
2/24/2020 8:00:00 AM 1.61 34.898 0.2 7.41 4.81 14.31
2/24/2020 8:15:00 AM 1.62 34.916 0.2 7.42 5.03 14.37
2/24/2020 8:30:00 AM 1.63 34.934 0.2 7.42 4.81 14.43
2/24/2020 8:45:00 AM 1.66 34.988 0.2 7.44 6.2 14.48
2/24/2020 9:00:00 AM 1.72 35.096 0.2 7.44 5.97 14.51
2/24/2020 9:15:00 AM 1.78 35.204 0.2 7.45 5.54 14.53
2/24/2020 9:30:00 AM 1.86 35.348 0.2 7.46 5.37 14.55
2/24/2020 9:45:00 AM 1.98 35.564 0.2 7.47 5.42 14.58
2/24/2020 10:00:00 AM 2.14 35.852 0.2 7.48 5.3 14.57
2/24/2020 10:15:00 AM 2.32 36.176 0.199 7.49 9.07 14.57
2/24/2020 10:30:00 AM 2.51 36.518 0.199 7.5 5.18 14.55
2/24/2020 10:45:00 AM 2.71 36.878 0.199 7.51 5.82 14.52
2/24/2020 11:00:00 AM 2.94 37.292 0.199 7.53 5.27 14.46
2/24/2020 11:15:00 AM 3.14 37.652 0.199 7.54 7.36 14.42
2/24/2020 11:30:00 AM 3.34 38.012 0.199 7.55 5.62 14.38
2/24/2020 11:45:00 AM 3.56 38.408 0.199 7.55 5.82 14.33
2/24/2020 12:00:00 PM 3.77 38.786 0.198 7.57 6.06 14.29
2/24/2020 12:15:00 PM 3.96 39.128 0.198 7.58 5.73 14.23
2/24/2020 12:30:00 PM 4.13 39.434 0.198 7.59 5.79 14.18
2/24/2020 12:45:00 PM 4.32 39.776 0.198 7.6 5.48 14.11
2/24/2020 1:00:00 PM 4.44 39.992 0.198 7.61 4.32 14.07
2/24/2020 1:15:00 PM 4.55 40.19 0.198 7.61 5.97 14.03
2/24/2020 1:30:00 PM 4.67 40.406 0.198 7.62 6.79 13.99
2/24/2020 1:45:00 PM 4.8 40.64 0.198 7.62 7.06 13.95
2/24/2020 2:00:00 PM 4.96 40.928 0.198 7.62 6.3 13.91
2/24/2020 2:15:00 PM 5.07 41.126 0.198 7.62 5.2 13.85
2/24/2020 2:30:00 PM 5.16 41.288 0.198 7.64 5.68 13.8
2/24/2020 2:45:00 PM 5.24 41.432 0.197 7.59 5.83 13.75
2/24/2020 3:00:00 PM 5.36 41.648 0.198 7.59 7.16 13.71
2/24/2020 3:15:00 PM 5.48 41.864 0.197 7.63 7.04 13.67
2/24/2020 3:30:00 PM 5.59 42.062 0.197 7.65 5.97 13.61
2/24/2020 3:45:00 PM 5.62 42.116 0.197 7.62 6.08 13.53
2/24/2020 4:00:00 PM 5.66 42.188 0.197 7.61 5.61 13.48
2/24/2020 4:15:00 PM 5.73 42.314 0.197 7.64 6.03 13.41
2/24/2020 4:30:00 PM 5.75 42.35 0.197 7.61 7.64 13.32
2/24/2020 4:45:00 PM 5.74 42.332 0.197 7.58 5.96 13.22
2/24/2020 5:00:00 PM 5.75 42.35 0.197 7.58 4.9 13.17
2/24/2020 5:15:00 PM 5.76 42.368 0.197 7.56 6.15 13.07
2/24/2020 5:30:00 PM 5.75 42.35 0.197 7.56 6.24 12.98
2/24/2020 5:45:00 PM 5.75 42.35 0.196 7.54 6.22 12.91
2/24/2020 6:00:00 PM 5.76 42.368 0.197 7.53 6.99 12.82
2/24/2020 6:15:00 PM 5.77 42.386 0.197 7.52 4.83 12.76
2/24/2020 6:30:00 PM 5.78 42.404 0.197 7.48 4.23 12.7
2/24/2020 6:45:00 PM 5.78 42.404 0.197 7.51 4.31 12.66
2/24/2020 7:00:00 PM 5.77 42.386 0.197 7.47 4.78 12.63
2/24/2020 7:15:00 PM 5.77 42.386 0.197 7.46 4.44 12.61
2/24/2020 7:30:00 PM 5.73 42.314 0.197 7.46 4.99 12.57
2/24/2020 7:45:00 PM 5.72 42.296 0.197 7.47 4.88 12.55
2/24/2020 8:00:00 PM 5.72 42.296 0.197 7.47 4.61 12.55
2/24/2020 8:15:00 PM 5.72 42.296 0.197 7.42 4.65 12.54
2/24/2020 8:30:00 PM 5.71 42.278 0.197 7.44 4.57 12.52
2/24/2020 8:45:00 PM 5.69 42.242 0.197 7.45 4.46 12.5
2/24/2020 9:00:00 PM 5.69 42.242 0.197 7.44 4.54 12.5
2/24/2020 9:15:00 PM 5.69 42.242 0.197 7.45 4.56 12.5
2/24/2020 9:30:00 PM 5.68 42.224 0.197 7.44 4.5 12.5
2/24/2020 9:45:00 PM 5.66 42.188 0.198 7.44 4.53 12.5
2/24/2020 10:00:00 PM 5.64 42.152 0.197 7.44 4.48 12.51
2/24/2020 10:15:00 PM 5.61 42.098 0.198 7.41 4.56 12.51
2/24/2020 10:30:00 PM 5.57 42.026 0.198 7.44 4.43 12.52
2/24/2020 10:45:00 PM 5.53 41.954 0.198 7.43 4.52 12.52
2/24/2020 11:00:00 PM 5.49 41.882 0.198 7.43 4.48 12.53
2/24/2020 11:15:00 PM 5.45 41.81 0.198 7.42 4.52 12.54
2/24/2020 11:30:00 PM 5.41 41.738 0.198 7.42 4.78 12.56
2/24/2020 11:45:00 PM 5.38 41.684 0.198 7.42 4.57 12.58
2/25/2020 12:00:00 AM 5.35 41.63 0.198 7.43 4.61 12.58
2/25/2020 12:15:00 AM 5.31 41.558 0.198 7.42 4.7 12.6
2/25/2020 12:30:00 AM 5.28 41.504 0.198 7.42 4.95 12.61
2/25/2020 12:45:00 AM 5.24 41.432 0.198 7.42 4.75 12.62
2/25/2020 1:00:00 AM 5.2 41.36 0.198 7.41 4.62 12.63
2/25/2020 1:15:00 AM 5.17 41.306 0.198 7.42 4.63 12.65
2/25/2020 1:30:00 AM 5.13 41.234 0.198 7.41 4.65 12.67
2/25/2020 1:45:00 AM 5.1 41.18 0.198 7.36 4.79 12.69
2/25/2020 2:00:00 AM 5.07 41.126 0.198 7.41 4.54 12.69
2/25/2020 2:15:00 AM 5.04 41.072 0.198 7.41 4.31 12.72
2/25/2020 2:30:00 AM 5 41 0.199 7.41 4.45 12.74
2/25/2020 2:45:00 AM 4.97 40.946 0.199 7.41 4.65 12.74
2/25/2020 3:00:00 AM 4.94 40.892 0.199 7.41 4.38 12.74
2/25/2020 3:15:00 AM 4.91 40.838 0.199 7.41 4.57 12.76
2/25/2020 3:30:00 AM 4.88 40.784 0.199 7.41 4.33 12.77
2/25/2020 3:45:00 AM 4.85 40.73 0.199 7.4 4.51 12.78
2/25/2020 4:00:00 AM 4.82 40.676 0.199 7.4 4.87 12.79
2/25/2020 4:15:00 AM 4.8 40.64 0.199 7.4 4.67 12.8
2/25/2020 4:30:00 AM 4.78 40.604 0.199 7.4 4.71 12.8
2/25/2020 4:45:00 AM 4.76 40.568 0.199 7.4 4.59 12.82
2/25/2020 5:00:00 AM 4.74 40.532 0.199 7.4 4.66 12.82
2/25/2020 5:15:00 AM 4.71 40.478 0.199 7.4 4.72 12.83
2/25/2020 5:30:00 AM 4.68 40.424 0.199 7.39 4.73 12.83
2/25/2020 5:45:00 AM 4.65 40.37 0.199 7.4 4.85 12.84
2/25/2020 6:00:00 AM 4.61 40.298 0.199 7.4 4.5 12.84
2/25/2020 6:15:00 AM 4.58 40.244 0.199 7.4 4.64 12.87
2/25/2020 6:30:00 AM 4.54 40.172 0.199 7.39 4.51 12.86
2/25/2020 6:45:00 AM 4.51 40.118 0.199 7.4 4.7 12.88
2/25/2020 7:00:00 AM 4.5 40.1 0.199 7.39 4.5 12.89
2/25/2020 7:15:00 AM 4.49 40.082 0.199 7.4 7.82 12.91
2/25/2020 7:30:00 AM 4.49 40.082 0.199 7.4 4.3 12.96
2/25/2020 7:45:00 AM 4.5 40.1 0.199 7.41 4.37 13.02
2/25/2020 8:00:00 AM 4.51 40.118 0.199 7.42 4.63 13.05
2/25/2020 8:15:00 AM 4.52 40.136 0.199 7.42 4.34 13.08
2/25/2020 8:30:00 AM 4.53 40.154 0.199 7.43 4.23 13.11
2/25/2020 8:45:00 AM 4.57 40.226 0.199 7.44 4.26 13.19
2/25/2020 9:00:00 AM 4.63 40.334 0.199 7.46 4.26 13.3
2/25/2020 9:15:00 AM 4.68 40.424 0.199 7.48 4.2 13.34
2/25/2020 9:30:00 AM 4.73 40.514 0.199 7.49 4.39 13.38
2/25/2020 9:45:00 AM 4.79 40.622 0.199 7.51 4.07 13.41
2/25/2020 10:00:00 AM 4.84 40.712 0.199 7.52 4.23 13.43
2/25/2020 10:15:00 AM 4.89 40.802 0.199 7.52 4.42 13.42
2/25/2020 10:30:00 AM 4.94 40.892 0.198 7.54 4.19 13.42
2/25/2020 10:45:00 AM 4.99 40.982 0.198 7.54 4.2 13.41
2/25/2020 11:00:00 AM 5.07 41.126 0.198 7.56 4.22 13.44
2/25/2020 11:15:00 AM 5.17 41.306 0.198 7.57 4.77 13.5
2/25/2020 11:30:00 AM 5.26 41.468 0.198 7.59 4.59 13.5
2/25/2020 11:45:00 AM 5.32 41.576 0.198 7.59 4.43 13.47
2/25/2020 12:00:00 PM 5.41 41.738 0.198 7.6 5.4 13.48
2/25/2020 12:15:00 PM 5.51 41.918 0.198 7.62 5.44 13.48
2/25/2020 12:30:00 PM 5.57 42.026 0.198 7.6 4.26 13.44
2/25/2020 12:45:00 PM 5.61 42.098 0.198 7.62 7.09 13.38
2/25/2020 1:00:00 PM 5.67 42.206 0.197 7.62 4.55 13.36
2/25/2020 1:15:00 PM 5.7 42.26 0.198 7.62 5.15 13.29
2/25/2020 1:30:00 PM 5.74 42.332 0.197 7.62 4.3 13.28
2/25/2020 1:45:00 PM 5.77 42.386 0.197 7.58 4.38 13.22
2/25/2020 2:00:00 PM 5.8 42.44 0.197 7.59 4.83 13.19
2/25/2020 2:15:00 PM 5.85 42.53 0.197 7.6 4.51 13.23
2/25/2020 2:30:00 PM 5.89 42.602 0.197 7.59 4.77 13.23
2/25/2020 2:45:00 PM 5.93 42.674 0.197 7.59 5.48 13.2
2/25/2020 3:00:00 PM 5.96 42.728 0.197 7.58 8.31 13.17
2/25/2020 3:15:00 PM 5.99 42.782 0.197 7.61 8.08 13.12
2/25/2020 3:30:00 PM 6.01 42.818 0.197 7.57 7.88 13.06
2/25/2020 3:45:00 PM 6.03 42.854 0.197 7.57 7.33 13.02
2/25/2020 4:00:00 PM 6.04 42.872 0.197 7.56 7.19 12.95
2/25/2020 4:15:00 PM 6.04 42.872 0.197 7.55 8.19 12.89
2/25/2020 4:30:00 PM 6.05 42.89 0.197 7.53 6.99 12.83
2/25/2020 4:45:00 PM 6.06 42.908 0.197 7.52 7.27 12.83
2/25/2020 5:00:00 PM 6.07 42.926 0.197 7.52 7.47 12.78
2/25/2020 5:15:00 PM 6.07 42.926 0.197 7.52 4.81 12.71
2/25/2020 5:30:00 PM 6.07 42.926 0.197 7.5 4.49 12.66
2/25/2020 5:45:00 PM 6.07 42.926 0.196 7.51 5.6 12.6
2/25/2020 6:00:00 PM 6.07 42.926 0.197 7.5 5.22 12.56
2/25/2020 6:15:00 PM 6.07 42.926 0.197 7.46 5.06 12.53
2/25/2020 6:30:00 PM -99999.99 -179968 -99999.99 -99999.99 -99999.99 -99999.99
2/25/2020 6:45:00 PM -99999.99 -179968 -99999.99 -99999.99 -99999.99 -99999.99
2/25/2020 7:00:00 PM -99999.99 -179968 -99999.99 -99999.99 -99999.99 -99999.99
2/25/2020 7:15:00 PM -99999.99 -179968 -99999.99 -99999.99 -99999.99 -99999.99
2/25/2020 7:30:00 PM -99999.99 -179968 -99999.99 -99999.99 -99999.99 -99999.99
2/25/2020 7:45:00 PM -99999.99 -179968 -99999.99 -99999.99 -99999.99 -99999.99
2/25/2020 8:00:00 PM -99999.99 -179968 -99999.99 -99999.99 -99999.99 -99999.99
2/25/2020 8:15:00 PM -99999.99 -179968 -99999.99 -99999.99 -99999.99 -99999.99
2/25/2020 8:30:00 PM -99999.99 -179968 -99999.99 -99999.99 -99999.99 -99999.99
2/25/2020 8:45:00 PM -99999.99 -179968 -99999.99 -99999.99 -99999.99 -99999.99
2/25/2020 9:00:00 PM -99999.99 -179968 -99999.99 -99999.99 -99999.99 -99999.99
2/25/2020 9:15:00 PM -99999.99 -179968 -99999.99 -99999.99 -99999.99 -99999.99
2/25/2020 9:30:00 PM -99999.99 -179968 -99999.99 -99999.99 -99999.99 -99999.99
2/25/2020 9:45:00 PM -99999.99 -179968 -99999.99 -99999.99 -99999.99 -99999.99
2/25/2020 10:00:00 PM -99999.99 -179968 -99999.99 -99999.99 -99999.99 -99999.99
2/25/2020 10:15:00 PM -99999.99 -179968 -99999.99 -99999.99 -99999.99 -99999.99
2/25/2020 10:30:00 PM -99999.99 -179968 -99999.99 -99999.99 -99999.99 -99999.99
2/25/2020 10:45:00 PM -99999.99 -179968 -99999.99 -99999.99 -99999.99 -99999.99
2/25/2020 11:00:00 PM -99999.99 -179968 -99999.99 -99999.99 -99999.99 -99999.99
2/25/2020 11:15:00 PM -99999.99 -179968 -99999.99 -99999.99 -99999.99 -99999.99
2/25/2020 11:30:00 PM -99999.99 -179968 -99999.99 -99999.99 -99999.99 -99999.99
2/25/2020 11:45:00 PM -99999.99 -179968 -99999.99 -99999.99 -99999.99 -99999.99
2/26/2020 12:00:00 AM -99999.99 -179968 -99999.99 -99999.99 -99999.99 -99999.99
2/26/2020 12:15:00 AM -99999.99 -179968 -99999.99 -99999.99 -99999.99 -99999.99
2/26/2020 12:30:00 AM -99999.99 -179968 -99999.99 -99999.99 -99999.99 -99999.99
2/26/2020 12:45:00 AM -99999.99 -179968 -99999.99 -99999.99 -99999.99 -99999.99
2/26/2020 1:00:00 AM -99999.99 -179968 -99999.99 -99999.99 -99999.99 -99999.99
2/26/2020 1:15:00 AM -99999.99 -179968 -99999.99 -99999.99 -99999.99 -99999.99
2/26/2020 1:30:00 AM -99999.99 -179968 -99999.99 -99999.99 -99999.99 -99999.99
2/26/2020 1:45:00 AM -99999.99 -179968 -99999.99 -99999.99 -99999.99 -99999.99
2/26/2020 2:00:00 AM -99999.99 -179968 -99999.99 -99999.99 -99999.99 -99999.99
2/26/2020 2:15:00 AM -99999.99 -179968 -99999.99 -99999.99 -99999.99 -99999.99
2/26/2020 2:30:00 AM -99999.99 -179968 -99999.99 -99999.99 -99999.99 -99999.99
2/26/2020 2:45:00 AM -99999.99 -179968 -99999.99 -99999.99 -99999.99 -99999.99
2/26/2020 3:00:00 AM -99999.99 -179968 -99999.99 -99999.99 -99999.99 -99999.99
2/26/2020 3:15:00 AM -99999.99 -179968 -99999.99 -99999.99 -99999.99 -99999.99
2/26/2020 3:30:00 AM -99999.99 -179968 -99999.99 -99999.99 -99999.99 -99999.99
2/26/2020 3:45:00 AM -99999.99 -179968 -99999.99 -99999.99 -99999.99 -99999.99
2/26/2020 4:00:00 AM -99999.99 -179968 -99999.99 -99999.99 -99999.99 -99999.99
2/26/2020 4:15:00 AM -99999.99 -179968 -99999.99 -99999.99 -99999.99 -99999.99
2/26/2020 4:30:00 AM -99999.99 -179968 -99999.99 -99999.99 -99999.99 -99999.99
2/26/2020 4:45:00 AM -99999.99 -179968 -99999.99 -99999.99 -99999.99 -99999.99
2/26/2020 5:00:00 AM -99999.99 -179968 -99999.99 -99999.99 -99999.99 -99999.99
2/26/2020 5:15:00 AM -99999.99 -179968 -99999.99 -99999.99 -99999.99 -99999.99
2/26/2020 5:30:00 AM -99999.99 -179968 -99999.99 -99999.99 -99999.99 -99999.99
2/26/2020 5:45:00 AM -99999.99 -179968 -99999.99 -99999.99 -99999.99 -99999.99
2/26/2020 6:00:00 AM -99999.99 -179968 -99999.99 -99999.99 -99999.99 -99999.99
2/26/2020 6:15:00 AM -99999.99 -179968 -99999.99 -99999.99 -99999.99 -99999.99
2/26/2020 6:30:00 AM -99999.99 -179968 -99999.99 -99999.99 -99999.99 -99999.99
2/26/2020 6:45:00 AM -99999.99 -179968 -99999.99 -99999.99 -99999.99 -99999.99
2/26/2020 7:00:00 AM -99999.99 -179968 -99999.99 -99999.99 -99999.99 -99999.99
2/26/2020 7:15:00 AM -99999.99 -179968 -99999.99 -99999.99 -99999.99 -99999.99
2/26/2020 7:30:00 AM -99999.99 -179968 -99999.99 -99999.99 -99999.99 -99999.99
2/26/2020 7:45:00 AM -99999.99 -179968 -99999.99 -99999.99 -99999.99 -99999.99
2/26/2020 8:00:00 AM -99999.99 -179968 -99999.99 -99999.99 -99999.99 -99999.99
2/26/2020 8:15:00 AM -99999.99 -179968 -99999.99 -99999.99 -99999.99 -99999.99
2/26/2020 8:30:00 AM -99999.99 -179968 -99999.99 -99999.99 -99999.99 -99999.99
2/26/2020 8:45:00 AM -99999.99 -179968 -99999.99 -99999.99 -99999.99 -99999.99
2/26/2020 9:00:00 AM -99999.99 -179968 -99999.99 -99999.99 -99999.99 -99999.99
2/26/2020 9:15:00 AM -99999.99 -179968 -99999.99 -99999.99 -99999.99 -99999.99
2/26/2020 9:30:00 AM -99999.99 -179968 -99999.99 -99999.99 -99999.99 -99999.99
2/26/2020 9:45:00 AM -99999.99 -179968 -99999.99 -99999.99 -99999.99 -99999.99
2/26/2020 10:00:00 AM -99999.99 -179968 -99999.99 -99999.99 -99999.99 -99999.99
2/26/2020 10:15:00 AM -99999.99 -179968 -99999.99 -99999.99 -99999.99 -99999.99
2/26/2020 10:30:00 AM -99999.99 -179968 -99999.99 -99999.99 -99999.99 -99999.99
2/26/2020 10:45:00 AM -99999.99 -179968 -99999.99 -99999.99 -99999.99 -99999.99
2/26/2020 11:00:00 AM -99999.99 -179968 -99999.99 -99999.99 -99999.99 -99999.99
2/26/2020 11:15:00 AM -99999.99 -179968 -99999.99 -99999.99 -99999.99 -99999.99
2/26/2020 11:30:00 AM -99999.99 -179968 -99999.99 -99999.99 -99999.99 -99999.99
2/26/2020 11:45:00 AM -99999.99 -179968 -99999.99 -99999.99 -99999.99 -99999.99
2/26/2020 12:00:00 PM -99999.99 -179968 -99999.99 -99999.99 -99999.99 -99999.99
2/26/2020 12:15:00 PM -99999.99 -179968 -99999.99 -99999.99 -99999.99 -99999.99
2/26/2020 12:30:00 PM -99999.99 -179968 -99999.99 -99999.99 -99999.99 -99999.99
2/26/2020 12:45:00 PM -99999.99 -179968 -99999.99 -99999.99 -99999.99 -99999.99
2/26/2020 1:00:00 PM -99999.99 -179968 -99999.99 -99999.99 -99999.99 -99999.99
2/26/2020 1:15:00 PM -99999.99 -179968 -99999.99 -99999.99 -99999.99 -99999.99
2/26/2020 1:30:00 PM -99999.99 -179968 -99999.99 -99999.99 -99999.99 -99999.99
2/26/2020 1:45:00 PM -99999.99 -179968 -99999.99 -99999.99 -99999.99 -99999.99
2/26/2020 2:00:00 PM -99999.99 -179968 -99999.99 -99999.99 -99999.99 -99999.99
2/26/2020 2:15:00 PM -99999.99 -179968 -99999.99 -99999.99 -99999.99 -99999.99
2/26/2020 2:30:00 PM -99999.99 -179968 -99999.99 -99999.99 -99999.99 -99999.99
2/26/2020 2:45:00 PM -99999.99 -179968 -99999.99 -99999.99 -99999.99 -99999.99
2/26/2020 3:00:00 PM -99999.99 -179968 -99999.99 -99999.99 -99999.99 -99999.99
2/26/2020 3:15:00 PM -99999.99 -179968 -99999.99 -99999.99 -99999.99 -99999.99
2/26/2020 3:30:00 PM -99999.99 -179968 -99999.99 -99999.99 -99999.99 -99999.99
2/26/2020 3:45:00 PM -99999.99 -179968 -99999.99 -99999.99 -99999.99 -99999.99
2/26/2020 4:00:00 PM -99999.99 -179968 -99999.99 -99999.99 -99999.99 -99999.99
2/26/2020 4:15:00 PM -99999.99 -179968 -99999.99 -99999.99 -99999.99 -99999.99
2/26/2020 4:30:00 PM -99999.99 -179968 -99999.99 -99999.99 -99999.99 -99999.99
2/26/2020 4:45:00 PM -99999.99 -179968 -99999.99 -99999.99 -99999.99 -99999.99
2/26/2020 5:00:00 PM -99999.99 -179968 -99999.99 -99999.99 -99999.99 -99999.99
2/26/2020 5:15:00 PM -99999.99 -179968 -99999.99 -99999.99 -99999.99 -99999.99
2/26/2020 5:30:00 PM -99999.99 -179968 -99999.99 -99999.99 -99999.99 -99999.99
2/26/2020 5:45:00 PM -99999.99 -179968 -99999.99 -99999.99 -99999.99 -99999.99
2/26/2020 6:00:00 PM -99999.99 -179968 -99999.99 -99999.99 -99999.99 -99999.99
2/26/2020 6:15:00 PM -99999.99 -179968 -99999.99 -99999.99 -99999.99 -99999.99
2/26/2020 6:30:00 PM -99999.99 -179968 -99999.99 -99999.99 -99999.99 -99999.99
2/26/2020 6:45:00 PM -99999.99 -179968 -99999.99 -99999.99 -99999.99 -99999.99
2/26/2020 7:00:00 PM -99999.99 -179968 -99999.99 -99999.99 -99999.99 -99999.99
2/26/2020 7:15:00 PM -99999.99 -179968 -99999.99 -99999.99 -99999.99 -99999.99
2/26/2020 7:30:00 PM -99999.99 -179968 -99999.99 -99999.99 -99999.99 -99999.99
2/26/2020 7:45:00 PM -99999.99 -179968 -99999.99 -99999.99 -99999.99 -99999.99
2/26/2020 8:00:00 PM -99999.99 -179968 -99999.99 -99999.99 -99999.99 -99999.99
2/26/2020 8:15:00 PM -99999.99 -179968 -99999.99 -99999.99 -99999.99 -99999.99
2/26/2020 8:30:00 PM -99999.99 -179968 -99999.99 -99999.99 -99999.99 -99999.99
2/26/2020 8:45:00 PM -99999.99 -179968 -99999.99 -99999.99 -99999.99 -99999.99
2/26/2020 9:00:00 PM -99999.99 -179968 -99999.99 -99999.99 -99999.99 -99999.99
2/26/2020 9:15:00 PM -99999.99 -179968 -99999.99 -99999.99 -99999.99 -99999.99
2/26/2020 9:30:00 PM -99999.99 -179968 -99999.99 -99999.99 -99999.99 -99999.99
2/26/2020 9:45:00 PM -99999.99 -179968 -99999.99 -99999.99 -99999.99 -99999.99
2/26/2020 10:00:00 PM -99999.99 -179968 -99999.99 -99999.99 -99999.99 -99999.99
2/26/2020 10:15:00 PM -99999.99 -179968 -99999.99 -99999.99 -99999.99 -99999.99
2/26/2020 10:30:00 PM -99999.99 -179968 -99999.99 -99999.99 -99999.99 -99999.99
2/26/2020 10:45:00 PM -99999.99 -179968 -99999.99 -99999.99 -99999.99 -99999.99
2/26/2020 11:00:00 PM -99999.99 -179968 -99999.99 -99999.99 -99999.99 -99999.99
2/26/2020 11:15:00 PM -99999.99 -179968 -99999.99 -99999.99 -99999.99 -99999.99
2/26/2020 11:30:00 PM -99999.99 -179968 -99999.99 -99999.99 -99999.99 -99999.99
2/26/2020 11:45:00 PM -99999.99 -179968 -99999.99 -99999.99 -99999.99 -99999.99
2/27/2020 12:00:00 AM -99999.99 -179968 -99999.99 -99999.99 -99999.99 -99999.99
2/27/2020 12:15:00 AM -99999.99 -179968 -99999.99 -99999.99 -99999.99 -99999.99
2/27/2020 12:30:00 AM -99999.99 -179968 -99999.99 -99999.99 -99999.99 -99999.99
2/27/2020 12:45:00 AM -99999.99 -179968 -99999.99 -99999.99 -99999.99 -99999.99
2/27/2020 1:00:00 AM -99999.99 -179968 -99999.99 -99999.99 -99999.99 -99999.99
2/27/2020 1:15:00 AM -99999.99 -179968 -99999.99 -99999.99 -99999.99 -99999.99
2/27/2020 1:30:00 AM -99999.99 -179968 -99999.99 -99999.99 -99999.99 -99999.99
2/27/2020 1:45:00 AM -99999.99 -179968 -99999.99 -99999.99 -99999.99 -99999.99
2/27/2020 2:00:00 AM -99999.99 -179968 -99999.99 -99999.99 -99999.99 -99999.99
2/27/2020 2:15:00 AM -99999.99 -179968 -99999.99 -99999.99 -99999.99 -99999.99
2/27/2020 2:30:00 AM -99999.99 -179968 -99999.99 -99999.99 -99999.99 -99999.99
2/27/2020 2:45:00 AM -99999.99 -179968 -99999.99 -99999.99 -99999.99 -99999.99
2/27/2020 3:00:00 AM -99999.99 -179968 -99999.99 -99999.99 -99999.99 -99999.99
2/27/2020 3:15:00 AM -99999.99 -179968 -99999.99 -99999.99 -99999.99 -99999.99
2/27/2020 3:30:00 AM -99999.99 -179968 -99999.99 -99999.99 -99999.99 -99999.99
2/27/2020 3:45:00 AM -99999.99 -179968 -99999.99 -99999.99 -99999.99 -99999.99
2/27/2020 4:00:00 AM -99999.99 -179968 -99999.99 -99999.99 -99999.99 -99999.99
2/27/2020 4:15:00 AM -99999.99 -179968 -99999.99 -99999.99 -99999.99 -99999.99
2/27/2020 4:30:00 AM -99999.99 -179968 -99999.99 -99999.99 -99999.99 -99999.99
2/27/2020 4:45:00 AM -99999.99 -179968 -99999.99 -99999.99 -99999.99 -99999.99
2/27/2020 5:00:00 AM -99999.99 -179968 -99999.99 -99999.99 -99999.99 -99999.99
2/27/2020 5:15:00 AM -99999.99 -179968 -99999.99 -99999.99 -99999.99 -99999.99
2/27/2020 5:30:00 AM -99999.99 -179968 -99999.99 -99999.99 -99999.99 -99999.99
2/27/2020 5:45:00 AM -99999.99 -179968 -99999.99 -99999.99 -99999.99 -99999.99
2/27/2020 6:00:00 AM -99999.99 -179968 -99999.99 -99999.99 -99999.99 -99999.99
2/27/2020 6:15:00 AM -99999.99 -179968 -99999.99 -99999.99 -99999.99 -99999.99
2/27/2020 6:30:00 AM -99999.99 -179968 -99999.99 -99999.99 -99999.99 -99999.99
2/27/2020 6:45:00 AM -99999.99 -179968 -99999.99 -99999.99 -99999.99 -99999.99
2/27/2020 7:00:00 AM -99999.99 -179968 -99999.99 -99999.99 -99999.99 -99999.99
2/27/2020 7:15:00 AM -99999.99 -179968 -99999.99 -99999.99 -99999.99 -99999.99
2/27/2020 7:30:00 AM -99999.99 -179968 -99999.99 -99999.99 -99999.99 -99999.99
2/27/2020 7:45:00 AM -99999.99 -179968 -99999.99 -99999.99 -99999.99 -99999.99
2/27/2020 8:00:00 AM -99999.99 -179968 -99999.99 -99999.99 -99999.99 -99999.99
2/27/2020 8:15:00 AM -99999.99 -179968 -99999.99 -99999.99 -99999.99 -99999.99
2/27/2020 8:30:00 AM -99999.99 -179968 -99999.99 -99999.99